Provisional Data: Portage Creek near Emporium, PA


Please select a monitoring station.
Please select start date.
Please select start date.

Toggle Unit: C/F Toggle Unit: C/F
Sample Time Temperature (C) Temperature (F) Specific Conductivity (mS/cm) pH   Turbidity (NTU+) DO (mg/L)
3/7/2021 12:00:00 AM 1.13 34.034 0.063 7.19 3.99 13.73
3/7/2021 12:15:00 AM 1.09 33.962 0.063 7.13 3.92 13.74
3/7/2021 12:30:00 AM 1.05 33.89 0.063 7.19 3.99 13.75
3/7/2021 12:45:00 AM 1 33.8 0.063 7.15 3.98 13.77
3/7/2021 1:00:00 AM 0.95 33.71 0.063 7.18 3.97 13.79
3/7/2021 1:15:00 AM 0.89 33.602 0.063 7.19 3.89 13.82
3/7/2021 1:30:00 AM 0.85 33.53 0.063 7.15 3.92 13.83
3/7/2021 1:45:00 AM 0.8 33.44 0.064 7.19 4.01 13.85
3/7/2021 2:00:00 AM 0.74 33.332 0.064 7.19 3.98 13.88
3/7/2021 2:15:00 AM 0.68 33.224 0.064 7.19 3.89 13.89
3/7/2021 2:30:00 AM 0.63 33.134 0.064 7.18 3.9 13.93
3/7/2021 2:45:00 AM 0.57 33.026 0.064 7.19 3.88 13.95
3/7/2021 3:00:00 AM 0.51 32.918 0.064 7.17 3.94 13.97
3/7/2021 3:15:00 AM 0.46 32.828 0.064 7.19 4 13.99
3/7/2021 3:30:00 AM 0.4 32.72 0.064 7.19 3.89 14.01
3/7/2021 3:45:00 AM 0.34 32.612 0.064 7.19 3.91 14.04
3/7/2021 4:00:00 AM 0.29 32.522 0.064 7.14 3.95 14.06
3/7/2021 4:15:00 AM 0.23 32.414 0.064 7.19 3.92 14.09
3/7/2021 4:30:00 AM 0.17 32.306 0.064 7.15 3.87 14.1
3/7/2021 4:45:00 AM 0.11 32.198 0.064 7.19 3.79 14.15
3/7/2021 5:00:00 AM 0.06 32.108 0.064 7.15 3.91 14.17
3/7/2021 5:15:00 AM 0 32 0.064 7.18 3.9 14.2
3/7/2021 5:30:00 AM -0.06 31.892 0.064 7.19 3.95 14.23
3/7/2021 5:45:00 AM -0.11 31.802 0.064 7.19 3.9 14.26
3/7/2021 6:00:00 AM -0.11 31.802 0.064 7.17 3.92 14.3
3/7/2021 6:15:00 AM -0.11 31.802 0.064 7.19 3.93 14.32
3/7/2021 6:30:00 AM -0.11 31.802 0.064 7.19 3.92 14.34
3/7/2021 6:45:00 AM -0.11 31.802 0.064 7.15 4.08 14.36
3/7/2021 7:00:00 AM -0.11 31.802 0.064 7.18 3.94 14.42
3/7/2021 7:15:00 AM -0.11 31.802 0.064 7.21 3.96 14.49
3/7/2021 7:30:00 AM -0.11 31.802 0.064 7.23 3.97 14.56
3/7/2021 7:45:00 AM -0.1 31.82 0.064 7.22 3.97 14.59
3/7/2021 8:00:00 AM -0.11 31.802 0.064 7.24 3.96 14.63
3/7/2021 8:15:00 AM -0.11 31.802 0.064 7.25 4 14.7
3/7/2021 8:30:00 AM -0.11 31.802 0.064 7.27 3.97 14.76
3/7/2021 8:45:00 AM -0.1 31.82 0.064 7.29 4.06 14.79
3/7/2021 9:00:00 AM -0.11 31.802 0.064 7.3 3.95 14.81
3/7/2021 9:15:00 AM -0.1 31.82 0.064 7.32 4.03 14.82
3/7/2021 9:30:00 AM -0.1 31.82 0.064 7.31 4.01 14.78
3/7/2021 9:45:00 AM -0.1 31.82 0.064 7.31 4.05 14.78
3/7/2021 10:00:00 AM -0.02 31.964 0.064 7.33 3.97 14.77
3/7/2021 10:15:00 AM 0.11 32.198 0.064 7.33 4.02 14.74
3/7/2021 10:30:00 AM 0.29 32.522 0.064 7.28 3.95 14.74
3/7/2021 10:45:00 AM 0.47 32.846 0.064 7.33 3.96 14.7
3/7/2021 11:00:00 AM 0.64 33.152 0.064 7.3 3.9 14.69
3/7/2021 11:15:00 AM 0.8 33.44 0.064 7.32 3.96 14.62
3/7/2021 11:30:00 AM 1 33.8 0.064 7.34 3.94 14.57
3/7/2021 11:45:00 AM 1.25 34.25 0.064 7.33 3.95 14.5
3/7/2021 12:00:00 PM 1.51 34.718 0.064 7.34 3.9 14.43
3/7/2021 12:15:00 PM 1.78 35.204 0.064 7.31 3.88 14.35
3/7/2021 12:30:00 PM 2 35.6 0.063 7.34 3.92 14.28
3/7/2021 12:45:00 PM 2.17 35.906 0.063 7.32 3.91 14.24
3/7/2021 1:00:00 PM 2.34 36.212 0.063 7.35 3.84 14.2
3/7/2021 1:15:00 PM 2.47 36.446 0.063 7.34 3.99 14.16
3/7/2021 1:30:00 PM 2.61 36.698 0.063 7.31 3.91 14.1
3/7/2021 1:45:00 PM 2.71 36.878 0.062 7.35 3.85 14.07
3/7/2021 2:00:00 PM 2.81 37.058 0.062 7.35 4.05 14.01
3/7/2021 2:15:00 PM 2.98 37.364 0.062 7.36 4.08 13.94
3/7/2021 2:30:00 PM 3.2 37.76 0.062 7.32 3.84 13.82
3/7/2021 2:45:00 PM 3.4 38.12 0.063 7.37 3.9 13.71
3/7/2021 3:00:00 PM 3.57 38.426 0.062 7.37 4.31 13.62
3/7/2021 3:15:00 PM 3.68 38.624 0.063 7.37 3.9 13.56
3/7/2021 3:30:00 PM 3.73 38.714 0.063 7.34 4.08 13.51
3/7/2021 3:45:00 PM 3.79 38.822 0.063 7.38 3.91 13.44
3/7/2021 4:00:00 PM 3.81 38.858 0.063 7.36 3.93 13.4
3/7/2021 4:15:00 PM 3.82 38.876 0.063 7.38 4 13.36
3/7/2021 4:30:00 PM 3.81 38.858 0.063 7.34 4.01 13.31
3/7/2021 4:45:00 PM 3.79 38.822 0.063 7.37 4.19 13.28
3/7/2021 5:00:00 PM 3.77 38.786 0.063 7.37 4.05 13.26
3/7/2021 5:15:00 PM 3.69 38.642 0.059 7.32 4.74 13.25
3/7/2021 5:30:00 PM 3.58 38.444 0.063 7.3 4.14 13.25
3/7/2021 5:45:00 PM 3.44 38.192 0.062 7.33 4.11 13.25
3/7/2021 6:00:00 PM 3.27 37.886 0.062 7.31 4.05 13.26
3/7/2021 6:15:00 PM 3.1 37.58 0.062 7.25 4.19 13.27
3/7/2021 6:30:00 PM 2.94 37.292 0.063 7.28 4.1 13.28
3/7/2021 6:45:00 PM 2.79 37.022 0.063 7.27 4.04 13.29
3/7/2021 7:00:00 PM 2.65 36.77 0.063 7.23 4.01 13.29
3/7/2021 7:15:00 PM 2.51 36.518 0.063 7.25 4.04 13.34
3/7/2021 7:30:00 PM 2.37 36.266 0.063 7.24 4.2 13.36
3/7/2021 7:45:00 PM 2.24 36.032 0.063 7.23 3.98 13.38
3/7/2021 8:00:00 PM 2.11 35.798 0.064 7.19 4.09 13.42
3/7/2021 8:15:00 PM 1.99 35.582 0.064 7.21 3.99 13.45
3/7/2021 8:30:00 PM 1.88 35.384 0.064 7.22 4.13 13.49
3/7/2021 8:45:00 PM 1.78 35.204 0.064 7.18 4.31 13.53
3/7/2021 9:00:00 PM 1.68 35.024 0.064 7.21 4.31 13.56
3/7/2021 9:15:00 PM 1.59 34.862 0.065 7.17 4.04 13.59
3/7/2021 9:30:00 PM 1.49 34.682 0.065 7.2 3.98 13.62
3/7/2021 9:45:00 PM 1.41 34.538 0.065 7.21 4.01 13.65
3/7/2021 10:00:00 PM 1.32 34.376 0.065 7.2 3.92 13.69
3/7/2021 10:15:00 PM 1.23 34.214 0.065 7.21 3.98 13.74
3/7/2021 10:30:00 PM 1.15 34.07 0.065 7.2 3.93 13.77
3/7/2021 10:45:00 PM 1.06 33.908 0.065 7.21 3.94 13.81
3/7/2021 11:00:00 PM 0.98 33.764 0.065 7.2 3.95 13.83
3/7/2021 11:15:00 PM 0.9 33.62 0.065 7.19 3.91 13.86
3/7/2021 11:30:00 PM 0.82 33.476 0.065 7.17 4.09 13.89
3/7/2021 11:45:00 PM 0.75 33.35 0.065 7.2 3.97 13.92
3/8/2021 12:00:00 AM 0.67 33.206 0.065 7.17 3.9 13.95
3/8/2021 12:15:00 AM 0.6 33.08 0.065 7.2 3.92 13.99
3/8/2021 12:30:00 AM 0.52 32.936 0.065 7.18 3.99 14.03
3/8/2021 12:45:00 AM 0.45 32.81 0.065 7.18 3.93 14.05
3/8/2021 1:00:00 AM 0.38 32.684 0.065 7.2 3.91 14.08
3/8/2021 1:15:00 AM 0.31 32.558 0.065 7.2 3.94 14.11
3/8/2021 1:30:00 AM 0.25 32.45 0.065 7.2 3.85 14.12
3/8/2021 1:45:00 AM 0.18 32.324 0.065 7.14 3.88 14.16
3/8/2021 2:00:00 AM 0.12 32.216 0.065 7.2 3.9 14.19
3/8/2021 2:15:00 AM 0.04 32.072 0.065 7.2 3.91 14.23
3/8/2021 2:30:00 AM -0.01 31.982 0.066 7.14 3.92 14.26
3/8/2021 2:45:00 AM -0.08 31.856 0.066 7.2 3.91 14.29
3/8/2021 3:00:00 AM -0.12 31.784 0.066 7.19 3.84 14.33
3/8/2021 3:15:00 AM -0.1 31.82 0.066 7.2 3.91 14.37
3/8/2021 3:30:00 AM -0.1 31.82 0.066 7.21 3.9 14.41
3/8/2021 3:45:00 AM -0.11 31.802 0.066 7.2 3.92 14.41
3/8/2021 4:00:00 AM -0.11 31.802 0.066 7.2 3.96 14.43
3/8/2021 4:15:00 AM -0.11 31.802 0.066 7.2 3.97 14.44
3/8/2021 4:30:00 AM -0.11 31.802 0.066 7.21 3.91 14.46
3/8/2021 4:45:00 AM -0.11 31.802 0.066 7.21 3.91 14.48
3/8/2021 5:00:00 AM -0.11 31.802 0.066 7.21 3.87 14.48
3/8/2021 5:15:00 AM -0.12 31.784 0.066 7.21 3.89 14.5
3/8/2021 5:30:00 AM -0.12 31.784 0.066 7.2 3.92 14.51
3/8/2021 5:45:00 AM -0.12 31.784 0.067 7.21 3.91 14.52
3/8/2021 6:00:00 AM -0.12 31.784 0.067 7.22 3.94 14.52
3/8/2021 6:15:00 AM -0.12 31.784 0.067 7.17 3.97 14.53
3/8/2021 6:30:00 AM -0.12 31.784 0.067 7.22 4.01 14.53
3/8/2021 6:45:00 AM -0.12 31.784 0.067 7.21 3.96 14.55
3/8/2021 7:00:00 AM -0.12 31.784 0.067 7.23 3.94 14.6
3/8/2021 7:15:00 AM -0.12 31.784 0.067 7.24 3.95 14.65
3/8/2021 7:30:00 AM -0.12 31.784 0.068 7.26 3.91 14.72
3/8/2021 7:45:00 AM -0.12 31.784 0.068 7.27 3.96 14.78
3/8/2021 8:00:00 AM -0.11 31.802 0.068 7.29 3.95 14.84
3/8/2021 8:15:00 AM -0.11 31.802 0.068 7.25 3.99 14.88
3/8/2021 8:30:00 AM -0.11 31.802 0.068 7.31 3.95 14.91
3/8/2021 8:45:00 AM -0.11 31.802 0.068 7.33 3.96 14.95
3/8/2021 9:00:00 AM -0.11 31.802 0.068 7.29 3.95 14.96
3/8/2021 9:15:00 AM -0.11 31.802 0.068 7.35 3.93 14.97
3/8/2021 9:30:00 AM -0.1 31.82 0.068 7.32 3.97 14.96
3/8/2021 9:45:00 AM -0.09 31.838 0.068 7.35 3.96 14.94
3/8/2021 10:00:00 AM -0.08 31.856 0.068 7.35 4 14.87
3/8/2021 10:15:00 AM -0.04 31.928 0.068 7.34 3.93 14.84
3/8/2021 10:30:00 AM -0.03 31.946 0.068 7.28 3.87 14.75
3/8/2021 10:45:00 AM 0.09 32.162 0.068 7.34 3.91 14.76
3/8/2021 11:00:00 AM 0.18 32.324 0.068 7.35 3.91 14.72
3/8/2021 11:15:00 AM 0.3 32.54 0.068 7.31 3.94 14.72
3/8/2021 11:30:00 AM 0.49 32.882 0.068 7.34 3.84 14.71
3/8/2021 11:45:00 AM 0.54 32.972 0.068 7.37 3.96 14.69
3/8/2021 12:00:00 PM 0.53 32.954 0.068 7.33 3.87 14.69
3/8/2021 12:15:00 PM 0.54 32.972 0.068 7.36 3.99 14.7
3/8/2021 12:30:00 PM 0.58 33.044 0.068 7.37 3.88 14.67
3/8/2021 12:45:00 PM 0.66 33.188 0.067 7.38 3.84 14.68
3/8/2021 1:00:00 PM 0.73 33.314 0.067 7.39 3.89 14.67
3/8/2021 1:15:00 PM 0.81 33.458 0.067 7.36 3.88 14.67
3/8/2021 1:30:00 PM 0.9 33.62 0.066 7.37 3.9 14.67
3/8/2021 1:45:00 PM 1.03 33.854 0.066 7.38 3.86 14.64
3/8/2021 2:00:00 PM 1.17 34.106 0.065 7.38 3.92 14.59
3/8/2021 2:15:00 PM 1.27 34.286 0.065 7.39 3.84 14.56
3/8/2021 2:30:00 PM 1.38 34.484 0.065 7.34 3.84 14.52
3/8/2021 2:45:00 PM 1.54 34.772 0.064 7.39 3.89 14.47
3/8/2021 3:00:00 PM 1.65 34.97 0.064 7.39 3.93 14.43
3/8/2021 3:15:00 PM 1.71 35.078 0.064 7.4 3.87 14.39
3/8/2021 3:30:00 PM 1.78 35.204 0.064 7.39 3.88 14.32
3/8/2021 3:45:00 PM 1.89 35.402 0.064 7.4 3.95 14.24
3/8/2021 4:00:00 PM 2.02 35.636 0.064 7.36 4.04 14.17
3/8/2021 4:15:00 PM 2.11 35.798 0.063 7.4 3.95 14.11
3/8/2021 4:30:00 PM 2.18 35.924 0.063 7.4 3.95 14.05
3/8/2021 4:45:00 PM 2.25 36.05 0.063 7.4 4.28 13.99
3/8/2021 5:00:00 PM 2.29 36.122 0.063 7.4 3.94 13.94
3/8/2021 5:15:00 PM 2.31 36.158 0.063 7.34 3.94 13.87
3/8/2021 5:30:00 PM 2.32 36.176 0.063 7.37 3.99 13.83
3/8/2021 5:45:00 PM 2.32 36.176 0.063 7.36 4.04 13.78
3/8/2021 6:00:00 PM 2.3 36.14 0.063 7.34 4.18 13.73
3/8/2021 6:15:00 PM 2.28 36.104 0.063 7.33 3.99 13.66
3/8/2021 6:30:00 PM 2.23 36.014 0.063 7.31 4.08 13.61
3/8/2021 6:45:00 PM 2.19 35.942 0.063 7.28 4.06 13.56
3/8/2021 7:00:00 PM 2.13 35.834 0.063 7.27 4.05 13.53
3/8/2021 7:15:00 PM 2.06 35.708 0.063 7.27 4.07 13.54
3/8/2021 7:30:00 PM 1.98 35.564 0.064 7.25 4.4 13.53
3/8/2021 7:45:00 PM 1.9 35.42 0.064 7.19 4.11 13.56
3/8/2021 8:00:00 PM 1.82 35.276 0.064 7.23 4.21 13.55
3/8/2021 8:15:00 PM 1.74 35.132 0.064 7.22 4.04 13.58
3/8/2021 8:30:00 PM 1.66 34.988 0.064 7.22 4.04 13.6
3/8/2021 8:45:00 PM 1.6 34.88 0.065 7.22 4.02 13.59
3/8/2021 9:00:00 PM 1.53 34.754 0.065 7.22 4.04 13.62
3/8/2021 9:15:00 PM 1.47 34.646 0.065 7.18 4.16 13.64
3/8/2021 9:30:00 PM 1.43 34.574 0.065 7.2 4.03 13.66
3/8/2021 9:45:00 PM 1.4 34.52 0.066 7.21 4.08 13.67
3/8/2021 10:00:00 PM 1.38 34.484 0.066 7.21 3.93 13.68
3/8/2021 10:15:00 PM 1.36 34.448 0.066 7.2 3.99 13.69
3/8/2021 10:30:00 PM 1.35 34.43 0.066 7.21 3.95 13.7
3/8/2021 10:45:00 PM 1.34 34.412 0.066 7.17 3.99 13.71
3/8/2021 11:00:00 PM 1.33 34.394 0.066 7.19 3.95 13.7
3/8/2021 11:15:00 PM 1.31 34.358 0.066 7.21 3.89 13.72
3/8/2021 11:30:00 PM 1.29 34.322 0.066 7.16 4.07 13.71
3/8/2021 11:45:00 PM 1.25 34.25 0.066 7.2 4 13.74
3/9/2021 12:00:00 AM 1.22 34.196 0.066 7.2 3.91 13.73
3/9/2021 12:15:00 AM 1.2 34.16 0.067 7.2 3.85 13.74
3/9/2021 12:30:00 AM 1.19 34.142 0.067 7.16 3.93 13.76
3/9/2021 12:45:00 AM 1.17 34.106 0.067 7.18 4.03 13.76
3/9/2021 1:00:00 AM 1.16 34.088 0.067 7.2 4 13.77
3/9/2021 1:15:00 AM 1.15 34.07 0.067 7.19 3.91 13.76
3/9/2021 1:30:00 AM 1.15 34.07 0.067 7.16 3.96 13.77
3/9/2021 1:45:00 AM 1.14 34.052 0.067 7.2 3.94 13.78
3/9/2021 2:00:00 AM 1.12 34.016 0.067 7.2 3.97 13.78
3/9/2021 2:15:00 AM 1.11 33.998 0.067 7.17 3.8 13.78
3/9/2021 2:30:00 AM 1.1 33.98 0.067 7.2 3.97 13.78
3/9/2021 2:45:00 AM 1.08 33.944 0.066 7.2 3.84 13.79
3/9/2021 3:00:00 AM 1.06 33.908 0.066 7.2 3.86 13.79
3/9/2021 3:15:00 AM 1.05 33.89 0.066 7.19 3.87 13.78
3/9/2021 3:30:00 AM 1.04 33.872 0.066 7.19 3.89 13.78
3/9/2021 3:45:00 AM 1.01 33.818 0.066 7.2 3.93 13.8
3/9/2021 4:00:00 AM 0.98 33.764 0.066 7.2 3.9 13.8
3/9/2021 4:15:00 AM 0.96 33.728 0.066 7.15 3.95 13.82
3/9/2021 4:30:00 AM 0.93 33.674 0.066 7.18 3.89 13.81
3/9/2021 4:45:00 AM 0.9 33.62 0.066 7.19 3.88 13.83
3/9/2021 5:00:00 AM 0.88 33.584 0.066 7.2 3.88 13.86
3/9/2021 5:15:00 AM 0.85 33.53 0.066 7.2 3.9 13.86
3/9/2021 5:30:00 AM 0.82 33.476 0.066 7.2 3.9 13.88
3/9/2021 5:45:00 AM 0.79 33.422 0.066 7.19 3.88 13.88
3/9/2021 6:00:00 AM 0.77 33.386 0.066 7.2 3.84 13.89
3/9/2021 6:15:00 AM 0.74 33.332 0.066 7.19 3.82 13.91
3/9/2021 6:30:00 AM 0.71 33.278 0.066 7.16 3.91 13.93
3/9/2021 6:45:00 AM 0.68 33.224 0.066 7.18 3.82 13.97
3/9/2021 7:00:00 AM 0.67 33.206 0.066 7.21 3.91 14.01
3/9/2021 7:15:00 AM 0.65 33.17 0.066 7.22 3.88 14.09
3/9/2021 7:30:00 AM 0.64 33.152 0.066 7.23 3.82 14.17
3/9/2021 7:45:00 AM 0.63 33.134 0.066 7.23 3.84 14.24
3/9/2021 8:00:00 AM 0.63 33.134 0.066 7.26 3.86 14.3
3/9/2021 8:15:00 AM 0.67 33.206 0.066 7.28 3.82 14.39
3/9/2021 8:30:00 AM 0.72 33.296 0.066 7.25 3.88 14.46
3/9/2021 8:45:00 AM 0.8 33.44 0.065 7.31 3.9 14.46
3/9/2021 9:00:00 AM 0.89 33.602 0.065 7.32 3.85 14.46
3/9/2021 9:15:00 AM 0.99 33.782 0.065 7.28 3.81 14.47
3/9/2021 9:30:00 AM 1.1 33.98 0.065 7.34 4.08 14.5
3/9/2021 9:45:00 AM 1.22 34.196 0.065 7.35 3.92 14.49
3/9/2021 10:00:00 AM 1.35 34.43 0.065 7.36 3.95 14.47
3/9/2021 10:15:00 AM 1.49 34.682 0.065 7.37 3.81 14.44
3/9/2021 10:30:00 AM 1.66 34.988 0.065 7.32 3.87 14.41
3/9/2021 10:45:00 AM 1.87 35.366 0.065 7.39 3.8 14.37
3/9/2021 11:00:00 AM 2.13 35.834 0.065 7.36 3.83 14.29
3/9/2021 11:15:00 AM 2.42 36.356 0.065 7.4 3.76 14.23
3/9/2021 11:30:00 AM 2.71 36.878 0.065 7.4 3.95 14.13
3/9/2021 11:45:00 AM 3 37.4 0.061 7.38 4.49 14.03
3/9/2021 12:00:00 PM 3.31 37.958 0.064 7.37 3.79 13.95
3/9/2021 12:15:00 PM 3.61 38.498 0.064 7.41 4.01 13.85
3/9/2021 12:30:00 PM 3.91 39.038 0.064 7.42 3.78 13.75
3/9/2021 12:45:00 PM 4.21 39.578 0.061 7.4 4.72 13.66
3/9/2021 1:00:00 PM 4.52 40.136 0.064 7.42 3.86 13.56
3/9/2021 1:15:00 PM 4.81 40.658 0.064 7.4 3.86 13.47
3/9/2021 1:30:00 PM 5.11 41.198 0.064 7.42 4.07 13.36
3/9/2021 1:45:00 PM 5.35 41.63 0.064 7.44 3.96 13.26
3/9/2021 2:00:00 PM 5.59 42.062 0.064 7.44 3.88 13.2
3/9/2021 2:15:00 PM 5.78 42.404 0.064 7.45 3.83 13.11
3/9/2021 2:30:00 PM 5.95 42.71 0.064 7.45 4.08 13.03
3/9/2021 2:45:00 PM 6.09 42.962 0.061 7.43 5.7 12.94
3/9/2021 3:00:00 PM 6.2 43.16 0.061 7.42 4.94 12.87
3/9/2021 3:15:00 PM 6.3 43.34 0.064 7.46 4.13 12.84
3/9/2021 3:30:00 PM 6.37 43.466 0.064 7.46 4.35 12.76
3/9/2021 3:45:00 PM 6.39 43.502 0.064 7.44 4.14 12.67
3/9/2021 4:00:00 PM 6.42 43.556 0.064 7.45 4.31 12.64
3/9/2021 4:15:00 PM 6.4 43.52 0.061 7.42 5.16 12.56
3/9/2021 4:30:00 PM 6.4 43.52 0.061 7.41 5.13 12.53
3/9/2021 4:45:00 PM 6.41 43.538 0.064 7.39 4.76 12.5
3/9/2021 5:00:00 PM 6.42 43.556 0.064 7.42 5.51 12.43
3/9/2021 5:15:00 PM 6.4 43.52 0.061 7.39 5.18 12.38
3/9/2021 5:30:00 PM 6.35 43.43 0.061 7.36 5.69 12.33
3/9/2021 5:45:00 PM 6.26 43.268 0.065 7.34 4.81 12.3
3/9/2021 6:00:00 PM 6.14 43.052 0.061 7.34 5.62 12.3
3/9/2021 6:15:00 PM 5.99 42.782 0.065 7.33 4.68 12.27
3/9/2021 6:30:00 PM 5.83 42.494 0.062 7.27 5.63 12.25
3/9/2021 6:45:00 PM 5.66 42.188 0.065 7.26 4.82 12.25
3/9/2021 7:00:00 PM 5.47 41.846 0.062 7.25 5.53 12.26
3/9/2021 7:15:00 PM 5.29 41.522 0.066 7.23 5.05 12.3
3/9/2021 7:30:00 PM 5.1 41.18 0.066 7.23 4.65 12.33
3/9/2021 7:45:00 PM 4.91 40.838 0.066 7.24 4.81 12.38
3/9/2021 8:00:00 PM 4.74 40.532 0.063 7.22 5.53 12.4
3/9/2021 8:15:00 PM 4.58 40.244 0.066 7.23 5.12 12.46
3/9/2021 8:30:00 PM 4.43 39.974 0.066 7.23 5.18 12.52
3/9/2021 8:45:00 PM 4.29 39.722 0.067 7.22 5.11 12.56
3/9/2021 9:00:00 PM 4.17 39.506 0.067 7.22 4.58 12.58
3/9/2021 9:15:00 PM 4.05 39.29 0.067 7.21 4.63 12.62
3/9/2021 9:30:00 PM 3.94 39.092 0.063 7.19 5.76 12.65
3/9/2021 9:45:00 PM 3.84 38.912 0.067 7.2 5.5 12.69
3/9/2021 10:00:00 PM 3.74 38.732 0.067 7.19 4.48 12.75
3/9/2021 10:15:00 PM 3.65 38.57 0.067 7.19 4.68 12.77
3/9/2021 10:30:00 PM 3.55 38.39 0.068 7.19 6.47 12.79
3/9/2021 10:45:00 PM 3.47 38.246 0.068 7.2 7.94 12.83
3/9/2021 11:00:00 PM 3.39 38.102 0.068 7.2 5.98 12.86
3/9/2021 11:15:00 PM 3.31 37.958 0.068 7.15 6.49 12.91
3/9/2021 11:30:00 PM 3.23 37.814 0.068 7.19 7.57 12.9
3/9/2021 11:45:00 PM 3.15 37.67 0.068 7.19 10.56 12.97
3/10/2021 12:00:00 AM 3.07 37.526 0.068 7.2 9.79 13
3/10/2021 12:15:00 AM 3.01 37.418 0.068 7.19 9.64 13.03
3/10/2021 12:30:00 AM 2.94 37.292 0.068 7.19 5.74 13.03
3/10/2021 12:45:00 AM 2.87 37.166 0.068 7.2 6.74 13.05
3/10/2021 1:00:00 AM 2.81 37.058 0.068 7.15 6.63 13.08
3/10/2021 1:15:00 AM 2.75 36.95 0.068 7.19 6.93 13.12
3/10/2021 1:30:00 AM 2.69 36.842 0.068 7.2 6.45 13.13
3/10/2021 1:45:00 AM 2.63 36.734 0.068 7.17 5.16 13.18
3/10/2021 2:00:00 AM 2.57 36.626 0.069 7.18 5.33 13.2
3/10/2021 2:15:00 AM 2.52 36.536 0.069 7.18 6.11 13.21
3/10/2021 2:30:00 AM 2.46 36.428 0.069 7.18 5.51 13.24
3/10/2021 2:45:00 AM 2.41 36.338 0.069 7.2 5.08 13.26
3/10/2021 3:00:00 AM 2.35 36.23 0.069 7.19 5.06 13.29
3/10/2021 3:15:00 AM 2.3 36.14 0.068 7.19 5.4 13.29
3/10/2021 3:30:00 AM 2.24 36.032 0.069 7.19 5.11 13.32
3/10/2021 3:45:00 AM 2.19 35.942 0.069 7.19 5.17 13.34
3/10/2021 4:00:00 AM 2.14 35.852 0.069 7.19 5.62 13.35
3/10/2021 4:15:00 AM 2.08 35.744 0.069 7.15 6.04 13.38
3/10/2021 4:30:00 AM 2.03 35.654 0.069 7.18 5.52 13.39
3/10/2021 4:45:00 AM 1.98 35.564 0.069 7.2 5 13.43
3/10/2021 5:00:00 AM 1.93 35.474 0.069 7.19 5.15 13.45
3/10/2021 5:15:00 AM 1.88 35.384 0.069 7.17 4.87 13.48
3/10/2021 5:30:00 AM 1.83 35.294 0.069 7.2 5.05 13.51
3/10/2021 5:45:00 AM 1.79 35.222 0.069 7.19 4.93 13.51
3/10/2021 6:00:00 AM 1.75 35.15 0.069 7.19 5.04 13.55
3/10/2021 6:15:00 AM 1.7 35.06 0.068 7.19 4.95 13.55
3/10/2021 6:30:00 AM 1.66 34.988 0.068 7.17 5.3 13.57
3/10/2021 6:45:00 AM 1.62 34.916 0.068 7.17 4.85 13.6
3/10/2021 7:00:00 AM 1.58 34.844 0.068 7.2 5.02 13.65
3/10/2021 7:15:00 AM 1.55 34.79 0.068 7.21 5 13.72
3/10/2021 7:30:00 AM 1.51 34.718 0.068 7.18 4.77 13.81
3/10/2021 7:45:00 AM 1.49 34.682 0.068 7.22 4.99 13.88
3/10/2021 8:00:00 AM 1.48 34.664 0.068 7.24 5.11 13.96
3/10/2021 8:15:00 AM 1.49 34.682 0.068 7.25 5.09 14.02
3/10/2021 8:30:00 AM 1.54 34.772 0.068 7.29 4.9 14.1
3/10/2021 8:45:00 AM 1.6 34.88 0.067 7.3 4.89 14.13
3/10/2021 9:00:00 AM 1.66 34.988 0.067 7.28 5.14 14.18
3/10/2021 9:15:00 AM 1.73 35.114 0.067 7.33 4.9 14.22
3/10/2021 9:30:00 AM 1.81 35.258 0.067 7.34 4.92 14.21
3/10/2021 9:45:00 AM 1.91 35.438 0.067 7.34 4.92 14.22
3/10/2021 10:00:00 AM 2.03 35.654 0.066 7.36 4.61 14.21
3/10/2021 10:15:00 AM 2.19 35.942 0.066 7.37 5.1 14.18
3/10/2021 10:30:00 AM 2.39 36.302 0.066 7.38 4.69 14.17
3/10/2021 10:45:00 AM 2.62 36.716 0.066 7.4 4.94 14.1
3/10/2021 11:00:00 AM 2.87 37.166 0.066 7.41 4.99 14.04
3/10/2021 11:15:00 AM 3.15 37.67 0.066 7.41 4.64 13.97
3/10/2021 11:30:00 AM 3.43 38.174 0.065 7.38 4.62 13.9
3/10/2021 11:45:00 AM 3.7 38.66 0.065 7.43 4.81 13.83
3/10/2021 12:00:00 PM 3.98 39.164 0.065 7.44 4.72 13.74
3/10/2021 12:15:00 PM 4.25 39.65 0.062 7.4 5.78 13.66
3/10/2021 12:30:00 PM 4.55 40.19 0.065 7.43 4.93 13.56
3/10/2021 12:45:00 PM 4.82 40.676 0.065 7.45 4.66 13.5
3/10/2021 1:00:00 PM 5.1 41.18 0.061 7.43 5.37 13.4
3/10/2021 1:15:00 PM 5.39 41.702 0.064 7.47 5.38 13.3
3/10/2021 1:30:00 PM 5.63 42.134 0.061 7.43 5.59 13.21
3/10/2021 1:45:00 PM 5.89 42.602 0.064 7.45 4.93 13.13
3/10/2021 2:00:00 PM 6.15 43.07 0.064 7.49 5.68 13.04
3/10/2021 2:15:00 PM 6.39 43.502 0.061 7.47 5.47 12.96
3/10/2021 2:30:00 PM 6.6 43.88 0.064 7.49 4.91 12.85
3/10/2021 2:45:00 PM 6.77 44.186 0.061 7.5 5.96 12.77
3/10/2021 3:00:00 PM 6.91 44.438 0.064 7.47 5.55 12.67
3/10/2021 3:15:00 PM 7.03 44.654 0.06 7.49 6.23 12.59
3/10/2021 3:30:00 PM 7.13 44.834 0.06 7.5 6.32 12.53
3/10/2021 3:45:00 PM 7.19 44.942 0.06 7.49 7.2 12.47
3/10/2021 4:00:00 PM 7.23 45.014 0.063 7.48 5.55 12.41
3/10/2021 4:15:00 PM 7.27 45.086 0.063 7.51 6.14 12.36
3/10/2021 4:30:00 PM 7.3 45.14 0.063 7.51 6.29 12.35
3/10/2021 4:45:00 PM 7.3 45.14 0.06 7.48 6.82 12.34
3/10/2021 5:00:00 PM 7.24 45.032 0.063 7.47 6.69 12.33
3/10/2021 5:15:00 PM 7.15 44.87 0.063 7.48 6.25 12.32
3/10/2021 5:30:00 PM 7.02 44.636 0.064 7.46 7.63 12.29
3/10/2021 5:45:00 PM 6.87 44.366 0.064 7.4 7 12.27
3/10/2021 6:00:00 PM 6.68 44.024 0.064 7.41 6.88 12.24
3/10/2021 6:15:00 PM 6.49 43.682 0.064 7.36 6.42 12.19
3/10/2021 6:30:00 PM 6.31 43.358 0.061 7.3 8.19 12.17
3/10/2021 6:45:00 PM 6.15 43.07 0.061 7.27 7.59 12.14
3/10/2021 7:00:00 PM 5.99 42.782 0.064 7.28 7.38 12.14
3/10/2021 7:15:00 PM 5.86 42.548 0.065 7.26 7.68 12.14
3/10/2021 7:30:00 PM 5.74 42.332 0.065 7.25 7.44 12.14
3/10/2021 7:45:00 PM 5.63 42.134 0.065 7.21 7.21 12.15
3/10/2021 8:00:00 PM 5.53 41.954 0.065 7.2 8.46 12.15
3/10/2021 8:15:00 PM 5.43 41.774 0.065 7.2 8.87 12.17
3/10/2021 8:30:00 PM 5.34 41.612 0.062 7.19 8.82 12.19
3/10/2021 8:45:00 PM 5.24 41.432 0.065 7.16 8.52 12.21
3/10/2021 9:00:00 PM 5.15 41.27 0.065 7.2 8.36 12.25
3/10/2021 9:15:00 PM 5.07 41.126 0.065 7.19 8 12.27
3/10/2021 9:30:00 PM 4.99 40.982 0.065 7.14 7.92 12.31
3/10/2021 9:45:00 PM 4.9 40.82 0.065 7.19 8.07 12.34
3/10/2021 10:00:00 PM 4.82 40.676 0.064 7.14 8.61 12.37
3/10/2021 10:15:00 PM 4.75 40.55 0.061 7.17 8.88 12.38
3/10/2021 10:30:00 PM 4.67 40.406 0.061 7.15 8.98 12.41
3/10/2021 10:45:00 PM 4.6 40.28 0.061 7.15 8.63 12.44
3/10/2021 11:00:00 PM 4.54 40.172 0.06 7.15 11.71 12.47
3/10/2021 11:15:00 PM 4.47 40.046 0.064 7.13 8.2 12.51
3/10/2021 11:30:00 PM 4.4 39.92 0.063 7.18 8.75 12.53
3/10/2021 11:45:00 PM 4.35 39.83 0.063 7.15 10.62 12.55
3/11/2021 12:00:00 AM 4.29 39.722 0.063 7.14 9.63 12.58
3/11/2021 12:15:00 AM 4.23 39.614 0.063 7.17 9.42 12.6
3/11/2021 12:30:00 AM 4.18 39.524 0.063 7.16 8.96 12.62
3/11/2021 12:45:00 AM 4.13 39.434 0.062 7.17 10.41 12.64
3/11/2021 1:00:00 AM 4.09 39.362 0.062 7.16 8.55 12.65
3/11/2021 1:15:00 AM 4.04 39.272 0.062 7.16 9.79 12.68
3/11/2021 1:30:00 AM 4.01 39.218 0.062 7.15 8.79 12.68
3/11/2021 1:45:00 AM 3.97 39.146 0.062 7.15 9.27 12.7
3/11/2021 2:00:00 AM 3.94 39.092 0.061 7.15 9.36 12.71
3/11/2021 2:15:00 AM 3.92 39.056 0.061 7.15 9.33 12.73
3/11/2021 2:30:00 AM 3.89 39.002 0.061 7.15 9.01 12.73
3/11/2021 2:45:00 AM 3.87 38.966 0.061 7.14 10.4 12.75
3/11/2021 3:00:00 AM 3.85 38.93 0.057 7.11 9.35 12.75
3/11/2021 3:15:00 AM 3.83 38.894 0.06 7.15 10.09 12.76
3/11/2021 3:30:00 AM 3.81 38.858 0.06 7.14 10.18 12.77
3/11/2021 3:45:00 AM 3.79 38.822 0.056 7.1 9.48 12.76
3/11/2021 4:00:00 AM 3.78 38.804 0.056 7.12 10.26 12.77
3/11/2021 4:15:00 AM 3.76 38.768 0.059 7.13 9.32 12.78
3/11/2021 4:30:00 AM 3.75 38.75 0.059 7.14 9.39 12.8
3/11/2021 4:45:00 AM 3.74 38.732 0.058 7.12 10.43 12.79
3/11/2021 5:00:00 AM 3.72 38.696 0.058 7.13 9.91 12.79
3/11/2021 5:15:00 AM 3.7 38.66 0.058 7.09 10.34 12.79
3/11/2021 5:30:00 AM 3.68 38.624 0.057 7.12 10.02 12.79
3/11/2021 5:45:00 AM 3.68 38.624 0.054 7.08 10.27 12.8
3/11/2021 6:00:00 AM 3.66 38.588 0.057 7.1 10.62 12.81
3/11/2021 6:15:00 AM 3.65 38.57 0.057 7.08 9.93 12.8
3/11/2021 6:30:00 AM 3.63 38.534 0.054 7.1 10.18 12.81
3/11/2021 6:45:00 AM 3.62 38.516 0.053 7.09 10.12 12.83
3/11/2021 7:00:00 AM 3.6 38.48 0.056 7.06 10.34 12.85
3/11/2021 7:15:00 AM 3.59 38.462 0.053 7.11 9.96 12.88
3/11/2021 7:30:00 AM 3.61 38.498 0.056 7.08 9.91 12.93
3/11/2021 7:45:00 AM 3.63 38.534 0.055 7.15 9.31 12.98
3/11/2021 8:00:00 AM 3.65 38.57 0.052 7.13 10.38 13.01
3/11/2021 8:15:00 AM 3.68 38.624 0.055 7.16 9.4 13.04
3/11/2021 8:30:00 AM 3.73 38.714 0.052 7.13 11.01 13.07
3/11/2021 8:45:00 AM 3.76 38.768 0.051 7.14 10.32 13.08
3/11/2021 9:00:00 AM 3.79 38.822 0.054 7.18 10.01 13.07
3/11/2021 9:15:00 AM 3.82 38.876 0.054 7.19 9.55 13.07
3/11/2021 9:30:00 AM 3.88 38.984 0.054 7.2 9.5 13.1
3/11/2021 9:45:00 AM 3.94 39.092 0.053 7.2 9.49 13.11
3/11/2021 10:00:00 AM 4.02 39.236 0.05 7.18 10.24 13.13
3/11/2021 10:15:00 AM 4.13 39.434 0.05 7.21 11.03 13.14
3/11/2021 10:30:00 AM 4.24 39.632 0.05 7.22 12.54 13.15
3/11/2021 10:45:00 AM 4.36 39.848 0.05 7.24 10.65 13.15
3/11/2021 11:00:00 AM 4.46 40.028 0.052 7.22 9.44 13.13
3/11/2021 11:15:00 AM 4.55 40.19 0.052 7.26 9.03 13.1
3/11/2021 11:30:00 AM 4.64 40.352 0.052 7.28 9 13.09
3/11/2021 11:45:00 AM 4.73 40.514 0.049 7.26 9.97 13.07
3/11/2021 12:00:00 PM 4.85 40.73 0.052 7.25 9.17 13.05
3/11/2021 12:15:00 PM 4.98 40.964 0.049 7.28 9.74 13.01
3/11/2021 12:30:00 PM 5.14 41.252 0.049 7.28 10.23 12.97
3/11/2021 12:45:00 PM 5.29 41.522 0.048 7.27 10.27 12.92
3/11/2021 1:00:00 PM 5.45 41.81 0.051 7.32 9.22 12.89
3/11/2021 1:15:00 PM 5.58 42.044 0.051 7.32 9.09 12.85
3/11/2021 1:30:00 PM 5.7 42.26 0.051 7.32 10.4 12.8
3/11/2021 1:45:00 PM 5.83 42.494 0.051 7.32 12.09 12.75
3/11/2021 2:00:00 PM 6 42.8 0.048 7.28 10.5 12.68
3/11/2021 2:15:00 PM 6.11 42.998 0.048 7.28 11.6 12.64
3/11/2021 2:30:00 PM 6.17 43.106 0.05 7.32 10.38 12.58
3/11/2021 2:45:00 PM 6.19 43.142 0.047 7.25 11.52 12.52
3/11/2021 3:00:00 PM 6.21 43.178 0.05 7.28 11.21 12.45
3/11/2021 3:15:00 PM 6.24 43.232 0.05 7.19 11.6 12.4
3/11/2021 3:30:00 PM 6.3 43.34 0.05 7.23 11.51 12.35
3/11/2021 3:45:00 PM 6.32 43.376 0.047 7.22 12.73 12.28
3/11/2021 4:00:00 PM 6.35 43.43 0.05 7.22 13.63 12.27
3/11/2021 4:15:00 PM 6.37 43.466 0.05 7.19 14.53 12.26
3/11/2021 4:30:00 PM 6.39 43.502 0.047 7.16 14.05 12.21
3/11/2021 4:45:00 PM 6.38 43.484 0.05 7.09 14.41 12.16
3/11/2021 5:00:00 PM 6.37 43.466 0.047 7.13 14.56 12.11
3/11/2021 5:15:00 PM 6.35 43.43 0.047 7.1 15.6 12.1
3/11/2021 5:30:00 PM 6.32 43.376 0.05 7.12 17.63 12.08
3/11/2021 5:45:00 PM 6.3 43.34 0.037 7.01 26.97 12.08
3/11/2021 6:00:00 PM 6.27 43.286 0.05 7.11 25.46 12.07
3/11/2021 6:15:00 PM 6.24 43.232 0.05 7.01 22.13 12.05
3/11/2021 6:30:00 PM 6.19 43.142 0.05 7.09 26.53 12.05
3/11/2021 6:45:00 PM 6.14 43.052 0.05 7.08 24.84 12.05
3/11/2021 7:00:00 PM 6.1 42.98 0.049 7.07 25.02 12.05
3/11/2021 7:15:00 PM 6.06 42.908 0.049 7.05 27.2 12.06
3/11/2021 7:30:00 PM 6.01 42.818 0.049 7.06 29.01 12.07
3/11/2021 7:45:00 PM 5.96 42.728 0.049 7.05 40.76 12.09
3/11/2021 8:00:00 PM 5.9 42.62 0.049 6.97 27.92 12.1
3/11/2021 8:15:00 PM 5.84 42.512 0.046 7.01 40.59 12.11
3/11/2021 8:30:00 PM 5.78 42.404 0.049 6.98 42.93 12.13
3/11/2021 8:45:00 PM 5.71 42.278 0.049 7.04 35.85 12.16
3/11/2021 9:00:00 PM 5.65 42.17 0.048 7.03 37.12 12.19
3/11/2021 9:15:00 PM 5.59 42.062 0.048 6.93 44.5 12.21
3/11/2021 9:30:00 PM 5.53 41.954 0.048 7.02 40.7 12.23
3/11/2021 9:45:00 PM 5.47 41.846 0.045 6.97 40.07 12.23
3/11/2021 10:00:00 PM 5.41 41.738 0.047 6.95 39.51 12.24
3/11/2021 10:15:00 PM 5.36 41.648 0.047 7.01 38.77 12.27
3/11/2021 10:30:00 PM 5.32 41.576 0.047 7 31.67 12.29
3/11/2021 10:45:00 PM 5.28 41.504 0.044 6.93 44.02 12.29
3/11/2021 11:00:00 PM 5.24 41.432 0.046 6.96 39.92 12.31
3/11/2021 11:15:00 PM 5.21 41.378 0.044 6.96 40.27 12.31
3/11/2021 11:30:00 PM 5.19 41.342 0.043 6.94 50.28 12.31
3/11/2021 11:45:00 PM 5.17 41.306 0.043 6.93 14.23 12.32
3/12/2021 12:00:00 AM 5.15 41.27 0.045 7 48.66 12.33
3/12/2021 12:15:00 AM 5.12 41.216 0.045 6.92 36.61 12.35
3/12/2021 12:30:00 AM 5.1 41.18 0.045 6.99 40.11 12.33
3/12/2021 12:45:00 AM 5.09 41.162 0.042 6.91 41.19 12.34
3/12/2021 1:00:00 AM 5.08 41.144 0.042 6.92 12.01 12.37
3/12/2021 1:15:00 AM 5.06 41.108 0.044 6.86 50.93 12.37
3/12/2021 1:30:00 AM 5.05 41.09 0.042 6.93 46.76 12.37
3/12/2021 1:45:00 AM 5.05 41.09 0.044 6.93 48.66 12.37
3/12/2021 2:00:00 AM 5.04 41.072 0.041 6.93 47.76 12.38
3/12/2021 2:15:00 AM 5.03 41.054 0.041 6.9 54.56 12.38
3/12/2021 2:30:00 AM 5.02 41.036 0.041 6.92 49.12 12.39
3/12/2021 2:45:00 AM 5.01 41.018 0.041 6.89 60.08 12.41
3/12/2021 3:00:00 AM 4.99 40.982 0.041 6.9 53.65 12.4
3/12/2021 3:15:00 AM 4.97 40.946 0.04 6.92 51.97 12.4
3/12/2021 3:30:00 AM 4.96 40.928 0.043 6.86 57.98 12.41
3/12/2021 3:45:00 AM 4.95 40.91 0.04 6.91 60.35 12.42
3/12/2021 4:00:00 AM 4.94 40.892 0.04 6.86 41.07 12.42
3/12/2021 4:15:00 AM 4.93 40.874 0.042 6.9 46.62 12.41
3/12/2021 4:30:00 AM 4.9 40.82 0.042 6.9 57.17 12.42
3/12/2021 4:45:00 AM 4.87 40.766 0.04 6.9 48.4 12.43
3/12/2021 5:00:00 AM 4.85 40.73 0.04 6.85 47.31 12.45
3/12/2021 5:15:00 AM 4.83 40.694 0.039 6.86 56.28 12.45
3/12/2021 5:30:00 AM 4.8 40.64 0.042 6.91 42.14 12.46
3/12/2021 5:45:00 AM 4.77 40.586 0.039 6.88 48.96 12.45
3/12/2021 6:00:00 AM 4.75 40.55 0.039 6.86 39.51 12.47
3/12/2021 6:15:00 AM 4.72 40.496 0.039 6.87 51.96 12.48
3/12/2021 6:30:00 AM 4.69 40.442 0.042 6.89 58.52 12.49
3/12/2021 6:45:00 AM 4.66 40.388 0.041 6.9 43.28 12.51
3/12/2021 7:00:00 AM 4.63 40.334 0.041 6.93 43.1 12.52
3/12/2021 7:15:00 AM 4.6 40.28 0.041 6.84 54.12 12.53
3/12/2021 7:30:00 AM 4.58 40.244 0.039 6.89 47.8 12.53
3/12/2021 7:45:00 AM 4.56 40.208 0.039 6.84 41.39 12.55
3/12/2021 8:00:00 AM 4.55 40.19 0.041 6.89 52.23 12.56
3/12/2021 8:15:00 AM 4.55 40.19 0.041 6.87 38.11 12.59
3/12/2021 8:30:00 AM 4.55 40.19 0.039 6.88 44.89 12.59
3/12/2021 8:45:00 AM 4.56 40.208 0.039 6.86 34.94 12.59
3/12/2021 9:00:00 AM 4.58 40.244 0.039 6.88 38.99 12.6
3/12/2021 9:15:00 AM 4.63 40.334 0.041 6.91 36.91 12.61
3/12/2021 9:30:00 AM 4.7 40.46 0.041 6.91 36.94 12.61
3/12/2021 9:45:00 AM 4.78 40.604 0.038 6.86 43.01 12.6
3/12/2021 10:00:00 AM 4.88 40.784 0.038 6.87 35.27 12.6
3/12/2021 10:15:00 AM 4.98 40.964 0.041 6.93 31.04 12.59
3/12/2021 10:30:00 AM 5.1 41.18 0.041 6.9 34.67 12.57
3/12/2021 10:45:00 AM 5.22 41.396 0.041 6.91 35.49 12.54
3/12/2021 11:00:00 AM 5.34 41.612 0.041 6.94 36.03 12.52
3/12/2021 11:15:00 AM 5.48 41.864 0.041 6.86 31.87 12.49
3/12/2021 11:30:00 AM 5.61 42.098 0.041 6.95 40.79 12.46
3/12/2021 11:45:00 AM 5.77 42.386 0.038 6.89 53.99 12.42
3/12/2021 12:00:00 PM 5.92 42.656 0.04 6.93 32.29 12.37
3/12/2021 12:15:00 PM 6.08 42.944 0.04 6.95 33.73 12.34
3/12/2021 12:30:00 PM 6.26 43.268 0.04 6.94 31.58 12.3
3/12/2021 12:45:00 PM 6.42 43.556 0.04 6.86 32.09 12.24
3/12/2021 1:00:00 PM 6.6 43.88 0.038 6.94 38.15 12.21
3/12/2021 1:15:00 PM 6.76 44.168 0.036 6.97 31.23 12.18
3/12/2021 1:30:00 PM 6.91 44.438 0.04 6.94 32.11 12.13
3/12/2021 1:45:00 PM 7.04 44.672 0.04 6.91 33.03 12.08
3/12/2021 2:00:00 PM 7.16 44.888 0.04 6.92 31.32 12.04
3/12/2021 2:15:00 PM 7.26 45.068 0.04 6.95 32.59 12
3/12/2021 2:30:00 PM 7.34 45.212 0.04 6.94 25.09 11.95
3/12/2021 2:45:00 PM 7.4 45.32 0.04 6.98 28.73 11.94
3/12/2021 3:00:00 PM 7.44 45.392 0.04 6.87 31.48 11.9
3/12/2021 3:15:00 PM 7.47 45.446 0.041 6.93 28.22 11.88
3/12/2021 3:30:00 PM 7.47 45.446 0.041 6.94 31.13 11.84
3/12/2021 3:45:00 PM 7.46 45.428 0.041 6.93 38.01 11.81
3/12/2021 4:00:00 PM 7.44 45.392 0.041 6.95 35.38 11.81
3/12/2021 4:15:00 PM 7.41 45.338 0.041 6.94 28.19 11.78
3/12/2021 4:30:00 PM 7.36 45.248 0.041 6.95 37.44 11.77
3/12/2021 4:45:00 PM 7.29 45.122 0.041 6.94 28.88 11.78
3/12/2021 5:00:00 PM 7.22 44.996 0.041 6.82 35.83 11.78
3/12/2021 5:15:00 PM 7.14 44.852 0.041 6.9 28.6 11.79
3/12/2021 5:30:00 PM 7.05 44.69 0.038 6.9 31.59 11.79
3/12/2021 5:45:00 PM 6.95 44.51 0.041 6.9 28.4 11.82
3/12/2021 6:00:00 PM 6.84 44.312 0.041 6.89 28.57 11.84
3/12/2021 6:15:00 PM 6.75 44.15 0.041 6.91 38.55 11.85
3/12/2021 6:30:00 PM 6.65 43.97 0.041 6.85 29.23 11.87
3/12/2021 6:45:00 PM 6.56 43.808 0.041 6.91 30.07 11.9
3/12/2021 7:00:00 PM 6.46 43.628 0.041 6.81 29.7 11.93
3/12/2021 7:15:00 PM 6.36 43.448 0.041 6.92 27.43 11.97
3/12/2021 7:30:00 PM 6.26 43.268 0.041 6.9 29.19 12
3/12/2021 7:45:00 PM 6.16 43.088 0.041 6.79 27.81 12.03
3/12/2021 8:00:00 PM 6.06 42.908 0.041 6.88 26.45 12.06
3/12/2021 8:15:00 PM 5.97 42.746 0.038 6.89 23.47 12.08
3/12/2021 8:30:00 PM 5.88 42.584 0.038 6.86 25.06 12.12
3/12/2021 8:45:00 PM 5.8 42.44 0.041 6.84 26.41 12.15
3/12/2021 9:00:00 PM 5.73 42.314 0.038 6.87 26.79 12.18
3/12/2021 9:15:00 PM 5.66 42.188 0.041 6.82 28.9 12.21
3/12/2021 9:30:00 PM 5.6 42.08 0.041 6.91 26.63 12.23
3/12/2021 9:45:00 PM 5.54 41.972 0.038 6.89 26.01 12.26
3/12/2021 10:00:00 PM 5.48 41.864 0.038 6.89 31.35 12.28
3/12/2021 10:15:00 PM 5.42 41.756 0.041 6.92 26.68 12.29
3/12/2021 10:30:00 PM 5.36 41.648 0.038 6.87 26.42 12.31
3/12/2021 10:45:00 PM 5.31 41.558 0.041 6.9 25.62 12.33
3/12/2021 11:00:00 PM 5.26 41.468 0.038 6.85 26.08 12.34
3/12/2021 11:15:00 PM 5.22 41.396 0.038 6.86 25.54 12.36
3/12/2021 11:30:00 PM 5.17 41.306 0.041 6.82 38.11 12.39
3/12/2021 11:45:00 PM 5.1 41.18 0.038 6.88 24.01 12.41
3/13/2021 12:00:00 AM 5.05 41.09 0.041 6.9 24.19 12.42
3/13/2021 12:15:00 AM 5 41 0.041 6.91 23.42 12.44
3/13/2021 12:30:00 AM 4.94 40.892 0.041 6.85 21.36 12.46
3/13/2021 12:45:00 AM 4.89 40.802 0.041 6.89 21.43 12.48
3/13/2021 1:00:00 AM 4.85 40.73 0.038 6.89 22.96 12.49
3/13/2021 1:15:00 AM 4.81 40.658 0.041 6.89 24.46 12.51
3/13/2021 1:30:00 AM 4.76 40.568 0.041 6.9 23.29 12.52
3/13/2021 1:45:00 AM 4.72 40.496 0.041 6.88 24.53 12.54
3/13/2021 2:00:00 AM 4.67 40.406 0.039 6.9 25.86 12.56
3/13/2021 2:15:00 AM 4.61 40.298 0.039 6.89 22.91 12.58
3/13/2021 2:30:00 AM 4.55 40.19 0.041 6.89 22.13 12.6
3/13/2021 2:45:00 AM 4.5 40.1 0.038 6.9 23.01 12.62
3/13/2021 3:00:00 AM 4.45 40.01 0.039 6.86 23.03 12.64
3/13/2021 3:15:00 AM 4.41 39.938 0.041 6.92 22.38 12.66
3/13/2021 3:30:00 AM 4.36 39.848 0.039 6.89 25.5 12.67
3/13/2021 3:45:00 AM 4.32 39.776 0.041 6.92 21.88 12.69
3/13/2021 4:00:00 AM 4.27 39.686 0.041 6.92 23.3 12.7
3/13/2021 4:15:00 AM 4.22 39.596 0.041 6.91 22.05 12.72
3/13/2021 4:30:00 AM 4.18 39.524 0.038 6.86 20 12.74
3/13/2021 4:45:00 AM 4.14 39.452 0.041 6.89 21.87 12.75
3/13/2021 5:00:00 AM 4.1 39.38 0.039 6.9 23.77 12.76
3/13/2021 5:15:00 AM 4.06 39.308 0.041 6.84 20.97 12.78
3/13/2021 5:30:00 AM 4.02 39.236 0.039 6.91 21.1 12.79
3/13/2021 5:45:00 AM 3.99 39.182 0.041 6.93 20.94 12.81
3/13/2021 6:00:00 AM 3.95 39.11 0.039 6.87 21.14 12.82
3/13/2021 6:15:00 AM 3.91 39.038 0.039 6.85 21.81 12.83
3/13/2021 6:30:00 AM 3.88 38.984 0.041 6.93 19.85 12.85
3/13/2021 6:45:00 AM 3.85 38.93 0.041 6.83 18.66 12.87
3/13/2021 7:00:00 AM 3.82 38.876 0.041 6.93 20.52 12.89
3/13/2021 7:15:00 AM 3.79 38.822 0.041 6.93 20.32 12.91
3/13/2021 7:30:00 AM 3.77 38.786 0.041 6.94 20.38 12.93
3/13/2021 7:45:00 AM 3.75 38.75 0.041 6.93 19.77 12.95
3/13/2021 8:00:00 AM 3.74 38.732 0.041 6.89 20.04 12.96
3/13/2021 8:15:00 AM 3.73 38.714 0.039 6.92 19.55 12.99
3/13/2021 8:30:00 AM 3.73 38.714 0.041 6.95 20.44 13.01
3/13/2021 8:45:00 AM 3.73 38.714 0.041 6.96 19.56 13.02
3/13/2021 9:00:00 AM 3.75 38.75 0.039 6.89 19.13 13.04
3/13/2021 9:15:00 AM 3.78 38.804 0.039 6.94 7.48 13.05
3/13/2021 9:30:00 AM 3.83 38.894 0.041 6.93 18.57 13.05
3/13/2021 9:45:00 AM 3.9 39.02 0.041 6.94 19.62 13.06
3/13/2021 10:00:00 AM 3.97 39.146 0.039 6.95 18.26 13.05
3/13/2021 10:15:00 AM 4.05 39.29 0.041 6.98 18.72 13.04
3/13/2021 10:30:00 AM 4.15 39.47 0.041 6.87 19.06 13.03
3/13/2021 10:45:00 AM 4.25 39.65 0.041 6.99 18.83 13.01
3/13/2021 11:00:00 AM 4.37 39.866 0.039 6.91 18.98 13
3/13/2021 11:15:00 AM 4.5 40.1 0.041 6.99 16.58 12.96
3/13/2021 11:30:00 AM 4.63 40.334 0.041 6.93 17.38 12.93
3/13/2021 11:45:00 AM 4.77 40.586 0.041 7 18.29 12.9
3/13/2021 12:00:00 PM 4.92 40.856 0.041 6.93 17.99 12.86
3/13/2021 12:15:00 PM 5.09 41.162 0.041 7 18.14 12.82
3/13/2021 12:30:00 PM 5.26 41.468 0.039 6.99 17.85 12.77
3/13/2021 12:45:00 PM 5.44 41.792 0.041 7.02 18.42 12.72
3/13/2021 1:00:00 PM 5.61 42.098 0.041 6.9 17.95 12.68
3/13/2021 1:15:00 PM 5.79 42.422 0.039 6.99 18.75 12.62
3/13/2021 1:30:00 PM 5.96 42.728 0.041 6.99 18.31 12.56
3/13/2021 1:45:00 PM 6.12 43.016 0.041 7.03 18.82 12.51
3/13/2021 2:00:00 PM 6.26 43.268 0.041 6.99 18.9 12.47
3/13/2021 2:15:00 PM 6.38 43.484 0.039 6.99 17.84 12.43
3/13/2021 2:30:00 PM 6.48 43.664 0.039 6.96 18.05 12.38
3/13/2021 2:45:00 PM 6.56 43.808 0.041 7 17.02 12.34
3/13/2021 3:00:00 PM 6.62 43.916 0.041 7 17.46 12.3
3/13/2021 3:15:00 PM 6.65 43.97 0.041 7.05 17.13 12.27
3/13/2021 3:30:00 PM 6.67 44.006 0.041 6.94 17.34 12.24
3/13/2021 3:45:00 PM 6.69 44.042 0.041 7.01 16.74 12.22
3/13/2021 4:00:00 PM 6.68 44.024 0.041 7 19.53 12.2
3/13/2021 4:15:00 PM 6.67 44.006 0.041 7 17.48 12.17
3/13/2021 4:30:00 PM 6.65 43.97 0.041 7 17.81 12.16
3/13/2021 4:45:00 PM 6.61 43.898 0.041 6.99 18.51 12.14
3/13/2021 5:00:00 PM 6.56 43.808 0.042 6.99 17.29 12.13
3/13/2021 5:15:00 PM 6.51 43.718 0.039 6.98 17.98 12.1
3/13/2021 5:30:00 PM 6.46 43.628 0.042 7 18.01 12.1
3/13/2021 5:45:00 PM 6.4 43.52 0.039 6.97 16.1 12.1
3/13/2021 6:00:00 PM 6.33 43.394 0.042 6.9 19.44 12.1
3/13/2021 6:15:00 PM 6.24 43.232 0.042 6.99 18.16 12.1
3/13/2021 6:30:00 PM 6.16 43.088 0.042 6.98 17.65 12.1
3/13/2021 6:45:00 PM 6.08 42.944 0.042 6.97 17.69 12.1
3/13/2021 7:00:00 PM 6 42.8 0.042 6.86 17.9 12.11
3/13/2021 7:15:00 PM 5.92 42.656 0.04 6.94 18.4 12.13
3/13/2021 7:30:00 PM 5.84 42.512 0.042 6.94 17.9 12.15
3/13/2021 7:45:00 PM 5.75 42.35 0.042 6.97 18.58 12.18
3/13/2021 8:00:00 PM 5.66 42.188 0.042 6.86 17.56 12.21
3/13/2021 8:15:00 PM 5.57 42.026 0.04 6.93 17.59 12.23
3/13/2021 8:30:00 PM 5.48 41.864 0.04 6.89 17.74 12.26
3/13/2021 8:45:00 PM 5.38 41.684 0.042 6.91 17.67 12.28
3/13/2021 9:00:00 PM 5.28 41.504 0.04 6.93 17.34 12.3
3/13/2021 9:15:00 PM 5.2 41.36 0.042 6.83 17.2 12.34
3/13/2021 9:30:00 PM 5.12 41.216 0.04 6.92 15.74 12.37
3/13/2021 9:45:00 PM 5.04 41.072 0.042 6.86 17.53 12.4
3/13/2021 10:00:00 PM 4.96 40.928 0.04 6.91 16.57 12.42
3/13/2021 10:15:00 PM 4.89 40.802 0.04 6.89 15.88 12.44
3/13/2021 10:30:00 PM 4.82 40.676 0.043 6.91 15.83 12.46
3/13/2021 10:45:00 PM 4.75 40.55 0.043 6.95 16.41 12.47
3/13/2021 11:00:00 PM 4.69 40.442 0.04 6.9 16.44 12.5
3/13/2021 11:15:00 PM 4.63 40.334 0.04 6.86 16.6 12.52
3/13/2021 11:30:00 PM 4.57 40.226 0.043 6.88 15.29 12.54
3/13/2021 11:45:00 PM 4.52 40.136 0.04 6.94 15.77 12.55
3/14/2021 12:00:00 AM 4.46 40.028 0.043 6.84 16.34 12.58
3/14/2021 12:15:00 AM 4.41 39.938 0.04 6.93 16.59 12.6
3/14/2021 12:30:00 AM 4.36 39.848 0.043 6.96 16.97 12.61
3/14/2021 12:45:00 AM 4.32 39.776 0.043 6.9 16.17 12.63
3/14/2021 1:00:00 AM 4.27 39.686 0.04 6.91 17.13 12.64
3/14/2021 1:15:00 AM 4.23 39.614 0.043 6.84 15.95 12.65
3/14/2021 1:30:00 AM 4.19 39.542 0.043 6.95 15.31 12.66
3/14/2021 1:45:00 AM 4.15 39.47 0.043 6.95 15.74 12.67
3/14/2021 3:00:00 AM 3.98 39.164 0.041 6.93 7.31 12.72
3/14/2021 3:15:00 AM 3.95 39.11 0.043 6.9 17.13 12.73
3/14/2021 3:30:00 AM 3.92 39.056 0.041 6.93 16.98 12.73
3/14/2021 4:45:00 AM 3.89 39.002 0.041 6.87 16.6 12.74
3/14/2021 5:00:00 AM 3.86 38.948 0.043 6.9 17.25 12.75
3/14/2021 5:15:00 AM 3.83 38.894 0.043 6.95 16.09 12.77
3/14/2021 5:30:00 AM 3.8 38.84 0.043 6.9 16.03 12.77
3/14/2021 5:45:00 AM 3.77 38.786 0.043 6.96 15.85 12.78
3/14/2021 6:00:00 AM 3.75 38.75 0.041 6.91 16.75 12.79
3/14/2021 6:15:00 AM 3.72 38.696 0.041 6.89 8.93 12.8
3/14/2021 6:30:00 AM 3.7 38.66 0.041 6.92 2.86 12.81
3/14/2021 6:45:00 AM 3.67 38.606 0.043 6.89 16.54 12.82
3/14/2021 7:00:00 AM 3.64 38.552 0.043 6.95 16.22 12.83
3/14/2021 7:15:00 AM 3.62 38.516 0.041 6.91 16.8 12.84
3/14/2021 7:30:00 AM 3.59 38.462 0.043 6.92 16.1 12.84
3/14/2021 7:45:00 AM 3.57 38.426 0.043 6.97 15.76 12.86
3/14/2021 8:00:00 AM 3.55 38.39 0.043 6.86 15.7 12.88
3/14/2021 8:15:00 AM 3.52 38.336 0.043 6.94 15.78 12.9
3/14/2021 8:30:00 AM 3.51 38.318 0.043 6.94 16.34 12.92
3/14/2021 8:45:00 AM 3.5 38.3 0.043 6.95 16.12 12.95
3/14/2021 9:00:00 AM 3.5 38.3 0.043 6.95 15.71 12.97
3/14/2021 9:15:00 AM 3.51 38.318 0.043 6.96 15.91 13
3/14/2021 9:30:00 AM 3.52 38.336 0.043 6.96 15.54 13.01
3/14/2021 9:45:00 AM 3.55 38.39 0.044 6.98 15.43 13.03
3/14/2021 10:00:00 AM 3.59 38.462 0.044 7.02 15.13 13.04
3/14/2021 10:15:00 AM 3.65 38.57 0.041 6.94 14.91 13.06
3/14/2021 10:30:00 AM 3.73 38.714 0.044 6.94 15.64 13.05
3/14/2021 10:45:00 AM 3.83 38.894 0.044 7.04 14.88 13.04
3/14/2021 11:00:00 AM 3.95 39.11 0.044 7.04 14.36 13.02
3/14/2021 11:15:00 AM 4.08 39.344 0.041 6.97 15.44 13.01
3/14/2021 11:30:00 AM 4.2 39.56 0.044 6.97 14.94 12.98
3/14/2021 11:45:00 AM 4.35 39.83 0.041 7.03 14.64 12.96
3/14/2021 12:00:00 PM 4.53 40.154 0.041 7.03 15.41 12.91
3/14/2021 12:15:00 PM 4.67 40.406 0.043 6.96 15.33 12.87
3/14/2021 12:30:00 PM 4.85 40.73 0.043 7.04 15.58 12.83
3/14/2021 12:45:00 PM 4.95 40.91 0.043 7 15.61 12.79
3/14/2021 1:00:00 PM 5.2 41.36 0.041 7.06 15.52 12.74
3/14/2021 1:15:00 PM 5.32 41.576 0.043 6.98 15.74 12.69
3/14/2021 1:30:00 PM 5.45 41.81 0.041 7.06 15.71 12.66
3/14/2021 1:45:00 PM 5.7 42.26 0.041 7.03 15.13 12.62
3/14/2021 2:00:00 PM 5.91 42.638 0.043 6.99 15.91 12.54
3/14/2021 2:15:00 PM 6.05 42.89 0.041 7.07 17.82 12.48
3/14/2021 2:30:00 PM 6.22 43.196 0.043 6.95 15.72 12.45
3/14/2021 2:45:00 PM 6.2 43.16 0.044 7.1 15.76 12.41
3/14/2021 3:00:00 PM 6.34 43.412 0.043 6.95 15.86 12.38
3/14/2021 3:15:00 PM 6.5 43.7 0.041 7.06 15.62 12.32
3/14/2021 3:30:00 PM 6.6 43.88 0.044 7.02 15.74 12.29
3/14/2021 3:45:00 PM 6.66 43.988 0.044 7.08 16.1 12.26
3/14/2021 4:00:00 PM 6.61 43.898 0.044 7.07 16.28 12.25
3/14/2021 4:15:00 PM 6.57 43.826 0.044 7.05 15.73 12.24
3/14/2021 4:30:00 PM 6.63 43.934 0.044 7.11 16.1 12.22
3/14/2021 4:45:00 PM 6.74 44.132 0.044 7.13 15.89 12.19
3/14/2021 5:00:00 PM 6.76 44.168 0.044 7.13 16.36 12.17
3/14/2021 5:15:00 PM 6.71 44.078 0.044 7.12 15.99 12.16
3/14/2021 5:30:00 PM 6.59 43.862 0.044 6.97 16.13 12.19
3/14/2021 5:45:00 PM 6.49 43.682 0.044 7.12 15.79 12.22
3/14/2021 6:00:00 PM 6.4 43.52 0.044 7.12 15.46 12.23
3/14/2021 6:15:00 PM 6.33 43.394 0.044 7.02 15.59 12.22
3/14/2021 6:30:00 PM 6.21 43.178 0.044 7.1 15.56 12.21
3/14/2021 6:45:00 PM 6.09 42.962 0.042 7.01 15.89 12.21
3/14/2021 7:00:00 PM 5.96 42.728 0.042 7.05 16.71 12.21
3/14/2021 7:15:00 PM 5.83 42.494 0.044 7.01 16.24 12.22
3/14/2021 7:30:00 PM 5.68 42.224 0.044 7.07 16.01 12.25
3/14/2021 7:45:00 PM 5.56 42.008 0.042 7.04 15.78 12.28
3/14/2021 8:00:00 PM 5.47 41.846 0.042 6.98 15.67 12.28
3/14/2021 8:15:00 PM 5.39 41.702 0.042 6.94 17.09 12.29
3/14/2021 8:30:00 PM 5.3 41.54 0.042 6.95 22.67 12.31
3/14/2021 8:45:00 PM 5.21 41.378 0.042 6.99 15.78 12.33
3/14/2021 9:00:00 PM 5.12 41.216 0.045 6.97 15.65 12.37
3/14/2021 9:15:00 PM 5.03 41.054 0.042 6.99 15.87 12.4
3/14/2021 9:30:00 PM 4.93 40.874 0.042 6.93 15.79 12.43
3/14/2021 9:45:00 PM 4.84 40.712 0.045 6.85 16.12 12.47
3/14/2021 10:00:00 PM 4.75 40.55 0.042 6.98 16.04 12.48
3/14/2021 10:15:00 PM 4.64 40.352 0.042 6.97 15.78 12.52
3/14/2021 10:30:00 PM 4.52 40.136 0.042 6.97 17.43 12.56
3/14/2021 10:45:00 PM 4.43 39.974 0.042 6.93 17.42 12.6
3/14/2021 11:00:00 PM 4.35 39.83 0.042 6.94 19.56 12.64
3/14/2021 11:15:00 PM 4.24 39.632 0.045 6.89 17.21 12.68
3/14/2021 11:30:00 PM 4.12 39.416 0.045 7.02 17.31 12.71
3/14/2021 11:45:00 PM 4.03 39.254 0.045 7.02 17.77 12.74
3/15/2021 12:00:00 AM 3.93 39.074 0.045 7.02 18.06 12.79
3/15/2021 12:15:00 AM 3.84 38.912 0.043 6.98 18.71 12.82
3/15/2021 12:30:00 AM 3.73 38.714 0.043 6.91 19.39 12.86
3/15/2021 12:45:00 AM 3.64 38.552 0.043 6.92 18.63 12.9
3/15/2021 1:00:00 AM 3.54 38.372 0.045 6.86 18.47 12.93
3/15/2021 1:15:00 AM 3.45 38.21 0.045 6.98 18.89 12.96
3/15/2021 1:30:00 AM 3.36 38.048 0.043 6.98 19.34 12.99
3/15/2021 1:45:00 AM 3.28 37.904 0.045 7.02 19.85 13.03
3/15/2021 2:00:00 AM 3.21 37.778 0.045 7.01 19.35 13.07
3/15/2021 2:15:00 AM 3.14 37.652 0.046 7.01 19.37 13.09
3/15/2021 2:30:00 AM 3.07 37.526 0.046 7.01 19.2 13.12
3/15/2021 2:45:00 AM 3 37.4 0.046 7.02 17.86 13.15
3/15/2021 3:00:00 AM 2.93 37.274 0.043 6.91 16.64 13.17
3/15/2021 3:15:00 AM 2.86 37.148 0.046 6.97 17.2 13.19
3/15/2021 3:30:00 AM 2.8 37.04 0.046 7.03 16.93 13.21
3/15/2021 3:45:00 AM 2.74 36.932 0.046 6.88 16.92 13.23
3/15/2021 4:00:00 AM 2.68 36.824 0.046 7 17.21 13.26
3/15/2021 4:15:00 AM 2.62 36.716 0.046 6.92 16.94 13.28
3/15/2021 4:30:00 AM 2.56 36.608 0.046 7.03 17.2 13.3
3/15/2021 4:45:00 AM 2.5 36.5 0.046 7 17.3 13.33
3/15/2021 5:00:00 AM 2.45 36.41 0.046 6.91 18.56 13.35
3/15/2021 5:15:00 AM 2.39 36.302 0.046 6.98 17.45 13.36
3/15/2021 5:30:00 AM 2.35 36.23 0.046 7.03 17.72 13.39
3/15/2021 5:45:00 AM 2.29 36.122 0.046 6.87 17.66 13.41
3/15/2021 6:00:00 AM 2.24 36.032 0.046 7.02 17.31 13.42
3/15/2021 6:15:00 AM 2.19 35.942 0.046 6.97 17.4 13.44
3/15/2021 6:30:00 AM 2.14 35.852 0.046 6.92 17.59 13.46
3/15/2021 6:45:00 AM 2.1 35.78 0.046 6.95 17.24 13.48
3/15/2021 7:00:00 AM 2.06 35.708 0.046 7 17.17 13.5
3/15/2021 7:15:00 AM 2.01 35.618 0.046 7.01 18 13.52
3/15/2021 7:30:00 AM 1.97 35.546 0.046 7 17.32 13.54
3/15/2021 7:45:00 AM 1.93 35.474 0.046 6.87 17.54 13.57
3/15/2021 8:00:00 AM 1.9 35.42 0.046 6.97 17.31 13.6
3/15/2021 8:15:00 AM 1.87 35.366 0.046 7.02 17.32 13.64
3/15/2021 8:30:00 AM 1.84 35.312 0.046 7.03 17.29 13.68
3/15/2021 8:45:00 AM 1.82 35.276 0.046 7.04 18.96 13.7
3/15/2021 9:00:00 AM 1.82 35.276 0.046 6.89 18.19 13.74
3/15/2021 9:15:00 AM 1.83 35.294 0.046 7.06 15.07 13.77
3/15/2021 9:30:00 AM 1.83 35.294 0.046 7.06 14.26 13.79
3/15/2021 9:45:00 AM 1.84 35.312 0.046 7.07 13.67 13.82
3/15/2021 10:00:00 AM 1.86 35.348 0.046 7.08 13.57 13.83
3/15/2021 10:15:00 AM 1.89 35.402 0.046 7.09 13.83 13.84
3/15/2021 10:30:00 AM 1.95 35.51 0.046 7.09 13.59 13.85
3/15/2021 10:45:00 AM 2.03 35.654 0.046 6.93 13.61 13.84
3/15/2021 11:00:00 AM 2.11 35.798 0.046 7.06 13.51 13.83
3/15/2021 11:15:00 AM 2.22 35.996 0.046 7.06 13.47 13.81
3/15/2021 11:30:00 AM 2.35 36.23 0.046 7.11 13.95 13.8
3/15/2021 11:45:00 AM 2.49 36.482 0.046 7.12 13.55 13.78
3/15/2021 12:00:00 PM 2.63 36.734 0.046 7.11 13.34 13.73
3/15/2021 12:15:00 PM 2.79 37.022 0.046 7.12 13.64 13.7
3/15/2021 12:30:00 PM 2.96 37.328 0.044 7.03 13.68 13.65
3/15/2021 12:45:00 PM 3.14 37.652 0.046 7.09 13.75 13.61
3/15/2021 1:00:00 PM 3.33 37.994 0.046 7.13 14.02 13.54
3/15/2021 1:15:00 PM 3.52 38.336 0.044 7.13 13.73 13.48
3/15/2021 1:30:00 PM 3.73 38.714 0.046 7.04 18.43 13.42
3/15/2021 1:45:00 PM 3.96 39.128 0.046 7.14 19.55 13.35
3/15/2021 2:00:00 PM 4.17 39.506 0.046 7.07 19.89 13.27
3/15/2021 2:15:00 PM 4.34 39.812 0.044 7.1 14.07 13.21
3/15/2021 2:30:00 PM 4.54 40.172 0.046 7.08 13.67 13.14
3/15/2021 2:45:00 PM 4.75 40.55 0.044 7.1 14.01 13.06
3/15/2021 3:00:00 PM 4.88 40.784 0.046 7.16 12.86 13.01
3/15/2021 3:15:00 PM 5.04 41.072 0.046 7.15 13.61 12.95
3/15/2021 3:30:00 PM 5.16 41.288 0.043 7.08 13.93 12.9
3/15/2021 3:45:00 PM 5.28 41.504 0.043 7.06 13.38 12.85
3/15/2021 4:00:00 PM 5.37 41.666 0.043 7.01 13.49 12.81
3/15/2021 4:15:00 PM 5.41 41.738 0.044 7.13 14.04 12.75
3/15/2021 4:30:00 PM 5.42 41.756 0.044 7.13 12.87 12.74
3/15/2021 4:45:00 PM 5.4 41.72 0.046 7.17 13.58 12.71
3/15/2021 5:00:00 PM 5.39 41.702 0.044 7.11 17.14 12.69
3/15/2021 5:15:00 PM 5.36 41.648 0.044 7.07 14.84 12.68
3/15/2021 5:30:00 PM 5.32 41.576 0.044 7.13 15.29 12.67
3/15/2021 5:45:00 PM 5.27 41.486 0.044 7.09 15.9 12.67
3/15/2021 6:00:00 PM 5.21 41.378 0.046 7.03 15.51 12.68
3/15/2021 6:15:00 PM 5.14 41.252 0.046 7.12 15.4 12.69
3/15/2021 6:30:00 PM 5.07 41.126 0.046 7.17 15.72 12.69
3/15/2021 6:45:00 PM 4.99 40.982 0.046 7.03 14.8 12.69
3/15/2021 7:00:00 PM 4.91 40.838 0.044 7.11 14.87 12.66
3/15/2021 7:15:00 PM 4.84 40.712 0.044 7.08 15.21 12.63
3/15/2021 7:30:00 PM 4.76 40.568 0.047 7.12 15.1 12.62
3/15/2021 7:45:00 PM 4.69 40.442 0.047 7.09 16.25 12.61
3/15/2021 8:00:00 PM 4.63 40.334 0.047 6.98 15.46 12.6
3/15/2021 8:15:00 PM 4.56 40.208 0.047 7.04 14.88 12.61
3/15/2021 8:30:00 PM 4.5 40.1 0.047 7.08 16.35 12.6
3/15/2021 8:45:00 PM 4.43 39.974 0.047 6.94 12.61 12.62
3/15/2021 9:00:00 PM 4.37 39.866 0.044 7.04 14.24 12.63
3/15/2021 9:15:00 PM 4.31 39.758 0.044 6.98 14.64 12.65
3/15/2021 9:30:00 PM 4.25 39.65 0.044 6.96 13.44 12.66
3/15/2021 9:45:00 PM 4.2 39.56 0.047 7.07 13.43 12.68
3/15/2021 10:00:00 PM 4.15 39.47 0.047 7.06 16.91 12.69
3/15/2021 10:15:00 PM 4.11 39.398 0.047 7.06 15.81 12.71
3/15/2021 10:30:00 PM 4.06 39.308 0.045 7.04 14.48 12.71
3/15/2021 10:45:00 PM 4.01 39.218 0.047 7.06 13.46 12.74
3/15/2021 11:00:00 PM 3.97 39.146 0.045 7.01 13.57 12.74
3/15/2021 11:15:00 PM 3.92 39.056 0.045 6.98 13.46 12.76
3/15/2021 11:30:00 PM 3.88 38.984 0.045 6.97 13.59 12.78
3/15/2021 11:45:00 PM 3.83 38.894 0.045 6.97 13.43 12.81
3/16/2021 12:00:00 AM 3.79 38.822 0.047 7.06 13.34 12.81
3/16/2021 12:15:00 AM 3.75 38.75 0.045 6.93 14.35 12.84
3/16/2021 12:30:00 AM 3.71 38.678 0.047 7.06 13.79 12.86
3/16/2021 12:45:00 AM 3.68 38.624 0.045 6.96 13.9 12.85
3/16/2021 1:00:00 AM 3.64 38.552 0.047 6.93 13.83 12.87
3/16/2021 1:15:00 AM 3.6 38.48 0.047 7.05 13.38 12.88
3/16/2021 1:30:00 AM 3.58 38.444 0.045 6.99 13.55 12.88
3/16/2021 1:45:00 AM 3.55 38.39 0.045 6.98 13.36 12.89
3/16/2021 2:00:00 AM 3.53 38.354 0.045 6.96 14.91 12.87
3/16/2021 2:15:00 AM 3.5 38.3 0.045 6.96 14.22 12.9
3/16/2021 2:30:00 AM 3.47 38.246 0.045 7.03 5.13 12.91
3/16/2021 2:45:00 AM 3.44 38.192 0.048 7.04 13 12.93
3/16/2021 3:00:00 AM 3.42 38.156 0.048 6.99 14.16 12.94
3/16/2021 3:15:00 AM 3.4 38.12 0.048 7.06 13.44 12.94
3/16/2021 3:30:00 AM 3.38 38.084 0.045 6.99 16.15 12.94
3/16/2021 3:45:00 AM 3.35 38.03 0.048 7.01 14.15 12.96
3/16/2021 4:00:00 AM 3.33 37.994 0.048 7.02 14.23 12.96
3/16/2021 4:15:00 AM 3.31 37.958 0.048 7.06 13.25 12.97
3/16/2021 4:30:00 AM 3.28 37.904 0.048 7.07 13.63 12.97
3/16/2021 4:45:00 AM 3.26 37.868 0.048 7.06 13.44 12.98
3/16/2021 5:00:00 AM 3.24 37.832 0.048 7.07 13.48 12.99
3/16/2021 5:15:00 AM 3.21 37.778 0.048 7.03 13.78 13
3/16/2021 5:30:00 AM 3.2 37.76 0.048 7.07 14.46 13
3/16/2021 5:45:00 AM 3.19 37.742 0.048 7.05 54.63 13
3/16/2021 6:00:00 AM 3.17 37.706 0.048 7.01 13.56 13
3/16/2021 6:15:00 AM 3.16 37.688 0.048 7.08 13.08 13.03
3/16/2021 6:30:00 AM 3.14 37.652 0.045 6.99 13.23 13.02
3/16/2021 6:45:00 AM 3.09 37.562 0.045 6.99 13.33 13.02
3/16/2021 7:00:00 AM 3.04 37.472 0.048 7.07 13.34 13.04
3/16/2021 7:15:00 AM 3 37.4 0.048 7.07 13.29 13.06
3/16/2021 7:30:00 AM 2.98 37.364 0.048 7.07 13.34 13.06
3/16/2021 7:45:00 AM 2.98 37.364 0.045 6.98 13.36 13.06
3/16/2021 8:00:00 AM 2.96 37.328 0.048 7.04 14.34 13.08
3/16/2021 8:15:00 AM 2.94 37.292 0.048 7.08 13.37 13.1
3/16/2021 8:30:00 AM 2.91 37.238 0.045 7.01 12.78 13.11
3/16/2021 8:45:00 AM 2.9 37.22 0.048 7.08 18.13 13.14
3/16/2021 9:00:00 AM 2.89 37.202 0.048 7.09 12.4 13.18
3/16/2021 9:15:00 AM 2.89 37.202 0.045 7.03 12.48 13.21
3/16/2021 9:30:00 AM 2.9 37.22 0.048 7.11 12.53 13.25
3/16/2021 9:45:00 AM 2.92 37.256 0.045 7.05 12.68 13.26
3/16/2021 10:00:00 AM 2.94 37.292 0.048 7.03 12.41 13.28
3/16/2021 10:15:00 AM 2.96 37.328 0.048 7.13 12.47 13.29
3/16/2021 10:30:00 AM 2.99 37.382 0.048 7.14 17.72 13.32
3/16/2021 10:45:00 AM 3.03 37.454 0.048 7.06 12.78 13.33
3/16/2021 11:00:00 AM 3.06 37.508 0.048 7.16 13.13 13.35
3/16/2021 11:15:00 AM 3.09 37.562 0.048 7.14 12.32 13.35
3/16/2021 11:30:00 AM 3.12 37.616 0.048 7.11 12.63 13.34
3/16/2021 11:45:00 AM 3.16 37.688 0.045 7.15 12.61 13.33
3/16/2021 12:00:00 PM 3.19 37.742 0.048 7.17 12.82 13.33
3/16/2021 12:15:00 PM 3.23 37.814 0.048 7.18 12.85 13.33
3/16/2021 12:30:00 PM 3.27 37.886 0.048 7.18 12.76 13.32
3/16/2021 12:45:00 PM 3.29 37.922 0.048 7.12 12.69 13.29
3/16/2021 1:00:00 PM 3.33 37.994 0.045 7.17 12.74 13.28
3/16/2021 1:15:00 PM 3.37 38.066 0.048 7.19 12.67 13.28
3/16/2021 1:30:00 PM 3.39 38.102 0.045 7.13 12.91 13.26
3/16/2021 1:45:00 PM 3.41 38.138 0.048 7.12 12.83 13.26
3/16/2021 2:00:00 PM 3.44 38.192 0.048 7.2 13.09 13.25
3/16/2021 2:15:00 PM 3.46 38.228 0.048 7.2 12.75 13.24
3/16/2021 2:30:00 PM 3.5 38.3 0.045 7.13 12.87 13.23
3/16/2021 2:45:00 PM 3.53 38.354 0.048 7.1 13.46 13.22
3/16/2021 3:00:00 PM 3.57 38.426 0.048 7.2 12.79 13.21
3/16/2021 3:15:00 PM 3.61 38.498 0.048 7.2 12.57 13.2
3/16/2021 3:30:00 PM 3.65 38.57 0.048 7.2 12.52 13.17
3/16/2021 3:45:00 PM 3.69 38.642 0.048 7.21 12.84 13.18
3/16/2021 4:00:00 PM 3.72 38.696 0.045 7.14 12.71 13.15
3/16/2021 4:15:00 PM 3.73 38.714 0.048 7.2 12.69 13.14
3/16/2021 4:30:00 PM 3.76 38.768 0.048 7.21 12.74 13.13
3/16/2021 4:45:00 PM 3.8 38.84 0.048 7.13 12.68 13.11
3/16/2021 5:00:00 PM 3.84 38.912 0.048 7.22 13.05 13.11
3/16/2021 5:15:00 PM 3.88 38.984 0.045 7.15 12.94 13.09
3/16/2021 5:30:00 PM 3.9 39.02 0.045 7.17 12.97 13.06
3/16/2021 5:45:00 PM 3.93 39.074 0.048 7.16 13.04 13.07
3/16/2021 6:00:00 PM 3.95 39.11 0.048 7.19 12.96 13.04
3/16/2021 6:15:00 PM 3.97 39.146 0.048 7.21 12.94 13.03
3/16/2021 6:30:00 PM 3.98 39.164 0.048 7.19 12.64 12.98
3/16/2021 6:45:00 PM 4 39.2 0.048 7.2 12.72 12.97
3/16/2021 7:00:00 PM 4.01 39.218 0.046 7.12 12.8 12.91
3/16/2021 7:15:00 PM 4.01 39.218 0.048 7.14 12.78 12.87
3/16/2021 7:30:00 PM 4 39.2 0.048 7.16 12.64 12.83
3/16/2021 7:45:00 PM 4 39.2 0.049 7.14 12.84 12.79
3/16/2021 8:00:00 PM 3.99 39.182 0.049 7.05 12.83 12.76
3/16/2021 8:15:00 PM 3.99 39.182 0.049 7.13 13.02 12.74
3/16/2021 8:30:00 PM 3.98 39.164 0.049 7.12 13.06 12.72
3/16/2021 8:45:00 PM 3.98 39.164 0.046 7.05 13.36 12.69
3/16/2021 9:00:00 PM 3.97 39.146 0.049 7.08 13.38 12.71
3/16/2021 9:15:00 PM 3.96 39.128 0.049 7.11 13.03 12.69
3/16/2021 9:30:00 PM 3.95 39.11 0.046 7.04 13.33 12.7
3/16/2021 9:45:00 PM 3.93 39.074 0.049 7.07 13.23 12.71
3/16/2021 10:00:00 PM 3.92 39.056 0.049 7.1 13.37 12.71
3/16/2021 10:15:00 PM 3.92 39.056 0.049 7.1 13.06 12.7
3/16/2021 10:30:00 PM 3.91 39.038 0.049 7.08 13.11 12.7
3/16/2021 10:45:00 PM 3.9 39.02 0.046 7.03 13.34 12.69
3/16/2021 11:00:00 PM 3.89 39.002 0.049 7.09 13.11 12.7
3/16/2021 11:15:00 PM 3.88 38.984 0.049 7.09 13.23 12.7
3/16/2021 11:30:00 PM 3.88 38.984 0.046 7.03 13.35 12.69
3/16/2021 11:45:00 PM 3.87 38.966 0.049 7.05 13.64 12.71
3/17/2021 12:00:00 AM 3.86 38.948 0.049 7.08 13.58 12.71
3/17/2021 12:15:00 AM 3.85 38.93 0.047 7.03 13.35 12.71
3/17/2021 12:30:00 AM 3.84 38.912 0.049 7.01 13.32 12.73
3/17/2021 12:45:00 AM 3.83 38.894 0.049 7.09 13.5 12.72
3/17/2021 1:00:00 AM 3.82 38.876 0.049 7.05 13.32 12.74
3/17/2021 1:15:00 AM 3.82 38.876 0.049 7.09 13.32 12.73
3/17/2021 1:30:00 AM 3.81 38.858 0.047 7.03 13.6 12.74
3/17/2021 1:45:00 AM 3.8 38.84 0.049 7.02 13.59 12.74
3/17/2021 2:00:00 AM 3.8 38.84 0.049 7.07 14.39 12.74
3/17/2021 2:15:00 AM 3.79 38.822 0.047 7.06 14.04 12.74
3/17/2021 2:30:00 AM 3.79 38.822 0.049 7.08 14.09 12.74
3/17/2021 2:45:00 AM 3.78 38.804 0.05 7.09 14.14 12.74
3/17/2021 3:00:00 AM 3.77 38.786 0.05 7.01 14.14 12.75
3/17/2021 3:15:00 AM 3.76 38.768 0.05 7.09 14.14 12.74
3/17/2021 3:30:00 AM 3.76 38.768 0.05 7.05 14.22 12.76
3/17/2021 3:45:00 AM 3.75 38.75 0.05 7.09 14.19 12.75
3/17/2021 4:00:00 AM 3.74 38.732 0.047 7.04 14 12.76
3/17/2021 4:15:00 AM 3.73 38.714 0.05 7.09 14.11 12.77
3/17/2021 4:30:00 AM 3.72 38.696 0.047 7.05 13.99 12.76
3/17/2021 4:45:00 AM 3.72 38.696 0.047 7.03 13.91 12.77
3/17/2021 5:00:00 AM 3.71 38.678 0.047 7.06 13.97 12.77
3/17/2021 5:15:00 AM 3.71 38.678 0.047 7.05 6.26 12.77
3/17/2021 5:30:00 AM 3.7 38.66 0.047 7.04 6.25 12.77
3/17/2021 5:45:00 AM 3.69 38.642 0.05 7.03 6.48 12.79
3/17/2021 6:00:00 AM 3.69 38.642 0.05 7.09 13.8 12.79
3/17/2021 6:15:00 AM 3.69 38.642 0.047 7.06 11.45 12.79
3/17/2021 6:30:00 AM 3.68 38.624 0.05 7.08 14.52 12.8
3/17/2021 6:45:00 AM 3.68 38.624 0.05 7.06 14.45 12.8
3/17/2021 7:00:00 AM 3.68 38.624 0.05 7.1 14.72 12.79
3/17/2021 7:15:00 AM 3.67 38.606 0.047 7.03 14.45 12.8
3/17/2021 7:30:00 AM 3.67 38.606 0.047 7.08 14.77 12.8
3/17/2021 7:45:00 AM 3.67 38.606 0.05 7.1 14.87 12.8
3/17/2021 8:00:00 AM 3.67 38.606 0.05 7.03 14.96 12.82
3/17/2021 8:15:00 AM 3.68 38.624 0.047 7.09 14.94 12.86
3/17/2021 8:30:00 AM 3.69 38.642 0.05 7.06 16.25 12.89
3/17/2021 8:45:00 AM 3.7 38.66 0.047 7.11 14.82 12.93
3/17/2021 9:00:00 AM 3.72 38.696 0.05 7.12 14.87 12.98
3/17/2021 9:15:00 AM 3.74 38.732 0.047 7.13 14.89 12.99
3/17/2021 9:30:00 AM 3.77 38.786 0.05 7.16 14.76 13.01
3/17/2021 9:45:00 AM 3.8 38.84 0.047 7.12 6.51 13.04
3/17/2021 10:00:00 AM 3.83 38.894 0.047 7.16 15.32 13.07
3/17/2021 10:15:00 AM 3.87 38.966 0.05 7.13 15.12 13.08
3/17/2021 10:30:00 AM 3.92 39.056 0.05 7.21 14.78 13.1
3/17/2021 10:45:00 AM 3.97 39.146 0.05 7.21 15.33 13.09
3/17/2021 11:00:00 AM 4.04 39.272 0.05 7.22 14.85 13.09
3/17/2021 11:15:00 AM 4.11 39.398 0.05 7.22 14.54 13.1
3/17/2021 11:30:00 AM 4.2 39.56 0.047 7.2 14.54 13.07
3/17/2021 11:45:00 AM 4.3 39.74 0.05 7.18 14.81 13.07
3/17/2021 12:00:00 PM 4.42 39.956 0.047 7.23 15.35 13.04
3/17/2021 12:15:00 PM 4.56 40.208 0.05 7.2 14.62 12.99
3/17/2021 12:30:00 PM 4.7 40.46 0.05 7.25 13.94 12.98
3/17/2021 12:45:00 PM 4.88 40.784 0.047 7.22 13.6 12.92
3/17/2021 1:00:00 PM 5.08 41.144 0.047 7.22 13.17 12.88
3/17/2021 1:15:00 PM 5.38 41.684 0.049 7.24 13.46 12.8
3/17/2021 1:30:00 PM 5.65 42.17 0.047 7.24 13.59 12.74
3/17/2021 1:45:00 PM 5.94 42.692 0.049 7.2 13.16 12.66
3/17/2021 2:00:00 PM 6.2 43.16 0.047 7.25 13.33 12.59
3/17/2021 2:15:00 PM 6.41 43.538 0.047 7.23 13.59 12.51
3/17/2021 2:30:00 PM 6.59 43.862 0.049 7.2 13.86 12.44
3/17/2021 2:45:00 PM 6.76 44.168 0.049 7.29 13.08 12.4
3/17/2021 3:00:00 PM 6.92 44.456 0.049 7.28 13.22 12.34
3/17/2021 3:15:00 PM 7.09 44.762 0.049 7.28 13.21 12.26
3/17/2021 3:30:00 PM 7.24 45.032 0.049 7.29 13.14 12.21
3/17/2021 3:45:00 PM 7.37 45.266 0.049 7.21 13.13 12.14
3/17/2021 4:00:00 PM 7.51 45.518 0.049 7.29 14.08 12.08
3/17/2021 4:15:00 PM 7.63 45.734 0.049 7.25 13.43 12.07
3/17/2021 4:30:00 PM 7.71 45.878 0.049 7.29 13.28 12.01
3/17/2021 4:45:00 PM 7.78 46.004 0.049 7.28 13.35 11.96
3/17/2021 5:00:00 PM 7.83 46.094 0.049 7.29 13.43 11.93
3/17/2021 5:15:00 PM 7.86 46.148 0.049 7.3 13.37 11.87
3/17/2021 5:30:00 PM 7.87 46.166 0.049 7.3 13.71 11.85
3/17/2021 5:45:00 PM 7.86 46.148 0.049 7.23 13.9 11.82
3/17/2021 6:00:00 PM 7.84 46.112 0.049 7.28 14.16 11.8
3/17/2021 6:15:00 PM 7.79 46.022 0.047 7.21 14.16 11.76
3/17/2021 6:30:00 PM 7.73 45.914 0.049 7.27 14.02 11.77
3/17/2021 6:45:00 PM 7.65 45.77 0.047 7.2 14.63 11.74
3/17/2021 7:00:00 PM 7.57 45.626 0.049 7.22 14.82 11.75
3/17/2021 7:15:00 PM 7.49 45.482 0.05 7.22 14.71 11.71
3/17/2021 7:30:00 PM 7.4 45.32 0.05 7.14 14.87 11.67
3/17/2021 7:45:00 PM 7.31 45.158 0.05 7.19 14.74 11.66
3/17/2021 8:00:00 PM 7.21 44.978 0.05 7.16 15.8 11.64
3/17/2021 8:15:00 PM 7.12 44.816 0.047 7.11 15.59 11.64
3/17/2021 8:30:00 PM 7.03 44.654 0.05 7.15 15.82 11.65
3/17/2021 8:45:00 PM 6.95 44.51 0.05 7.1 15.74 11.66
3/17/2021 9:00:00 PM 6.87 44.366 0.047 7.1 15.33 11.67
3/17/2021 9:15:00 PM 6.79 44.222 0.05 7.14 15.32 11.7
3/17/2021 9:30:00 PM 6.72 44.096 0.05 7.13 15.21 11.69
3/17/2021 9:45:00 PM 6.63 43.934 0.05 7.13 14.92 11.72
3/17/2021 10:00:00 PM 6.56 43.808 0.05 7.04 15.22 11.76
3/17/2021 10:15:00 PM 6.49 43.682 0.048 7.09 15.79 11.76
3/17/2021 10:30:00 PM 6.4 43.52 0.05 7.1 15.57 11.8
3/17/2021 10:45:00 PM 6.33 43.394 0.048 7.09 15.2 11.82
3/17/2021 11:00:00 PM 6.25 43.25 0.05 7.11 16.28 11.86
3/17/2021 11:15:00 PM 6.18 43.124 0.051 7.11 16.2 11.85
3/17/2021 11:30:00 PM 6.1 42.98 0.051 7.12 17.09 11.89
3/17/2021 11:45:00 PM 6.02 42.836 0.051 7.11 16.05 11.92
3/18/2021 12:00:00 AM 5.95 42.71 0.048 7.05 15.47 11.93
3/18/2021 12:15:00 AM 5.87 42.566 0.051 7.08 16.22 11.97
3/18/2021 12:30:00 AM 5.8 42.44 0.048 7.09 16.67 11.98
3/18/2021 12:45:00 AM 5.73 42.314 0.048 7.07 16.37 12.03
3/18/2021 1:00:00 AM 5.67 42.206 0.051 7.11 15.97 12.05
3/18/2021 1:15:00 AM 5.62 42.116 0.048 7.05 15.89 12.05
3/18/2021 1:30:00 AM 5.56 42.008 0.051 7.11 16.25 12.09
3/18/2021 1:45:00 AM 5.51 41.918 0.048 7.05 16.7 12.08
3/18/2021 2:00:00 AM 5.46 41.828 0.048 7.07 15.42 12.11
3/18/2021 2:15:00 AM 5.42 41.756 0.048 7.07 15.63 12.13
3/18/2021 2:30:00 AM 5.37 41.666 0.051 7.1 15.88 12.15
3/18/2021 2:45:00 AM 5.33 41.594 0.048 7.07 15.84 12.16
3/18/2021 3:00:00 AM 5.3 41.54 0.049 7.06 14.84 12.16
3/18/2021 3:15:00 AM 5.26 41.468 0.049 7.09 15.37 12.18
3/18/2021 3:30:00 AM 5.23 41.414 0.049 7.05 15.39 12.18
3/18/2021 3:45:00 AM 5.2 41.36 0.051 7.12 16.11 12.21
3/18/2021 4:00:00 AM 5.17 41.306 0.051 7.11 18.72 12.23
3/18/2021 4:15:00 AM 5.14 41.252 0.049 7.05 18.04 12.21
3/18/2021 4:30:00 AM 5.11 41.198 0.051 7.09 18.26 12.24
3/18/2021 4:45:00 AM 5.09 41.162 0.049 7.09 18.44 12.24
3/18/2021 5:00:00 AM 5.07 41.126 0.051 7.05 18.17 12.26
3/18/2021 5:15:00 AM 5.05 41.09 0.051 7.12 18.57 12.26
3/18/2021 5:30:00 AM 5.03 41.054 0.049 7.06 18.43 12.26
3/18/2021 5:45:00 AM 5 41 0.049 7.07 2.91 12.27
3/18/2021 6:00:00 AM 4.98 40.964 0.051 7.04 18.3 12.28
3/18/2021 6:15:00 AM 4.97 40.946 0.049 7.09 17.98 12.28
3/18/2021 6:30:00 AM 4.95 40.91 0.051 7.09 15.4 12.29
3/18/2021 6:45:00 AM 4.94 40.892 0.049 7.08 14.78 12.27
3/18/2021 7:00:00 AM 4.92 40.856 0.049 7.05 14.98 12.28
3/18/2021 7:15:00 AM 4.9 40.82 0.051 7.09 14.91 12.3
3/18/2021 7:30:00 AM 4.89 40.802 0.049 7.09 14.87 12.29
3/18/2021 7:45:00 AM 4.87 40.766 0.049 7.06 14.85 12.3
3/18/2021 8:00:00 AM 4.86 40.748 0.052 7.12 15.2 12.33
3/18/2021 8:15:00 AM 4.86 40.748 0.049 7.07 14.97 12.32
3/18/2021 8:30:00 AM 4.85 40.73 0.049 7.08 15.09 12.34
3/18/2021 8:45:00 AM 4.85 40.73 0.049 7.11 15.17 12.39
3/18/2021 9:00:00 AM 4.85 40.73 0.049 7.11 15.43 12.41
3/18/2021 9:15:00 AM 4.85 40.73 0.052 7.12 15.19 12.47
3/18/2021 9:30:00 AM 4.85 40.73 0.052 7.16 15.32 12.49
3/18/2021 9:45:00 AM 4.87 40.766 0.052 7.17 15.46 12.54
3/18/2021 10:00:00 AM 4.88 40.784 0.049 7.14 15.39 12.56
3/18/2021 10:15:00 AM 4.9 40.82 0.05 7.18 15.17 12.61
3/18/2021 10:30:00 AM 4.92 40.856 0.053 7.16 15.32 12.64
3/18/2021 10:45:00 AM 4.94 40.892 0.053 7.22 15.43 12.64
3/18/2021 11:00:00 AM 4.97 40.946 0.053 7.24 15.55 12.68
3/18/2021 11:15:00 AM 4.99 40.982 0.053 7.22 15.55 12.68
3/18/2021 11:30:00 AM 5.02 41.036 0.051 7.21 15.32 12.67
3/18/2021 11:45:00 AM 5.05 41.09 0.051 7.2 15.4 12.65
3/18/2021 12:00:00 PM 5.07 41.126 0.054 7.25 15.66 12.66
3/18/2021 12:15:00 PM 5.1 41.18 0.055 7.24 15.83 12.66
3/18/2021 12:30:00 PM 5.14 41.252 0.055 7.25 15.69 12.67
3/18/2021 12:45:00 PM 5.19 41.342 0.055 7.27 15.95 12.67
3/18/2021 1:00:00 PM 5.24 41.432 0.052 7.27 15.84 12.66
3/18/2021 1:15:00 PM 5.28 41.504 0.055 7.23 16.16 12.66
3/18/2021 1:30:00 PM 5.31 41.558 0.052 7.28 17.19 12.63
3/18/2021 1:45:00 PM 5.35 41.63 0.052 7.25 16.75 12.63
3/18/2021 2:00:00 PM 5.37 41.666 0.053 7.25 16.73 12.61
3/18/2021 2:15:00 PM 5.39 41.702 0.053 7.28 16.91 12.59
3/18/2021 2:30:00 PM 5.42 41.756 0.053 7.29 17.25 12.59
3/18/2021 2:45:00 PM 5.45 41.81 0.056 7.26 17.1 12.58
3/18/2021 3:00:00 PM 5.47 41.846 0.057 7.3 17.18 12.58
3/18/2021 3:15:00 PM 5.48 41.864 0.057 7.28 17.27 12.54
3/18/2021 3:30:00 PM 5.49 41.882 0.054 7.26 16.93 12.51
3/18/2021 3:45:00 PM 5.49 41.882 0.058 7.21 18.01 12.5
3/18/2021 4:00:00 PM 5.48 41.864 0.058 7.27 18.01 12.47
3/18/2021 4:15:00 PM 5.48 41.864 0.055 7.22 18.27 12.46
3/18/2021 4:30:00 PM 5.48 41.864 0.058 7.24 21.81 12.46
3/18/2021 4:45:00 PM 5.49 41.882 0.055 7.24 18.19 12.47
3/18/2021 5:00:00 PM 5.49 41.882 0.058 7.28 18.41 12.48
3/18/2021 5:15:00 PM 5.48 41.864 0.059 7.26 18.93 12.46
3/18/2021 5:30:00 PM 5.47 41.846 0.056 7.19 18.69 12.41
3/18/2021 5:45:00 PM 5.45 41.81 0.059 7.21 18.73 12.41
3/18/2021 6:00:00 PM 5.43 41.774 0.059 7.22 19.13 12.36
3/18/2021 6:15:00 PM 5.4 41.72 0.059 7.21 20.86 12.33
3/18/2021 6:30:00 PM 5.37 41.666 0.06 7.19 20.97 12.31
3/18/2021 6:45:00 PM 5.35 41.63 0.06 7.19 21.82 12.3
3/18/2021 7:00:00 PM 5.32 41.576 0.06 7.18 21.72 12.29
3/18/2021 7:15:00 PM 5.3 41.54 0.057 7.12 22.71 12.29
3/18/2021 7:30:00 PM 5.28 41.504 0.06 7.08 21.96 12.28
3/18/2021 7:45:00 PM 5.25 41.45 0.06 7.15 28.26 12.27
3/18/2021 8:00:00 PM 5.22 41.396 0.057 7.07 23.61 12.25
3/18/2021 8:15:00 PM 5.18 41.324 0.06 7.14 17.03 12.25
3/18/2021 8:30:00 PM 5.15 41.27 0.057 7.08 21.1 12.24
3/18/2021 8:45:00 PM 5.11 41.198 0.059 7.08 19.68 12.26
3/18/2021 9:00:00 PM 5.08 41.144 0.061 7.13 19.49 12.27
3/18/2021 9:15:00 PM 5.05 41.09 0.061 7.13 23.84 12.28
3/18/2021 9:30:00 PM 5.02 41.036 0.061 7.13 18.91 12.29
3/18/2021 9:45:00 PM 4.98 40.964 0.061 7.12 21.15 12.3
3/18/2021 10:00:00 PM 4.95 40.91 0.061 7.02 20.34 12.32
3/18/2021 10:15:00 PM 4.91 40.838 0.061 7.12 19.56 12.34
3/18/2021 10:30:00 PM 4.87 40.766 0.061 7.12 18.99 12.35
3/18/2021 10:45:00 PM 4.83 40.694 0.06 7.12 21.46 12.36
3/18/2021 11:00:00 PM 4.79 40.622 0.06 7.12 19.68 12.37
3/18/2021 11:15:00 PM 4.74 40.532 0.06 7.05 18.12 12.39
3/18/2021 11:30:00 PM 4.7 40.46 0.06 7.08 19.7 12.4
3/18/2021 11:45:00 PM 4.65 40.37 0.059 7.11 19.49 12.42
3/19/2021 12:00:00 AM 4.6 40.28 0.059 7.11 18.13 12.44
3/19/2021 12:15:00 AM 4.55 40.19 0.059 7.11 17.98 12.45
3/19/2021 12:30:00 AM 4.49 40.082 0.059 7.09 18.02 12.48
3/19/2021 12:45:00 AM 4.44 39.992 0.058 7.1 20.04 12.5
3/19/2021 1:00:00 AM 4.39 39.902 0.058 7.08 20.07 12.53
3/19/2021 1:15:00 AM 4.36 39.848 0.058 7.06 17.49 12.54
3/19/2021 1:30:00 AM 4.31 39.758 0.057 7.09 18.45 12.56
3/19/2021 1:45:00 AM 4.27 39.686 0.054 7.06 18.77 12.57
3/19/2021 2:00:00 AM 4.22 39.596 0.056 7.06 16.68 12.6
3/19/2021 2:15:00 AM 4.17 39.506 0.057 7.1 16.96 12.61
3/19/2021 2:30:00 AM 4.11 39.398 0.054 7.02 16.84 12.61
3/19/2021 2:45:00 AM 4.05 39.29 0.056 7.06 15.83 12.64
3/19/2021 3:00:00 AM 3.99 39.182 0.056 7.1 16.08 12.66
3/19/2021 3:15:00 AM 3.92 39.056 0.056 7.01 15.5 12.7
3/19/2021 3:30:00 AM 3.86 38.948 0.056 7.09 15.53 12.71
3/19/2021 3:45:00 AM 3.8 38.84 0.055 7.07 16.78 12.74
3/19/2021 4:00:00 AM 3.73 38.714 0.055 7.09 16.38 12.76
3/19/2021 4:15:00 AM 3.66 38.588 0.055 6.99 16.46 12.79
3/19/2021 4:30:00 AM 3.59 38.462 0.055 7.09 16.52 12.82
3/19/2021 4:45:00 AM 3.53 38.354 0.052 7.01 16.69 12.84
3/19/2021 5:00:00 AM 3.46 38.228 0.054 7.09 16.61 12.86
3/19/2021 5:15:00 AM 3.4 38.12 0.054 7.09 16.53 12.89
3/19/2021 5:30:00 AM 3.35 38.03 0.054 7.06 16.67 12.91
3/19/2021 5:45:00 AM 3.29 37.922 0.054 7.09 16.58 12.94
3/19/2021 6:00:00 AM 3.24 37.832 0.054 7.09 17.17 12.95
3/19/2021 6:15:00 AM 3.18 37.724 0.054 7 12.59 12.99
3/19/2021 6:30:00 AM 3.12 37.616 0.053 7.09 16.42 13.01
3/19/2021 6:45:00 AM 3.07 37.526 0.053 7 16.22 13.03
3/19/2021 7:00:00 AM 3.01 37.418 0.053 7.03 19.07 13.06
3/19/2021 7:15:00 AM 2.95 37.31 0.053 7.06 17.01 13.08
3/19/2021 7:30:00 AM 2.9 37.22 0.053 7.03 18.12 13.11
3/19/2021 7:45:00 AM 2.85 37.13 0.053 7.04 18.86 13.14
3/19/2021 8:00:00 AM 2.8 37.04 0.052 7.09 23.34 13.19
3/19/2021 8:15:00 AM 2.76 36.968 0.052 7.09 16.93 13.24
3/19/2021 8:30:00 AM 2.71 36.878 0.052 7.08 16.22 13.3
3/19/2021 8:45:00 AM 2.67 36.806 0.052 7.11 16.34 13.35
3/19/2021 9:00:00 AM 2.65 36.77 0.052 7.12 15.26 13.41
3/19/2021 9:15:00 AM 2.65 36.77 0.051 7.12 15.1 13.44
3/19/2021 9:30:00 AM 2.65 36.77 0.051 7.14 15.62 13.48
3/19/2021 9:45:00 AM 2.65 36.77 0.051 7.04 15.3 13.52
3/19/2021 10:00:00 AM 2.66 36.788 0.051 7.15 15.06 13.54
3/19/2021 10:15:00 AM 2.7 36.86 0.051 7.14 15.4 13.56
3/19/2021 10:30:00 AM 2.75 36.95 0.051 7.12 15.17 13.58
3/19/2021 10:45:00 AM 2.82 37.076 0.05 7.17 14.89 13.6
3/19/2021 11:00:00 AM 2.89 37.202 0.05 7.18 15.21 13.6
3/19/2021 11:15:00 AM 3.01 37.418 0.05 7.18 15.08 13.6
3/19/2021 11:30:00 AM 3.12 37.616 0.05 7.19 14.9 13.57
3/19/2021 11:45:00 AM 3.26 37.868 0.05 7.19 15.04 13.56
3/19/2021 12:00:00 PM 3.39 38.102 0.05 7.18 15.23 13.52
3/19/2021 12:15:00 PM 3.55 38.39 0.05 7.11 15.07 13.49
3/19/2021 12:30:00 PM 3.72 38.696 0.047 7.17 15.18 13.45
3/19/2021 12:45:00 PM 3.9 39.02 0.049 7.2 15.31 13.4
3/19/2021 1:00:00 PM 4.1 39.38 0.049 7.21 15.25 13.36
3/19/2021 1:15:00 PM 4.29 39.722 0.049 7.16 15.35 13.31
3/19/2021 1:30:00 PM 4.5 40.1 0.049 7.22 15 13.25
3/19/2021 1:45:00 PM 4.73 40.514 0.049 7.22 15.03 13.19
3/19/2021 2:00:00 PM 4.94 40.892 0.046 7.18 15.08 13.11
3/19/2021 2:15:00 PM 5.17 41.306 0.049 7.23 14.73 13.05
3/19/2021 2:30:00 PM 5.39 41.702 0.049 7.19 14.86 12.98
3/19/2021 2:45:00 PM 5.59 42.062 0.046 7.19 14.93 12.92
3/19/2021 3:00:00 PM 5.77 42.386 0.046 7.17 14.7 12.86
3/19/2021 3:15:00 PM 5.93 42.674 0.046 7.17 15 12.79
3/19/2021 3:30:00 PM 6.05 42.89 0.048 7.17 14.52 12.74
3/19/2021 3:45:00 PM 6.16 43.088 0.048 7.22 14.6 12.71
3/19/2021 4:00:00 PM 6.22 43.196 0.048 7.24 14.36 12.67
3/19/2021 4:15:00 PM 6.26 43.268 0.046 7.18 16.32 12.63
3/19/2021 4:30:00 PM 6.27 43.286 0.048 7.22 15.32 12.6
3/19/2021 4:45:00 PM 6.25 43.25 0.048 7.11 14.89 12.59
3/19/2021 5:00:00 PM 6.22 43.196 0.048 7.24 15.04 12.57
3/19/2021 5:15:00 PM 6.17 43.106 0.048 7.24 15.37 12.57
3/19/2021 5:30:00 PM 6.12 43.016 0.048 7.23 15.78 12.55
3/19/2021 5:45:00 PM 6.06 42.908 0.048 7.13 15.93 12.54
3/19/2021 6:00:00 PM 5.98 42.764 0.048 7.18 15.84 12.52
3/19/2021 6:15:00 PM 5.9 42.62 0.045 7.17 15.96 12.5
3/19/2021 6:30:00 PM 5.8 42.44 0.048 7.19 15.62 12.5
3/19/2021 6:45:00 PM 5.72 42.296 0.048 7.18 17.27 12.48
3/19/2021 7:00:00 PM 5.64 42.152 0.048 7.16 16.13 12.48
3/19/2021 7:15:00 PM 5.57 42.026 0.048 7.15 16.33 12.47
3/19/2021 7:30:00 PM 5.49 41.882 0.045 7.05 16.88 12.45
3/19/2021 7:45:00 PM 5.4 41.72 0.045 7.09 16.5 12.42
3/19/2021 8:00:00 PM 5.31 41.558 0.045 7.08 16.78 12.42
3/19/2021 8:15:00 PM 5.23 41.414 0.048 7.1 15.65 12.43
3/19/2021 8:30:00 PM 5.15 41.27 0.048 7.09 16.38 12.43
3/19/2021 8:45:00 PM 5.07 41.126 0.045 6.99 16.21 12.45
3/19/2021 9:00:00 PM 5 41 0.045 6.99 17.2 12.47
3/19/2021 9:15:00 PM 4.92 40.856 0.045 6.97 16.99 12.49
3/19/2021 9:30:00 PM 4.85 40.73 0.045 6.97 18.32 12.51
3/19/2021 9:45:00 PM 4.77 40.586 0.045 7 18.31 12.52
3/19/2021 10:00:00 PM 4.7 40.46 0.045 6.97 17.1 12.55
3/19/2021 10:15:00 PM 4.62 40.316 0.048 7.07 17.14 12.58
3/19/2021 10:30:00 PM 4.55 40.19 0.045 6.98 18.13 12.6
3/19/2021 10:45:00 PM 4.47 40.046 0.048 6.95 17.88 12.64
3/19/2021 11:00:00 PM 4.39 39.902 0.048 7.06 18.86 12.68
3/19/2021 11:15:00 PM 4.31 39.758 0.048 6.94 18.33 12.7
3/19/2021 11:30:00 PM 4.22 39.596 0.048 7 17.17 12.74
3/19/2021 11:45:00 PM 4.15 39.47 0.048 7.05 16.96 12.76
3/20/2021 12:00:00 AM 4.07 39.326 0.045 6.96 17.89 12.77
3/20/2021 12:15:00 AM 3.99 39.182 0.045 6.97 19.64 12.81
3/20/2021 12:30:00 AM 3.91 39.038 0.045 6.98 18.03 12.84
3/20/2021 12:45:00 AM 3.83 38.894 0.048 7.04 17.39 12.87
3/20/2021 1:00:00 AM 3.76 38.768 0.048 7.05 18.57 12.91
3/20/2021 1:15:00 AM 3.69 38.642 0.045 6.98 18.49 12.94
3/20/2021 1:30:00 AM 3.62 38.516 0.045 7.02 18.15 12.96
3/20/2021 1:45:00 AM 3.55 38.39 0.045 6.98 17.21 12.98
3/20/2021 2:00:00 AM 3.49 38.282 0.046 7 18.29 13
3/20/2021 2:15:00 AM 3.42 38.156 0.048 7.03 18.08 13.03
3/20/2021 2:30:00 AM 3.37 38.066 0.045 7.02 18.17 13.04
3/20/2021 2:45:00 AM 3.3 37.94 0.048 7.06 18.3 13.08
3/20/2021 3:00:00 AM 3.25 37.85 0.045 7.01 18.13 13.09
3/20/2021 3:15:00 AM 3.19 37.742 0.048 7.06 18.22 13.13
3/20/2021 3:30:00 AM 3.13 37.634 0.048 7.06 18.11 13.16
3/20/2021 3:45:00 AM 3.08 37.544 0.048 7 17.98 13.18
3/20/2021 4:00:00 AM 3.03 37.454 0.048 7.05 18.25 13.2
3/20/2021 4:15:00 AM 2.98 37.364 0.048 7.06 18.26 13.21
3/20/2021 4:30:00 AM 2.92 37.256 0.048 7.06 18.2 13.22
3/20/2021 4:45:00 AM 2.87 37.166 0.048 7.05 18 13.24
3/20/2021 5:00:00 AM 2.82 37.076 0.048 7.06 18.18 13.26
3/20/2021 5:15:00 AM 2.77 36.986 0.048 7.06 18.01 13.28
3/20/2021 5:30:00 AM 2.73 36.914 0.048 7 17.9 13.31
3/20/2021 5:45:00 AM 2.68 36.824 0.048 7.04 18.35 13.33
3/20/2021 6:00:00 AM 2.63 36.734 0.048 7.04 18.35 13.33
3/20/2021 6:15:00 AM 2.59 36.662 0.048 7.06 18.84 13.36
3/20/2021 6:30:00 AM 2.54 36.572 0.048 7.04 18.79 13.38
3/20/2021 6:45:00 AM 2.5 36.5 0.048 7.05 18.8 13.39
3/20/2021 7:00:00 AM 2.46 36.428 0.048 7.04 18.36 13.42
3/20/2021 7:15:00 AM 2.42 36.356 0.048 7.05 18.25 13.45
3/20/2021 7:30:00 AM 2.38 36.284 0.048 6.96 18.2 13.47
3/20/2021 7:45:00 AM 2.34 36.212 0.048 7.02 18.5 13.5
3/20/2021 8:00:00 AM 2.31 36.158 0.048 7.06 18.4 13.53
3/20/2021 8:15:00 AM 2.28 36.104 0.048 7.06 18.54 13.6
3/20/2021 8:30:00 AM 2.26 36.068 0.048 7.08 18.5 13.63
3/20/2021 8:45:00 AM 2.25 36.05 0.048 7.09 18.47 13.67
3/20/2021 9:00:00 AM 2.26 36.068 0.047 6.98 18.75 13.72
3/20/2021 9:15:00 AM 2.27 36.086 0.047 7.08 18.63 13.76
3/20/2021 9:30:00 AM 2.29 36.122 0.047 7.12 18.5 13.78
3/20/2021 9:45:00 AM 2.32 36.176 0.047 7.12 18.99 13.8
3/20/2021 10:00:00 AM 2.36 36.248 0.045 7.03 18.97 13.82
3/20/2021 10:15:00 AM 2.42 36.356 0.047 7.07 18.97 13.84
3/20/2021 10:30:00 AM 2.52 36.536 0.047 7.15 19.04 13.84
3/20/2021 10:45:00 AM 2.64 36.752 0.047 7.15 18.95 13.81
3/20/2021 11:00:00 AM 2.77 36.986 0.047 7.14 18.98 13.79
3/20/2021 11:15:00 AM 2.93 37.274 0.047 7.07 19.04 13.77
3/20/2021 11:30:00 AM 3.1 37.58 0.047 7.13 19.08 13.74
3/20/2021 11:45:00 AM 3.29 37.922 0.047 7.17 19.09 13.68
3/20/2021 12:00:00 PM 3.49 38.282 0.044 7.1 18.91 13.62
3/20/2021 12:15:00 PM 3.71 38.678 0.047 7.18 19.07 13.58
3/20/2021 12:30:00 PM 3.94 39.092 0.047 7.17 19 13.5
3/20/2021 12:45:00 PM 4.19 39.542 0.047 7.19 19.11 13.44
3/20/2021 1:00:00 PM 4.43 39.974 0.044 7.13 19.78 13.35
3/20/2021 1:15:00 PM 4.7 40.46 0.047 7.2 19.18 13.28
3/20/2021 1:30:00 PM 4.97 40.946 0.047 7.19 19.4 13.2
3/20/2021 1:45:00 PM 5.25 41.45 0.047 7.21 19.21 13.11
3/20/2021 2:00:00 PM 5.53 41.954 0.047 7.21 19.96 13.02
3/20/2021 2:15:00 PM 5.82 42.476 0.047 7.19 20 12.93
3/20/2021 2:30:00 PM 6.1 42.98 0.047 7.22 20.12 12.83
3/20/2021 2:45:00 PM 6.36 43.448 0.044 7.15 20.2 12.75
3/20/2021 3:00:00 PM 6.62 43.916 0.046 7.22 19.74 12.67
3/20/2021 3:15:00 PM 6.83 44.294 0.046 7.23 18.85 12.61
3/20/2021 3:30:00 PM 7.02 44.636 0.046 7.24 18.26 12.55
3/20/2021 3:45:00 PM 7.16 44.888 0.044 7.18 17.63 12.47
3/20/2021 4:00:00 PM 7.27 45.086 0.046 7.26 18.26 12.44
3/20/2021 4:15:00 PM 7.36 45.248 0.046 7.26 18.87 12.38
3/20/2021 4:30:00 PM 7.41 45.338 0.046 7.27 18.96 12.34
3/20/2021 4:45:00 PM 7.43 45.374 0.046 7.26 20.03 12.32
3/20/2021 5:00:00 PM 7.44 45.392 0.044 7.18 18.35 12.28
3/20/2021 5:15:00 PM 7.43 45.374 0.046 7.21 17.37 12.24
3/20/2021 5:30:00 PM 7.41 45.338 0.046 7.22 17.35 12.22
3/20/2021 5:45:00 PM 7.38 45.284 0.046 7.21 17.04 12.2
3/20/2021 6:00:00 PM 7.32 45.176 0.046 7.23 16.79 12.16
3/20/2021 6:15:00 PM 7.25 45.05 0.046 7.22 17.21 12.14
3/20/2021 6:30:00 PM 7.17 44.906 0.047 7.21 17.16 12.13
3/20/2021 6:45:00 PM 7.09 44.762 0.047 7.18 17.67 12.1
3/20/2021 7:00:00 PM 7.01 44.618 0.047 7.18 18.04 12.09
3/20/2021 7:15:00 PM 6.94 44.492 0.044 7.08 23.52 12.06
3/20/2021 7:30:00 PM 6.87 44.366 0.047 7.05 21.08 12.05
3/20/2021 7:45:00 PM 6.78 44.204 0.047 7.14 17.36 12.04
3/20/2021 8:00:00 PM 6.69 44.042 0.047 7.13 17.4 12.02
3/20/2021 8:15:00 PM 6.6 43.88 0.047 7.11 17.75 12
3/20/2021 8:30:00 PM 6.51 43.718 0.047 7.09 17.7 12.02
3/20/2021 8:45:00 PM 6.42 43.556 0.045 7.02 17.11 12.03
3/20/2021 9:00:00 PM 6.33 43.394 0.047 7.09 17.82 12.05
3/20/2021 9:15:00 PM 6.24 43.232 0.047 7.08 17.71 12.08
3/20/2021 9:30:00 PM 6.16 43.088 0.047 7.08 17.76 12.11
3/20/2021 9:45:00 PM 6.09 42.962 0.047 7.05 18.12 12.12
3/20/2021 10:00:00 PM 6.01 42.818 0.047 7.08 19.05 12.13
3/20/2021 10:15:00 PM 5.93 42.674 0.047 6.98 18.49 12.17
3/20/2021 10:30:00 PM 5.85 42.53 0.045 7.03 17.91 12.17
3/20/2021 10:45:00 PM 5.76 42.368 0.047 7.05 16.32 12.22
3/20/2021 11:00:00 PM 5.67 42.206 0.047 7.07 16.6 12.25
3/20/2021 11:15:00 PM 5.58 42.044 0.045 6.97 16.48 12.28
3/20/2021 11:30:00 PM 5.48 41.864 0.045 7 16.03 12.3
3/20/2021 11:45:00 PM 5.38 41.684 0.047 7.03 16.01 12.34
3/21/2021 12:00:00 AM 5.28 41.504 0.048 6.98 16.1 12.38
3/21/2021 12:15:00 AM 5.19 41.342 0.048 7.04 15.83 12.41
3/21/2021 12:30:00 AM 5.09 41.162 0.045 7.02 16.37 12.44
3/21/2021 12:45:00 AM 4.99 40.982 0.048 7.06 16.14 12.48
3/21/2021 1:00:00 AM 4.89 40.802 0.048 7.06 16.18 12.52
3/21/2021 1:15:00 AM 4.8 40.64 0.048 6.92 16.01 12.55
3/21/2021 1:30:00 AM 4.71 40.478 0.048 7.06 16.03 12.57
3/21/2021 1:45:00 AM 4.62 40.316 0.048 7.06 16.04 12.6
3/21/2021 2:00:00 AM 4.53 40.154 0.048 7.06 16.15 12.64
3/21/2021 2:15:00 AM 4.44 39.992 0.048 7.07 16.2 12.67
3/21/2021 2:30:00 AM 4.36 39.848 0.048 7.05 16.33 12.7
3/21/2021 2:45:00 AM 4.28 39.704 0.048 6.95 17.34 12.73
3/21/2021 3:00:00 AM 4.2 39.56 0.045 7.02 17.48 12.74
3/21/2021 3:15:00 AM 4.12 39.416 0.045 6.97 17.99 12.77
3/21/2021 3:30:00 AM 4.05 39.29 0.045 7.01 18.34 12.79
3/21/2021 3:45:00 AM 3.97 39.146 0.048 6.99 18.88 12.82
3/21/2021 4:00:00 AM 3.9 39.02 0.045 7.01 21.33 12.85
3/21/2021 4:15:00 AM 3.83 38.894 0.045 6.98 16.71 12.87
3/21/2021 4:30:00 AM 3.76 38.768 0.045 6.97 16.6 12.9
3/21/2021 4:45:00 AM 3.69 38.642 0.048 7.02 17.02 12.94
3/21/2021 5:00:00 AM 3.62 38.516 0.045 7.01 17.41 12.96
3/21/2021 5:15:00 AM 3.56 38.408 0.045 7.02 16.66 12.98
3/21/2021 5:30:00 AM 3.49 38.282 0.048 7.01 17.45 13.01
3/21/2021 5:45:00 AM 3.43 38.174 0.048 7.02 18.08 13.03
3/21/2021 6:00:00 AM 3.36 38.048 0.048 7.05 20.47 13.06
3/21/2021 6:15:00 AM 3.3 37.94 0.048 7.06 25.82 13.08
3/21/2021 6:30:00 AM 3.25 37.85 0.048 7.05 17.14 13.1
3/21/2021 6:45:00 AM 3.19 37.742 0.048 7.05 18.53 13.13
3/21/2021 7:00:00 AM 3.13 37.634 0.048 6.97 21.75 13.15
3/21/2021 7:15:00 AM 3.07 37.526 0.048 7.05 20.1 13.18
3/21/2021 7:30:00 AM 3.02 37.436 0.048 7.01 19.89 13.22
3/21/2021 7:45:00 AM 2.97 37.346 0.048 7.04 17.75 13.27
3/21/2021 8:00:00 AM 2.93 37.274 0.048 7.03 23.33 13.32
3/21/2021 8:15:00 AM 2.89 37.202 0.045 7.06 23.85 13.36
3/21/2021 8:30:00 AM 2.85 37.13 0.048 6.99 17.93 13.43
3/21/2021 8:45:00 AM 2.83 37.094 0.048 7.1 17.09 13.5
3/21/2021 9:00:00 AM 2.83 37.094 0.048 7.11 17.9 13.55
3/21/2021 9:15:00 AM 2.85 37.13 0.048 7.13 17.87 13.59
3/21/2021 9:30:00 AM 2.86 37.148 0.048 7.15 18.03 13.62
3/21/2021 9:45:00 AM 2.88 37.184 0.048 7.06 17.92 13.64
3/21/2021 10:00:00 AM 2.92 37.256 0.045 7.13 20.06 13.65
3/21/2021 10:15:00 AM 2.98 37.364 0.045 7.09 15.59 13.67
3/21/2021 10:30:00 AM 3.08 37.544 0.048 7.07 18.07 13.68
3/21/2021 10:45:00 AM 3.21 37.778 0.045 7.16 19.38 13.66
3/21/2021 11:00:00 AM 3.36 38.048 0.048 7.15 18.24 13.64
3/21/2021 11:15:00 AM 3.52 38.336 0.045 7.17 19.48 13.6
3/21/2021 11:30:00 AM 3.7 38.66 0.048 7.18 24.03 13.58
3/21/2021 11:45:00 AM 3.91 39.038 0.048 7.22 20.52 13.51
3/21/2021 12:00:00 PM 4.13 39.434 0.048 7.13 20.65 13.46
3/21/2021 12:15:00 PM 4.35 39.83 0.045 7.19 24.54 13.41
3/21/2021 12:30:00 PM 4.6 40.28 0.047 7.23 21.95 13.33
3/21/2021 12:45:00 PM 4.86 40.748 0.047 7.14 19.62 13.27
3/21/2021 1:00:00 PM 5.12 41.216 0.045 7.21 19.71 13.18
3/21/2021 1:15:00 PM 5.39 41.702 0.045 7.21 23.65 13.09
3/21/2021 1:30:00 PM 5.68 42.224 0.047 7.26 24.13 13.03
3/21/2021 1:45:00 PM 5.96 42.728 0.045 7.17 22.82 12.9
3/21/2021 2:00:00 PM 6.27 43.286 0.047 7.19 26.4 12.84
3/21/2021 2:15:00 PM 6.57 43.826 0.047 7.24 27.68 12.74
3/21/2021 2:30:00 PM 6.88 44.384 0.047 7.28 19.55 12.66
3/21/2021 2:45:00 PM 7.16 44.888 0.047 7.2 18.94 12.55
3/21/2021 3:00:00 PM 7.42 45.356 0.047 7.27 18.39 12.46
3/21/2021 3:15:00 PM 7.66 45.788 0.047 7.25 15.4 12.4
3/21/2021 3:30:00 PM 7.85 46.13 0.047 7.27 16.17 12.3
3/21/2021 3:45:00 PM 8.02 46.436 0.047 7.31 16.52 12.23
3/21/2021 4:00:00 PM 8.14 46.652 0.047 7.31 20.27 12.18
3/21/2021 4:15:00 PM 8.24 46.832 0.045 7.26 16.41 12.13
3/21/2021 4:30:00 PM 8.3 46.94 0.047 7.31 52.39 12.09
3/21/2021 4:45:00 PM 8.33 46.994 0.047 7.33 15.25 12.05
3/21/2021 5:00:00 PM 8.33 46.994 0.045 7.25 28.96 12
3/21/2021 5:15:00 PM 8.32 46.976 0.047 7.29 21.81 11.98
3/21/2021 5:30:00 PM 8.29 46.922 0.047 7.29 20.04 11.97
3/21/2021 5:45:00 PM 8.25 46.85 0.047 7.31 19.46 11.96
3/21/2021 6:00:00 PM 8.2 46.76 0.047 7.3 18.36 11.94
3/21/2021 6:15:00 PM 8.12 46.616 0.047 7.3 18.42 11.93
3/21/2021 6:30:00 PM 8.04 46.472 0.047 7.28 19.68 11.89
3/21/2021 6:45:00 PM 7.94 46.292 0.047 7.26 20.08 11.86
3/21/2021 7:00:00 PM 7.86 46.148 0.047 7.24 19.4 11.84
3/21/2021 7:15:00 PM 7.78 46.004 0.047 7.22 19.11 11.82
3/21/2021 7:30:00 PM 7.7 45.86 0.047 7.21 19.85 11.78
3/21/2021 7:45:00 PM 7.6 45.68 0.047 7.18 24.71 11.77
3/21/2021 8:00:00 PM 7.49 45.482 0.047 7.16 21.78 11.77
3/21/2021 8:15:00 PM 7.39 45.302 0.047 7.15 26.48 11.74
3/21/2021 8:30:00 PM 7.29 45.122 0.048 7.14 25.88 11.74
3/21/2021 8:45:00 PM 7.2 44.96 0.048 7.13 27.86 11.77
3/21/2021 9:00:00 PM 7.1 44.78 0.048 7.12 27.11 11.76
3/21/2021 9:15:00 PM 7.01 44.618 0.048 7.12 26.85 11.79
3/21/2021 9:30:00 PM 6.92 44.456 0.048 7.11 21.6 11.82
3/21/2021 9:45:00 PM 6.83 44.294 0.048 7.11 21.37 11.84
3/21/2021 10:00:00 PM 6.74 44.132 0.048 7.1 47 11.86
3/21/2021 10:15:00 PM 6.64 43.952 0.048 7.1 46.21 11.88
3/21/2021 10:30:00 PM 6.55 43.79 0.048 7.1 45.38 11.91
3/21/2021 10:45:00 PM 6.45 43.61 0.047 7.02 44.96 11.94
3/21/2021 11:00:00 PM 6.36 43.448 0.047 7.08 44.35 11.97
3/21/2021 11:15:00 PM 6.26 43.268 0.048 7.1 44.27 12.01
3/21/2021 11:30:00 PM 6.17 43.106 0.048 7.1 44.36 12.03
3/21/2021 11:45:00 PM 6.08 42.944 0.048 7.1 44.81 12.06
3/22/2021 12:00:00 AM 5.98 42.764 0.048 7.1 43.11 12.08
3/22/2021 12:15:00 AM 5.88 42.584 0.049 7.1 42.79 12.12
3/22/2021 12:30:00 AM 5.78 42.404 0.049 7.1 41.93 12.14
3/22/2021 12:45:00 AM 5.68 42.224 0.049 7.1 41.68 12.19
3/22/2021 1:00:00 AM 5.58 42.044 0.049 7.1 41.54 12.23
3/22/2021 1:15:00 AM 5.47 41.846 0.049 7.06 39.34 12.25
3/22/2021 1:30:00 AM 5.37 41.666 0.049 7.08 40.88 12.29
3/22/2021 1:45:00 AM 5.27 41.486 0.049 7.09 40.59 12.32
3/22/2021 2:00:00 AM 5.17 41.306 0.049 7.09 41.05 12.36
3/22/2021 2:15:00 AM 5.07 41.126 0.049 7.09 41.2 12.39
3/22/2021 2:30:00 AM 4.97 40.946 0.049 7.08 39.36 12.43
3/22/2021 2:45:00 AM 4.87 40.766 0.049 7.09 40.67 12.46
3/22/2021 3:00:00 AM 4.78 40.604 0.049 7.1 42.33 12.49
3/22/2021 3:15:00 AM 4.69 40.442 0.049 7.1 42.68 12.52
3/22/2021 3:30:00 AM 4.61 40.298 0.049 7.09 43.52 12.54
3/22/2021 3:45:00 AM 4.52 40.136 0.049 7.08 41.41 12.58
3/22/2021 4:00:00 AM 4.43 39.974 0.049 7.1 43.5 12.61
3/22/2021 4:15:00 AM 4.35 39.83 0.049 7.09 43.29 12.64
3/22/2021 4:30:00 AM 4.27 39.686 0.049 7.09 40.65 12.67
3/22/2021 4:45:00 AM 4.19 39.542 0.049 7.1 82.39 12.71
3/22/2021 5:00:00 AM 4.11 39.398 0.049 7.09 43.82 12.72
3/22/2021 5:15:00 AM 4.04 39.272 0.049 7.09 55.67 12.74
3/22/2021 5:30:00 AM 3.96 39.128 0.049 7.09 50.1 12.78
3/22/2021 5:45:00 AM 3.89 39.002 0.049 7.09 33.74 12.81
3/22/2021 6:00:00 AM 3.82 38.876 0.049 7.09 42.88 12.83
3/22/2021 6:15:00 AM 3.75 38.75 0.049 7.09 50.95 12.87
3/22/2021 6:30:00 AM 3.68 38.624 0.049 7.09 45.34 12.89
3/22/2021 6:45:00 AM 3.61 38.498 0.049 7.09 44.82 12.91
3/22/2021 7:00:00 AM 3.55 38.39 0.049 7.09 50.96 12.94
3/22/2021 7:15:00 AM 3.48 38.264 0.049 7.09 47.48 12.96
3/22/2021 7:30:00 AM 3.42 38.156 0.049 7.1 47.9 13
3/22/2021 7:45:00 AM 3.37 38.066 0.049 7.1 48.81 13.07
3/22/2021 8:00:00 AM 3.31 37.958 0.049 7.11 41.58 13.14
3/22/2021 8:15:00 AM 3.26 37.868 0.049 7.13 40.72 13.21
3/22/2021 8:30:00 AM 3.22 37.796 0.049 7.14 53.65 13.27
3/22/2021 8:45:00 AM 3.2 37.76 0.049 7.15 53 13.34
3/22/2021 9:00:00 AM 3.21 37.778 0.049 7.17 50.95 13.39
3/22/2021 9:15:00 AM 3.22 37.796 0.049 7.18 48.54 13.44
3/22/2021 9:30:00 AM 3.24 37.832 0.049 7.19 87.22 13.47
3/22/2021 9:45:00 AM 3.27 37.886 0.049 7.21 51.87 13.51
3/22/2021 10:00:00 AM 3.3 37.94 0.049 7.22 42.29 13.52
3/22/2021 10:15:00 AM 3.37 38.066 0.049 7.23 42.11 13.54
3/22/2021 10:30:00 AM 3.47 38.246 0.049 7.24 41.95 13.53
3/22/2021 10:45:00 AM 3.6 38.48 0.048 7.25 41.77 13.52
3/22/2021 11:00:00 AM 3.76 38.768 0.048 7.26 41.76 13.52
3/22/2021 11:15:00 AM 3.93 39.074 0.048 7.27 41.72 13.47
3/22/2021 11:30:00 AM 4.12 39.416 0.048 7.27 41.71 13.41
3/22/2021 11:45:00 AM 4.33 39.794 0.048 7.29 41.58 13.38
3/22/2021 12:00:00 PM 4.56 40.208 0.048 7.28 41.52 13.31
3/22/2021 12:15:00 PM 4.79 40.622 0.048 7.29 41.43 13.25
3/22/2021 12:30:00 PM 5.05 41.09 0.048 7.3 41.4 13.19
3/22/2021 12:45:00 PM 5.31 41.558 0.048 7.31 41.42 13.11
3/22/2021 1:00:00 PM 5.58 42.044 0.048 7.31 40.66 13.05
3/22/2021 1:15:00 PM 5.86 42.548 0.048 7.32 41.07 12.95
3/22/2021 1:30:00 PM 6.15 43.07 0.048 7.33 41.03 12.87
3/22/2021 1:45:00 PM 6.45 43.61 0.048 7.33 40.38 12.77
3/22/2021 2:00:00 PM 6.75 44.15 0.048 7.34 40.05 12.68
3/22/2021 2:15:00 PM 7.06 44.708 0.048 7.35 41.17 12.58
3/22/2021 2:30:00 PM 7.38 45.284 0.048 7.35 40.02 12.48
3/22/2021 2:45:00 PM 7.67 45.806 0.048 7.33 40.3 12.39
3/22/2021 3:00:00 PM 7.94 46.292 0.048 7.37 39.88 12.3
3/22/2021 3:15:00 PM 8.18 46.724 0.048 7.38 38.72 12.22
3/22/2021 3:30:00 PM 8.4 47.12 0.048 7.38 38.47 12.14
3/22/2021 3:45:00 PM 8.58 47.444 0.048 7.39 38.52 12.08
3/22/2021 4:00:00 PM 8.7 47.66 0.048 7.39 38.32 12.01
3/22/2021 4:15:00 PM 8.81 47.858 0.048 7.4 38.42 11.97
3/22/2021 4:30:00 PM 8.87 47.966 0.047 7.4 38.65 11.92
3/22/2021 4:45:00 PM 8.9 48.02 0.048 7.41 38.47 11.88
3/22/2021 5:00:00 PM 8.91 48.038 0.047 7.39 38.86 11.84
3/22/2021 5:15:00 PM 8.9 48.02 0.047 7.4 38.72 11.82
3/22/2021 5:30:00 PM 8.88 47.984 0.047 7.39 36.87 11.78
3/22/2021 5:45:00 PM 8.84 47.912 0.047 7.37 41.46 11.76
3/22/2021 6:00:00 PM 8.78 47.804 0.048 7.35 40.96 11.72
3/22/2021 6:15:00 PM 8.69 47.642 0.048 7.32 40.59 11.71
3/22/2021 6:30:00 PM 8.6 47.48 0.048 7.31 39.53 11.66
3/22/2021 6:45:00 PM 8.5 47.3 0.048 7.31 40.8 11.65
3/22/2021 7:00:00 PM 8.4 47.12 0.048 7.28 39.77 11.63
3/22/2021 7:15:00 PM 8.32 46.976 0.048 7.26 38.27 11.61
3/22/2021 7:30:00 PM 8.24 46.832 0.048 7.23 32.25 11.58
3/22/2021 7:45:00 PM 8.15 46.67 0.048 7.21 31.13 11.55
3/22/2021 8:00:00 PM 8.04 46.472 0.048 7.19 31.81 11.52
3/22/2021 8:15:00 PM 7.93 46.274 0.048 7.17 30.95 11.5
3/22/2021 8:30:00 PM 7.83 46.094 0.048 7.16 32.8 11.51
3/22/2021 8:45:00 PM 7.74 45.932 0.048 7.15 37.73 11.52
3/22/2021 9:00:00 PM 7.64 45.752 0.048 7.14 39.63 11.53
3/22/2021 9:15:00 PM 7.54 45.572 0.048 7.14 43.26 11.55
3/22/2021 9:30:00 PM 7.44 45.392 0.048 7.13 36.5 11.58
3/22/2021 9:45:00 PM 7.35 45.23 0.048 7.12 35.48 11.6
3/22/2021 10:00:00 PM 7.25 45.05 0.048 7.12 35.99 11.62
3/22/2021 10:15:00 PM 7.16 44.888 0.048 7.12 32.79 11.65
3/22/2021 10:30:00 PM 7.08 44.744 0.048 7.12 31.18 11.68
3/22/2021 10:45:00 PM 6.99 44.582 0.048 7.12 30 11.71
3/22/2021 11:00:00 PM 6.9 44.42 0.048 7.12 31.92 11.75
3/22/2021 11:15:00 PM 6.82 44.276 0.048 7.12 32.78 11.77
3/22/2021 11:30:00 PM 6.73 44.114 0.048 7.11 32.58 11.8
3/22/2021 11:45:00 PM 6.63 43.934 0.048 7.11 31.69 11.82
3/23/2021 12:00:00 AM 6.54 43.772 0.049 7.11 31.93 11.85
3/23/2021 12:15:00 AM 6.44 43.592 0.049 7.11 32.46 11.88
3/23/2021 12:30:00 AM 6.35 43.43 0.049 7.11 32.62 11.91
3/23/2021 12:45:00 AM 6.26 43.268 0.049 7.11 33.51 11.95
3/23/2021 1:00:00 AM 6.16 43.088 0.049 7.11 31.87 11.98
3/23/2021 1:15:00 AM 6.07 42.926 0.049 7.11 33.32 12.02
3/23/2021 1:30:00 AM 5.98 42.764 0.049 7.11 32.41 12.04
3/23/2021 1:45:00 AM 5.87 42.566 0.049 7.11 33.48 12.07
3/23/2021 2:00:00 AM 5.78 42.404 0.049 7.11 32.08 12.1
3/23/2021 2:15:00 AM 5.67 42.206 0.049 7.11 38.6 12.15
3/23/2021 2:30:00 AM 5.57 42.026 0.049 7.11 41.6 12.18
3/23/2021 2:45:00 AM 5.47 41.846 0.049 7.11 45.58 12.21
3/23/2021 3:00:00 AM 5.38 41.684 0.049 7.1 37.84 12.23
3/23/2021 3:15:00 AM 5.28 41.504 0.049 7.11 37.94 12.27
3/23/2021 3:30:00 AM 5.18 41.324 0.049 7.1 34.57 12.29
3/23/2021 3:45:00 AM 5.09 41.162 0.049 7.11 38.14 12.33
3/23/2021 4:00:00 AM 5 41 0.049 7.11 38.49 12.36
3/23/2021 4:15:00 AM 4.91 40.838 0.049 7.11 30.65 12.4
3/23/2021 4:30:00 AM 4.83 40.694 0.049 7.1 67.39 12.43
3/23/2021 4:45:00 AM 4.74 40.532 0.049 7.1 56.14 12.45
3/23/2021 5:00:00 AM 4.66 40.388 0.049 7.1 52.75 12.48
3/23/2021 5:15:00 AM 4.58 40.244 0.049 7.1 63.92 12.5
3/23/2021 5:30:00 AM 4.5 40.1 0.049 7.1 62.97 12.53
3/23/2021 5:45:00 AM 4.43 39.974 0.049 7.1 60.66 12.57
3/23/2021 6:00:00 AM 4.35 39.83 0.049 7.1 60.14 12.59
3/23/2021 6:15:00 AM 4.28 39.704 0.049 7.1 59.98 12.62
3/23/2021 6:30:00 AM 4.2 39.56 0.049 7.1 60.49 12.64
3/23/2021 6:45:00 AM 4.14 39.452 0.049 7.1 73.26 12.66
3/23/2021 7:00:00 AM 4.07 39.326 0.049 7.1 48.91 12.68
3/23/2021 7:15:00 AM 4 39.2 0.049 7.1 40.44 12.72
3/23/2021 7:30:00 AM 3.94 39.092 0.049 7.1 28.83 12.75
3/23/2021 7:45:00 AM 3.89 39.002 0.049 7.11 30.39 12.83
3/23/2021 8:00:00 AM 3.84 38.912 0.049 7.13 33.51 12.9
3/23/2021 8:15:00 AM 3.8 38.84 0.049 7.14 32.44 13
3/23/2021 8:30:00 AM 3.77 38.786 0.049 7.16 31.89 13.07
3/23/2021 8:45:00 AM 3.76 38.768 0.049 7.18 31.07 13.15
3/23/2021 9:00:00 AM 3.76 38.768 0.049 7.19 31.19 13.19
3/23/2021 9:15:00 AM 3.78 38.804 0.049 7.21 30.75 13.25
3/23/2021 9:30:00 AM 3.8 38.84 0.049 7.23 32.72 13.28
3/23/2021 9:45:00 AM 3.83 38.894 0.049 7.24 32.49 13.31
3/23/2021 10:00:00 AM 3.86 38.948 0.049 7.25 32.64 13.33
3/23/2021 10:15:00 AM 3.93 39.074 0.049 7.26 33.11 13.34
3/23/2021 10:30:00 AM 4.03 39.254 0.048 7.27 36.58 13.34
3/23/2021 10:45:00 AM 4.15 39.47 0.048 7.29 37.43 13.33
3/23/2021 11:00:00 AM 4.29 39.722 0.048 7.29 56.56 13.31
3/23/2021 11:15:00 AM 4.45 40.01 0.048 7.3 39.84 13.29
3/23/2021 11:30:00 AM 4.65 40.37 0.048 7.32 40.09 13.24
3/23/2021 11:45:00 AM 4.86 40.748 0.048 7.33 42.95 13.21
3/23/2021 12:00:00 PM 5.06 41.108 0.048 7.34 44.71 13.16
3/23/2021 12:15:00 PM 5.29 41.522 0.048 7.35 45.17 13.11
3/23/2021 12:30:00 PM 5.54 41.972 0.048 7.35 43.18 13.04
3/23/2021 12:45:00 PM 5.78 42.404 0.048 7.37 43.07 12.97
3/23/2021 1:00:00 PM 5.98 42.764 0.048 7.37 44.86 12.9
3/23/2021 1:15:00 PM 6.23 43.214 0.048 7.39 50.68 12.84
3/23/2021 1:30:00 PM 6.47 43.646 0.048 7.39 46.46 12.74
3/23/2021 1:45:00 PM 6.69 44.042 0.048 7.39 47.27 12.66
3/23/2021 2:00:00 PM 6.87 44.366 0.048 7.39 53.15 12.6
3/23/2021 2:15:00 PM 7.04 44.672 0.048 7.4 53.83 12.53
3/23/2021 2:30:00 PM 7.24 45.032 0.047 7.42 54.77 12.46
3/23/2021 2:45:00 PM 7.42 45.356 0.047 7.43 54.81 12.41
3/23/2021 3:00:00 PM 7.56 45.608 0.047 7.45 55.09 12.35
3/23/2021 3:15:00 PM 7.76 45.968 0.047 7.45 55.56 12.29
3/23/2021 3:30:00 PM 7.87 46.166 0.047 7.47 259.48 12.24
3/23/2021 3:45:00 PM 7.98 46.364 0.047 7.46 597.43 12.19
3/23/2021 4:00:00 PM 8.12 46.616 0.047 7.46 59.32 12.15
3/23/2021 4:15:00 PM 8.18 46.724 0.047 7.47 60.75 12.12
3/23/2021 4:30:00 PM 8.26 46.868 0.047 7.47 60.42 12.09
3/23/2021 4:45:00 PM 8.31 46.958 0.047 7.48 60.07 12.05
3/23/2021 5:00:00 PM 8.31 46.958 0.047 7.47 103.57 12.01
3/23/2021 5:15:00 PM 8.35 47.03 0.047 7.47 343.26 11.99
3/23/2021 5:30:00 PM 8.38 47.084 0.047 7.46 93.93 11.94
3/23/2021 5:45:00 PM 8.4 47.12 0.047 7.45 97.92 11.95
3/23/2021 6:00:00 PM 8.39 47.102 0.047 7.43 89.05 11.91
3/23/2021 6:15:00 PM 8.37 47.066 0.047 7.41 88.71 11.87
3/23/2021 6:30:00 PM 8.36 47.048 0.047 7.4 105.91 11.84
3/23/2021 6:45:00 PM 8.34 47.012 0.047 7.38 117.8 11.81
3/23/2021 7:00:00 PM 8.3 46.94 0.047 7.35 115.5 11.75
3/23/2021 7:15:00 PM 8.27 46.886 0.047 7.31 134.4 11.67
3/23/2021 7:30:00 PM 8.24 46.832 0.047 7.28 193.97 11.59
3/23/2021 7:45:00 PM 8.2 46.76 0.048 7.24 550.22 11.51
3/23/2021 8:00:00 PM 8.16 46.688 0.048 7.21 876.14 11.46
3/23/2021 8:15:00 PM 8.14 46.652 0.048 7.2 104.48 11.43
3/23/2021 8:30:00 PM 8.11 46.598 0.048 7.17 108.09 11.39
3/23/2021 8:45:00 PM 8.08 46.544 0.048 7.16 94.83 11.37
3/23/2021 9:00:00 PM 8.05 46.49 0.048 7.16 102.61 11.36
3/23/2021 9:15:00 PM 8.01 46.418 0.048 7.14 95.42 11.33
3/23/2021 9:30:00 PM 7.96 46.328 0.048 7.14 92.33 11.35
3/23/2021 9:45:00 PM 7.9 46.22 0.048 7.14 123.46 11.38
3/23/2021 10:00:00 PM 7.84 46.112 0.048 7.13 117.81 11.41
3/23/2021 10:15:00 PM 7.79 46.022 0.048 7.13 116.13 11.41
3/23/2021 10:30:00 PM 7.73 45.914 0.048 7.13 116.92 11.44
3/23/2021 10:45:00 PM 7.67 45.806 0.048 7.13 117.34 11.46
3/23/2021 11:00:00 PM 7.61 45.698 0.048 7.13 128.59 11.47
3/23/2021 11:15:00 PM 7.56 45.608 0.048 7.13 123.95 11.5
3/23/2021 11:30:00 PM 7.5 45.5 0.048 7.12 125.91 11.52
3/23/2021 11:45:00 PM 7.45 45.41 0.048 7.13 125.39 11.52
3/24/2021 12:00:00 AM 7.4 45.32 0.048 7.12 101.63 11.54
3/24/2021 12:15:00 AM 7.36 45.248 0.048 7.12 99.95 11.57
3/24/2021 12:30:00 AM 7.33 45.194 0.048 7.12 100.19 11.57
3/24/2021 12:45:00 AM 7.29 45.122 0.048 7.12 97.67 11.59
3/24/2021 1:00:00 AM 7.25 45.05 0.048 7.12 99.36 11.6
3/24/2021 1:15:00 AM 7.22 44.996 0.048 7.12 97.6 11.62
3/24/2021 1:30:00 AM 7.18 44.924 0.048 7.13 94.65 11.62
3/24/2021 1:45:00 AM 7.14 44.852 0.048 7.13 92.05 11.64
3/24/2021 2:00:00 AM 7.09 44.762 0.048 7.12 95.61 11.65
3/24/2021 2:15:00 AM 7.03 44.654 0.048 7.12 96.62 11.67
3/24/2021 2:30:00 AM 6.98 44.564 0.049 7.12 95.74 11.68
3/24/2021 2:45:00 AM 6.94 44.492 0.049 7.12 99.48 11.7
3/24/2021 3:00:00 AM 6.9 44.42 0.049 7.13 99.3 11.72
3/24/2021 3:15:00 AM 6.87 44.366 0.048 7.12 98.93 11.73
3/24/2021 3:30:00 AM 6.85 44.33 0.048 7.12 97.64 11.75
3/24/2021 3:45:00 AM 6.82 44.276 0.048 7.12 106.09 11.76
3/24/2021 4:00:00 AM 6.8 44.24 0.048 7.12 140.27 11.76
3/24/2021 4:15:00 AM 6.78 44.204 0.048 7.12 213.07 11.76
3/24/2021 4:30:00 AM 6.76 44.168 0.048 7.12 203.05 11.77
3/24/2021 4:45:00 AM 6.74 44.132 0.048 7.12 185.79 11.77
3/24/2021 5:00:00 AM 6.73 44.114 0.048 7.12 156.23 11.77
3/24/2021 5:15:00 AM 6.72 44.096 0.048 7.12 186.79 11.77
3/24/2021 5:30:00 AM 6.71 44.078 0.048 7.12 195.94 11.78
3/24/2021 5:45:00 AM 6.7 44.06 0.048 7.12 133.08 11.78
3/24/2021 6:00:00 AM 6.68 44.024 0.048 7.12 264.82 11.78
3/24/2021 6:15:00 AM 6.67 44.006 0.048 7.12 139.34 11.79
3/24/2021 6:30:00 AM 6.66 43.988 0.048 7.12 140.12 11.78
3/24/2021 6:45:00 AM 6.65 43.97 0.048 7.11 148.36 11.79
3/24/2021 7:00:00 AM 6.64 43.952 0.048 7.11 157.47 11.8
3/24/2021 7:15:00 AM 6.63 43.934 0.048 7.12 141.04 11.8
3/24/2021 7:30:00 AM 6.61 43.898 0.048 7.11 98.53 11.81
3/24/2021 7:45:00 AM 6.61 43.898 0.048 7.12 185.41 11.81
3/24/2021 8:00:00 AM 6.61 43.898 0.048 7.11 123.33 11.83
3/24/2021 8:15:00 AM 6.6 43.88 0.048 7.13 126.35 11.87
3/24/2021 8:30:00 AM 6.6 43.88 0.048 7.15 116.57 11.92
3/24/2021 8:45:00 AM 6.6 43.88 0.048 7.15 117.2 11.96
3/24/2021 9:00:00 AM 6.6 43.88 0.048 7.17 123.44 12.02
3/24/2021 9:15:00 AM 6.61 43.898 0.048 7.18 100.15 12.08
3/24/2021 9:30:00 AM 6.63 43.934 0.048 7.2 114.45 12.14
3/24/2021 9:45:00 AM 6.65 43.97 0.048 7.22 118.59 12.19
3/24/2021 10:00:00 AM 6.68 44.024 0.048 7.25 105.57 12.24
3/24/2021 10:15:00 AM 6.72 44.096 0.048 7.28 109.46 12.31
3/24/2021 10:30:00 AM 6.75 44.15 0.048 7.3 111.5 12.32
3/24/2021 10:45:00 AM 6.77 44.186 0.048 7.31 113.77 12.34
3/24/2021 11:00:00 AM 6.82 44.276 0.047 7.34 112.87 12.35
3/24/2021 11:15:00 AM 6.86 44.348 0.047 7.35 108.93 12.37
3/24/2021 11:30:00 AM 6.95 44.51 0.047 7.37 109.22 12.38
3/24/2021 11:45:00 AM 7.04 44.672 0.047 7.39 110.3 12.39
3/24/2021 12:00:00 PM 7.12 44.816 0.047 7.4 138.19 12.38
3/24/2021 12:15:00 PM 7.19 44.942 0.047 7.42 110.87 12.37
3/24/2021 12:30:00 PM 7.26 45.068 0.047 7.43 110.7 12.36
3/24/2021 12:45:00 PM 7.35 45.23 0.047 7.45 108.13 12.35
3/24/2021 1:00:00 PM 7.44 45.392 0.047 7.47 107.83 12.35
3/24/2021 1:15:00 PM 7.52 45.536 0.047 7.49 115.81 12.33
3/24/2021 1:30:00 PM 7.62 45.716 0.047 7.48 123.27 12.31
3/24/2021 1:45:00 PM 7.72 45.896 0.047 7.5 106.95 12.28
3/24/2021 2:00:00 PM 7.78 46.004 0.046 7.52 116.72 12.26
3/24/2021 2:15:00 PM 7.85 46.13 0.046 7.51 117.32 12.23
3/24/2021 2:30:00 PM 7.95 46.31 0.046 7.53 106.04 12.21
3/24/2021 2:45:00 PM 8.07 46.526 0.046 7.53 107.96 12.19
3/24/2021 3:00:00 PM 8.19 46.742 0.046 7.55 108.8 12.16
3/24/2021 3:15:00 PM 8.28 46.904 0.046 7.55 105.26 12.12
3/24/2021 3:30:00 PM 8.46 47.228 0.046 7.56 105.65 12.1
3/24/2021 3:45:00 PM 8.53 47.354 0.046 7.56 104.79 12.08
3/24/2021 4:00:00 PM 8.71 47.678 0.046 7.59 107.52 12.06
3/24/2021 4:15:00 PM 8.83 47.894 0.046 7.58 104.14 12.02
3/24/2021 4:30:00 PM 8.83 47.894 0.046 7.56 104.55 11.98
3/24/2021 4:45:00 PM 8.9 48.02 0.047 7.58 107.03 11.96
3/24/2021 5:00:00 PM 8.93 48.074 0.046 7.57 105.63 11.91
3/24/2021 5:15:00 PM 8.97 48.146 0.047 7.55 107.45 11.87
3/24/2021 5:30:00 PM 9.06 48.308 0.046 7.53 106.35 11.81
3/24/2021 5:45:00 PM 9.09 48.362 0.046 7.49 108.54 11.76
3/24/2021 6:00:00 PM 9.08 48.344 0.046 7.5 98.5 11.75
3/24/2021 6:15:00 PM 9.03 48.254 0.047 7.47 106.66 11.71
3/24/2021 6:30:00 PM 9.01 48.218 0.047 7.42 108.47 11.65
3/24/2021 6:45:00 PM 8.99 48.182 0.047 7.38 107.1 11.57
3/24/2021 7:00:00 PM 8.98 48.164 0.047 7.35 98.19 11.49
3/24/2021 7:15:00 PM 8.99 48.182 0.047 7.31 101.48 11.41
3/24/2021 7:30:00 PM 8.99 48.182 0.047 7.28 98.84 11.31
3/24/2021 7:45:00 PM 8.98 48.164 0.047 7.25 101.41 11.24
3/24/2021 8:00:00 PM 8.98 48.164 0.047 7.22 103.33 11.19
3/24/2021 8:15:00 PM 8.96 48.128 0.047 7.2 103.05 11.13
3/24/2021 8:30:00 PM 8.93 48.074 0.047 7.18 78.84 11.12
3/24/2021 8:45:00 PM 8.91 48.038 0.047 7.17 76.43 11.11
3/24/2021 9:00:00 PM 8.89 48.002 0.047 7.16 76.41 11.08
3/24/2021 9:15:00 PM 8.87 47.966 0.047 7.16 512.55 11.09
3/24/2021 9:30:00 PM 8.84 47.912 0.047 7.15 256.9 11.1
3/24/2021 9:45:00 PM 8.82 47.876 0.047 7.14 246.93 11.1
3/24/2021 10:00:00 PM 8.8 47.84 0.047 7.13 229.92 11.1
3/24/2021 10:15:00 PM 8.78 47.804 0.047 7.13 244.8 11.11
3/24/2021 10:30:00 PM 8.76 47.768 0.047 7.12 233.75 11.11
3/24/2021 10:45:00 PM 8.74 47.732 0.047 7.12 230.96 11.11
3/24/2021 11:00:00 PM 8.73 47.714 0.047 7.12 220.2 11.12
3/24/2021 11:15:00 PM 8.72 47.696 0.047 7.12 220.67 11.13
3/24/2021 11:30:00 PM 8.71 47.678 0.047 7.12 223.87 11.13
3/24/2021 11:45:00 PM 8.69 47.642 0.047 7.11 227.42 11.12
3/25/2021 12:00:00 AM 8.67 47.606 0.047 7.11 228.02 11.13
3/25/2021 12:15:00 AM 8.65 47.57 0.047 7.11 228.17 11.14
3/25/2021 12:30:00 AM 8.63 47.534 0.047 7.11 225.24 11.15
3/25/2021 12:45:00 AM 8.61 47.498 0.047 7.11 218.72 11.16
3/25/2021 1:00:00 AM 8.58 47.444 0.047 7.11 232.52 11.15
3/25/2021 1:15:00 AM 8.55 47.39 0.047 7.11 225.53 11.16
3/25/2021 1:30:00 AM 8.53 47.354 0.047 7.11 222.84 11.17
3/25/2021 1:45:00 AM 8.51 47.318 0.047 7.1 224.41 11.17
3/25/2021 2:00:00 AM 8.48 47.264 0.047 7.11 221.85 11.18
3/25/2021 2:15:00 AM 8.45 47.21 0.047 7.1 210.41 11.19
3/25/2021 2:30:00 AM 8.43 47.174 0.047 7.1 223.2 11.21
3/25/2021 2:45:00 AM 8.4 47.12 0.047 7.1 217.31 11.21
3/25/2021 3:00:00 AM 8.37 47.066 0.047 7.09 214.13 11.21
3/25/2021 3:15:00 AM 8.35 47.03 0.047 7.1 209.11 11.23
3/25/2021 3:30:00 AM 8.31 46.958 0.047 7.1 206.85 11.24
3/25/2021 3:45:00 AM 8.28 46.904 0.047 7.09 219.46 11.26
3/25/2021 4:00:00 AM 8.26 46.868 0.047 7.1 225.44 11.27
3/25/2021 4:15:00 AM 8.24 46.832 0.048 7.1 214.97 11.28
3/25/2021 4:30:00 AM 8.21 46.778 0.048 7.09 208.67 11.28
3/25/2021 4:45:00 AM 8.18 46.724 0.048 7.09 203.81 11.29
3/25/2021 5:00:00 AM 8.15 46.67 0.047 7.09 201.17 11.31
3/25/2021 5:15:00 AM 8.12 46.616 0.047 7.09 201.99 11.32
3/25/2021 5:30:00 AM 8.1 46.58 0.047 7.09 201.41 11.32
3/25/2021 5:45:00 AM 8.08 46.544 0.047 7.08 204.63 11.32
3/25/2021 6:00:00 AM 8.05 46.49 0.047 7.08 196.38 11.34
3/25/2021 6:15:00 AM 8.03 46.454 0.047 7.08 196.85 11.34
3/25/2021 6:30:00 AM 8 46.4 0.047 7.08 196.74 11.35
3/25/2021 6:45:00 AM 7.98 46.364 0.047 7.08 208.56 11.35
3/25/2021 7:00:00 AM 7.96 46.328 0.047 7.08 196.72 11.35
3/25/2021 7:15:00 AM 7.93 46.274 0.047 7.08 196.27 11.38
3/25/2021 7:30:00 AM 7.91 46.238 0.047 7.08 193.43 11.41
3/25/2021 7:45:00 AM 7.89 46.202 0.047 7.1 193.46 11.48
3/25/2021 8:00:00 AM 7.88 46.184 0.047 7.11 195.43 11.56
3/25/2021 8:15:00 AM 7.88 46.184 0.047 7.14 199.47 11.64
3/25/2021 8:30:00 AM 7.89 46.202 0.047 7.17 195.3 11.75
3/25/2021 8:45:00 AM 7.92 46.256 0.047 7.2 194.15 11.84
3/25/2021 9:00:00 AM 7.97 46.346 0.047 7.25 186.46 11.94
3/25/2021 9:15:00 AM 8.02 46.436 0.047 7.29 189.21 11.99
3/25/2021 9:30:00 AM 8.04 46.472 0.047 7.32 191.73 12.03
3/25/2021 9:45:00 AM 8.08 46.544 0.047 7.35 209.92 12.05
3/25/2021 10:00:00 AM 8.15 46.67 0.047 7.38 215.36 12.09
3/25/2021 10:15:00 AM 8.24 46.832 0.047 7.4 205.41 12.12
3/25/2021 10:30:00 AM 8.35 47.03 0.047 7.43 195.92 12.12
3/25/2021 10:45:00 AM 8.48 47.264 0.047 7.46 194.32 12.1
3/25/2021 11:00:00 AM 8.62 47.516 0.047 7.48 200.31 12.08
3/25/2021 11:15:00 AM 8.79 47.822 0.046 7.49 202.79 12.07
3/25/2021 11:30:00 AM 8.94 48.092 0.046 7.5 202.67 12.03
3/25/2021 11:45:00 AM 9.12 48.416 0.046 7.53 200.65 11.99
3/25/2021 12:00:00 PM 9.33 48.794 0.046 7.52 222.98 11.96
3/25/2021 12:15:00 PM 9.52 49.136 0.046 7.53 221.94 11.91
3/25/2021 12:30:00 PM 9.72 49.496 0.046 7.58 222.96 11.86
3/25/2021 12:45:00 PM 9.93 49.874 0.046 7.52 222.38 11.8
3/25/2021 1:00:00 PM 10.12 50.216 0.046 7.51 204.21 11.76
3/25/2021 1:15:00 PM 10.31 50.558 0.046 7.56 229.44 11.7
3/25/2021 1:30:00 PM 10.51 50.918 0.046 7.59 216.39 11.65
3/25/2021 1:45:00 PM 10.71 51.278 0.046 7.58 233.46 11.6
3/25/2021 2:00:00 PM 10.9 51.62 0.046 7.63 229.73 11.54
3/25/2021 2:15:00 PM 11.09 51.962 0.046 7.65 246.17 11.45
3/25/2021 2:30:00 PM 11.3 52.34 0.046 7.7 254.57 11.44
3/25/2021 2:45:00 PM 11.49 52.682 0.046 7.68 268.78 11.36
3/25/2021 3:00:00 PM 11.65 52.97 0.046 7.7 269.37 11.32
3/25/2021 3:15:00 PM 11.75 53.15 0.046 7.7 261.62 11.26
3/25/2021 3:30:00 PM 11.84 53.312 0.046 7.72 246.49 11.2
3/25/2021 3:45:00 PM 11.9 53.42 0.046 7.73 270.58 11.17
3/25/2021 4:00:00 PM 11.95 53.51 0.046 7.73 271.81 11.17
3/25/2021 4:15:00 PM 11.97 53.546 0.046 7.69 302.48 11.12
3/25/2021 4:30:00 PM 11.99 53.582 0.046 7.7 253.1 11.1
3/25/2021 4:45:00 PM 11.99 53.582 0.046 7.69 277.14 11.07
3/25/2021 5:00:00 PM 11.98 53.564 0.046 7.6 290.33 11.08
3/25/2021 5:15:00 PM 11.95 53.51 0.046 7.65 296.23 11.03
3/25/2021 5:30:00 PM 11.92 53.456 0.046 7.59 298.92 11.02
3/25/2021 5:45:00 PM 11.87 53.366 0.046 7.57 315.78 10.91
3/25/2021 6:00:00 PM 11.82 53.276 0.046 7.52 342.75 10.91
3/25/2021 6:15:00 PM 11.77 53.186 0.046 7.46 340.05 10.85
3/25/2021 6:30:00 PM 11.72 53.096 0.046 7.39 328.69 10.77
3/25/2021 6:45:00 PM 11.67 53.006 0.046 7.38 285.11 10.71
3/25/2021 7:00:00 PM 11.62 52.916 0.047 7.3 522.03 10.64
3/25/2021 7:15:00 PM 11.57 52.826 0.047 7.31 459.93 10.61
3/25/2021 7:30:00 PM 11.51 52.718 0.047 7.22 373.15 10.53
3/25/2021 7:45:00 PM 11.47 52.646 0.047 7.22 1455.97 10.49
3/25/2021 8:00:00 PM 11.42 52.556 0.047 7.19 1329.67 10.45
3/25/2021 8:15:00 PM 11.37 52.466 0.047 7.17 1372.12 10.42
3/25/2021 8:30:00 PM 11.32 52.376 0.047 7.15 1000 10.4
3/25/2021 8:45:00 PM 11.28 52.304 0.047 7.15 852.88 10.4
3/25/2021 9:00:00 PM 11.23 52.214 0.047 7.14 948.55 10.39
3/25/2021 9:15:00 PM 11.2 52.16 0.048 7.14 1425.84 10.39
3/25/2021 9:30:00 PM 11.16 52.088 0.048 7.12 715.78 10.4
3/25/2021 9:45:00 PM 11.13 52.034 0.048 6.94 5641.13 10.41
3/25/2021 10:00:00 PM 11.11 51.998 0.048 6.91 1201.63 10.4
3/25/2021 10:15:00 PM 11.09 51.962 0.048 6.79 1067.75 10.41
3/25/2021 10:30:00 PM 11.05 51.89 0.048 6.8 897.34 10.42
3/25/2021 10:45:00 PM 11.04 51.872 0.054 6.94 3125.26 8.1
3/25/2021 11:00:00 PM 11.02 51.836 0.059 7.09 2976.75 7.17
3/25/2021 11:15:00 PM 10.99 51.782 0.061 7.1 3588.43 6.47
3/25/2021 11:30:00 PM 10.97 51.746 0.063 7.09 4927.23 6.3
3/25/2021 11:45:00 PM 10.93 51.674 0.064 7.12 5749.58 6.67
3/26/2021 12:00:00 AM 10.9 51.62 0.064 7.12 6452.98 7.38
3/26/2021 12:15:00 AM 10.87 51.566 0.064 7.12 6752.11 8.02
3/26/2021 12:30:00 AM 10.84 51.512 0.064 7.13 6741.31 8.47
3/26/2021 12:45:00 AM 10.81 51.458 0.063 7.13 7004.34 8.82
3/26/2021 1:00:00 AM 10.78 51.404 0.064 7.14 7287.88 8.98
3/26/2021 1:15:00 AM 10.75 51.35 0.064 7.14 7389.62 8.99
3/26/2021 1:30:00 AM 10.73 51.314 0.063 7.14 7572.62 9.01
3/26/2021 1:45:00 AM 10.7 51.26 0.063 7.14 7831.46 9.03
3/26/2021 2:00:00 AM 10.68 51.224 0.063 7.14 8122.36 9.32
3/26/2021 2:15:00 AM 10.65 51.17 0.063 7.14 8108.47 9.4
3/26/2021 2:30:00 AM 10.62 51.116 0.063 7.15 8148.31 9.66
3/26/2021 2:45:00 AM 10.61 51.098 0.063 7.15 8264.18 9.86
3/26/2021 3:00:00 AM 10.59 51.062 0.063 7.15 8447.33 9.66
3/26/2021 3:15:00 AM 10.57 51.026 0.063 7.15 8500.78 9.76
3/26/2021 3:30:00 AM 10.55 50.99 0.063 7.15 8522.01 9.78
3/26/2021 3:45:00 AM 10.53 50.954 0.063 7.15 8297.28 9.81
3/26/2021 4:00:00 AM 10.5 50.9 0.063 7.16 8243.79 9.78
3/26/2021 4:15:00 AM 10.47 50.846 0.062 7.16 8363.23 9.84
3/26/2021 4:30:00 AM 10.45 50.81 0.062 7.16 8306.04 9.88
3/26/2021 4:45:00 AM 10.43 50.774 0.062 7.15 8265.96 9.85
3/26/2021 5:00:00 AM 10.4 50.72 0.061 7.15 8174.24 10.06
3/26/2021 5:15:00 AM 10.36 50.648 0.061 7.15 8057.03 10.01
3/26/2021 5:30:00 AM 10.33 50.594 0.061 7.15 8247.57 10.02
3/26/2021 5:45:00 AM 10.32 50.576 0.061 7.15 8700.33 10.13
3/26/2021 6:00:00 AM 10.3 50.54 0.061 7.15 8820.24 10.2
3/26/2021 6:15:00 AM 10.26 50.468 0.06 7.15 8882.61 10.33
3/26/2021 6:30:00 AM 10.22 50.396 0.06 7.15 9030.19 10.35
3/26/2021 6:45:00 AM 10.2 50.36 0.06 7.15 9124.04 10.37
3/26/2021 7:00:00 AM 10.19 50.342 0.059 7.15 9159.52 10.44
3/26/2021 7:15:00 AM 10.15 50.27 0.059 7.15 8947.41 10.5
3/26/2021 7:30:00 AM 10.11 50.198 0.059 7.16 8934.45 10.51
3/26/2021 7:45:00 AM 10.1 50.18 0.059 7.17 8982.24 10.51
3/26/2021 8:00:00 AM 10.08 50.144 0.059 7.18 9136.22 10.61
3/26/2021 8:15:00 AM 10.07 50.126 0.058 7.21 9296.82 10.71
3/26/2021 8:30:00 AM 10.07 50.126 0.058 7.22 9568.8 10.83
3/26/2021 8:45:00 AM 10.07 50.126 0.058 7.27 9581.2 10.83
3/26/2021 9:00:00 AM 10.09 50.162 0.058 7.29 9550.64 10.99
3/26/2021 9:15:00 AM 10.13 50.234 0.057 7.31 9373.3 11.06
3/26/2021 9:30:00 AM 10.16 50.288 0.057 7.33 9742.58 11.13
3/26/2021 9:45:00 AM 10.16 50.288 0.056 7.34 9597.59 11.11
3/26/2021 10:00:00 AM 10.2 50.36 0.056 7.36 9659.79 11.22
3/26/2021 10:15:00 AM 10.28 50.504 0.056 7.39 7890.38 11.27
3/26/2021 10:30:00 AM 10.31 50.558 0.056 7.38 6058.81 11.28
3/26/2021 10:45:00 AM 10.32 50.576 0.056 7.43 5885.03 11.25
3/26/2021 11:00:00 AM 10.32 50.576 0.057 7.4 5336.54 11.27
3/26/2021 11:15:00 AM 10.31 50.558 0.057 7.4 1854.36 11.3
3/26/2021 11:30:00 AM 10.3 50.54 0.058 7.45 1674.25 11.28
3/26/2021 11:45:00 AM 10.27 50.486 0.058 7.43 1558.8 11.23
3/26/2021 12:00:00 PM 10.25 50.45 0.059 7.4 2758.74 11.19
3/26/2021 12:15:00 PM 10.23 50.414 0.058 7.43 2780.29 11.25
3/26/2021 12:30:00 PM 10.22 50.396 0.059 7.37 2428.58 11.18
3/26/2021 12:45:00 PM 10.2 50.36 0.059 7.36 2080.58 11.27
3/26/2021 1:00:00 PM 10.21 50.378 0.059 7.26 2000.27 11.34
3/26/2021 1:15:00 PM 10.21 50.378 0.058 7.21 1878.68 11.37
3/26/2021 1:30:00 PM 10.2 50.36 0.058 7.14 1848.74 11.32
3/26/2021 1:45:00 PM 10.2 50.36 0.057 7.17 1774 11.36
3/26/2021 2:00:00 PM 10.17 50.306 0.058 7.35 1743.63 11.45
3/26/2021 2:15:00 PM 10.17 50.306 0.058 7.18 1719.12 11.31
3/26/2021 2:30:00 PM 10.15 50.27 0.058 7.14 1708.76 11.45
3/26/2021 2:45:00 PM 10.14 50.252 0.058 7.11 1697.25 11.38
3/26/2021 3:00:00 PM 10.12 50.216 0.057 7.2 1655.05 11.51
3/26/2021 3:15:00 PM 10.11 50.198 0.057 7.17 1606.44 11.53
3/26/2021 3:30:00 PM 10.07 50.126 0.056 7.11 1576.38 11.36
3/26/2021 3:45:00 PM 10.04 50.072 0.055 7.16 1568.33 11.37
3/26/2021 4:00:00 PM 10.02 50.036 0.054 7.18 1569.71 11.42
3/26/2021 4:15:00 PM 10.02 50.036 0.054 7.16 1558.67 11.44
3/26/2021 4:30:00 PM 10.01 50.018 0.054 7.19 1565.77 11.48
3/26/2021 4:45:00 PM 9.99 49.982 0.054 7.17 1548.1 11.51
3/26/2021 5:00:00 PM 9.97 49.946 0.054 7.18 1529.85 11.5
3/26/2021 5:15:00 PM 9.94 49.892 0.054 7.16 1528.98 11.46
3/26/2021 5:30:00 PM 9.92 49.856 0.054 7.2 1515.79 11.49
3/26/2021 5:45:00 PM 9.88 49.784 0.055 7.17 1537.83 11.41
3/26/2021 6:00:00 PM 9.84 49.712 0.055 7.15 1589.46 11.36
3/26/2021 6:15:00 PM 9.81 49.658 0.055 7.15 1578.81 11.36
3/26/2021 6:30:00 PM 9.77 49.586 0.055 7.19 1652.54 11.34
3/26/2021 6:45:00 PM 9.72 49.496 0.055 7.1 1650.91 11.28
3/26/2021 7:00:00 PM 9.66 49.388 0.055 7.1 1659.61 11.24
3/26/2021 7:15:00 PM 9.6 49.28 0.055 7.09 1715.91 11.14
3/26/2021 7:30:00 PM 9.54 49.172 0.055 7.1 1717.09 11.12
3/26/2021 7:45:00 PM 9.47 49.046 0.055 7.09 1745.97 11.05
3/26/2021 8:00:00 PM 9.4 48.92 0.055 7.08 1716.87 11.01
3/26/2021 8:15:00 PM 9.31 48.758 0.055 7.09 1713.85 10.93
3/26/2021 8:30:00 PM 9.24 48.632 0.054 7.07 1703.89 10.95
3/26/2021 8:45:00 PM 9.18 48.524 0.054 7.08 1702.52 10.94
3/26/2021 9:00:00 PM 9.12 48.416 0.054 7.06 1693.15 10.95
3/26/2021 9:15:00 PM 9.07 48.326 0.054 7.07 1710.16 10.97
3/26/2021 9:30:00 PM 9.02 48.236 0.055 7.07 1689.9 10.96
3/26/2021 9:45:00 PM 8.97 48.146 0.056 7.11 1661.19 11
3/26/2021 10:00:00 PM 8.91 48.038 0.055 7.07 1667.07 11.01
3/26/2021 10:15:00 PM 8.86 47.948 0.055 7.06 1665.49 11.03
3/26/2021 10:30:00 PM 8.83 47.894 0.055 7.02 1667.86 10.99
3/26/2021 10:45:00 PM 8.78 47.804 0.055 7.04 1655.41 10.99
3/26/2021 11:00:00 PM 8.74 47.732 0.056 7.01 1646.61 11.06
3/26/2021 11:15:00 PM 8.69 47.642 0.056 7.03 1635.8 11.02
3/26/2021 11:30:00 PM 8.64 47.552 0.056 7.05 1637.21 11.03
3/26/2021 11:45:00 PM 8.6 47.48 0.055 7.05 1623.24 11.07
3/27/2021 12:00:00 AM 8.56 47.408 0.055 7.05 1621.49 11.11
3/27/2021 12:15:00 AM 8.52 47.336 0.055 7.04 1628.58 11.1
3/27/2021 12:30:00 AM 8.47 47.246 0.054 7.04 696.13 11.12
3/27/2021 12:45:00 AM 8.44 47.192 0.054 7.06 1596.43 11.13
3/27/2021 1:00:00 AM 8.4 47.12 0.054 7.03 1648.58 11.14
3/27/2021 1:15:00 AM 8.37 47.066 0.053 7.02 1647.48 11.12
3/27/2021 1:30:00 AM 8.33 46.994 0.053 7.03 1594.1 11.12
3/27/2021 1:45:00 AM 8.3 46.94 0.053 7.02 2134.93 11.16
3/27/2021 2:00:00 AM 8.27 46.886 0.053 7.04 1075.99 11.2
3/27/2021 2:15:00 AM 8.24 46.832 0.053 7.03 1095.76 11.16
3/27/2021 2:30:00 AM 8.21 46.778 0.053 7.03 1424.82 11.2
3/27/2021 2:45:00 AM 8.17 46.706 0.052 7.01 1821.11 11.19
3/27/2021 3:00:00 AM 8.14 46.652 0.052 7.02 1816.49 11.23
3/27/2021 3:15:00 AM 8.11 46.598 0.052 7.02 1791.43 11.22
3/27/2021 3:30:00 AM 8.09 46.562 0.052 6.99 1767.39 11.23
3/27/2021 3:45:00 AM 8.06 46.508 0.052 7.02 1742.1 11.24
3/27/2021 4:00:00 AM 8.04 46.472 0.052 7.01 1769.38 11.27
3/27/2021 4:15:00 AM 8.02 46.436 0.052 7.01 1766.46 11.19
3/27/2021 4:30:00 AM 7.99 46.382 0.052 7.01 1608.68 11.16
3/27/2021 4:45:00 AM 7.98 46.364 0.052 7.01 1733.99 11.08
3/27/2021 5:00:00 AM 7.95 46.31 0.052 7 1681.48 11.19
3/27/2021 5:15:00 AM 7.92 46.256 0.052 7 1725.95 11.19
3/27/2021 5:30:00 AM 7.89 46.202 0.052 7 1685.91 11.25
3/27/2021 5:45:00 AM 7.87 46.166 0.052 7 1620.75 11.25
3/27/2021 6:00:00 AM 7.84 46.112 0.052 6.96 1618.66 11.16
3/27/2021 6:15:00 AM 7.81 46.058 0.052 6.98 1237.09 11.24
3/27/2021 6:30:00 AM 7.78 46.004 0.052 6.99 1661.15 11.23
3/27/2021 6:45:00 AM 7.75 45.95 0.052 6.98 1659.92 11.27
3/27/2021 7:00:00 AM 7.71 45.878 0.052 7 1663.24 11.31
3/27/2021 7:15:00 AM 7.68 45.824 0.052 7.03 1660.76 11.34
3/27/2021 7:30:00 AM 7.65 45.77 0.052 7.03 1695.83 11.37
3/27/2021 7:45:00 AM 7.62 45.716 0.051 7.06 1665.16 11.49
3/27/2021 8:00:00 AM 7.6 45.68 0.051 7.08 1665.08 11.62
3/27/2021 8:15:00 AM 7.58 45.644 0.051 7.08 1654.74 11.7
3/27/2021 8:30:00 AM 7.58 45.644 0.051 7.13 1648.71 11.84
3/27/2021 8:45:00 AM 7.58 45.644 0.051 7.17 1647.61 11.97
3/27/2021 9:00:00 AM 7.6 45.68 0.05 7.17 1653.76 12.08
3/27/2021 9:15:00 AM 7.64 45.752 0.05 7.19 1647.71 12.18
3/27/2021 9:30:00 AM 7.7 45.86 0.05 7.27 1629.05 12.24
3/27/2021 9:45:00 AM 7.74 45.932 0.05 7.17 1637.51 11.87
3/27/2021 10:00:00 AM 7.78 46.004 0.05 7.18 1642.59 12.25
3/27/2021 10:15:00 AM 7.83 46.094 0.05 7.16 1642.31 12.28
3/27/2021 10:30:00 AM 7.91 46.238 0.05 7.27 1595.86 12.3
3/27/2021 10:45:00 AM 7.99 46.382 0.05 7.29 1587.16 12.32
3/27/2021 11:00:00 AM 8.09 46.562 0.05 7.27 1590.96 12.33
3/27/2021 11:15:00 AM 8.25 46.85 0.05 7.22 1600.2 12.32
3/27/2021 11:30:00 AM 8.47 47.246 0.05 7.3 1594.72 12.29
3/27/2021 11:45:00 AM 8.6 47.48 0.05 7.25 1585.07 12.23
3/27/2021 12:00:00 PM 8.74 47.732 0.051 7.43 1585.34 12.19
3/27/2021 12:15:00 PM 8.83 47.894 0.051 7.48 1584.11 12.14
3/27/2021 12:30:00 PM 8.9 48.02 0.051 7.23 1581.67 12.08
3/27/2021 12:45:00 PM 9.06 48.308 0.051 7.32 1570.6 12.1
3/27/2021 1:00:00 PM 9.27 48.686 0.051 7.23 1559.75 12.08
3/27/2021 1:15:00 PM 9.5 49.1 0.051 7.49 1548.77 12.01
3/27/2021 1:30:00 PM 9.66 49.388 0.051 7.39 1562.15 11.93
3/27/2021 1:45:00 PM 9.83 49.694 0.051 7.43 1549.77 11.89
3/27/2021 2:00:00 PM 10.01 50.018 0.052 7.45 1552.59 11.82
3/27/2021 2:15:00 PM 10.22 50.396 0.052 7.51 1553.71 11.8
3/27/2021 2:30:00 PM 10.43 50.774 0.051 7.59 1558.86 11.75
3/27/2021 2:45:00 PM 10.6 51.08 0.051 7.78 1561.13 11.72
3/27/2021 3:00:00 PM 10.75 51.35 0.051 7.55 1562.81 11.66
3/27/2021 3:15:00 PM 10.85 51.53 0.051 7.3 1560.95 11.58
3/27/2021 3:30:00 PM 10.97 51.746 0.051 7.41 1565.06 11.57
3/27/2021 3:45:00 PM 11.08 51.944 0.051 7.27 1555.3 11.53
3/27/2021 4:00:00 PM 11.19 52.142 0.051 7.4 1550.97 11.45
3/27/2021 4:15:00 PM 11.29 52.322 0.051 7.27 1596.32 11.45
3/27/2021 4:30:00 PM 11.39 52.502 0.051 7.33 1594.93 11.4
3/27/2021 4:45:00 PM 11.43 52.574 0.052 7.28 1573.92 11.33
3/27/2021 5:00:00 PM 11.52 52.736 0.052 7.21 1668.39 11.28
3/27/2021 5:15:00 PM 11.57 52.826 0.052 7.22 1655.82 11.27
3/27/2021 5:30:00 PM 11.55 52.79 0.051 7.34 1673.75 11.23
3/27/2021 5:45:00 PM 11.52 52.736 0.051 7.21 1580.22 11.22
3/27/2021 6:00:00 PM 11.49 52.682 0.051 7.25 1571.47 11.15
3/27/2021 6:15:00 PM 11.44 52.592 0.051 7.2 1573.35 11.05
3/27/2021 6:30:00 PM 11.38 52.484 0.051 7.23 1564.99 10.95
3/27/2021 6:45:00 PM 11.32 52.376 0.051 7.21 1618.09 10.89
3/27/2021 7:00:00 PM 11.25 52.25 0.051 7.14 1561.57 10.83
3/27/2021 7:15:00 PM 11.17 52.106 0.051 7.1 1574.85 10.74
3/27/2021 7:30:00 PM 11.1 51.98 0.051 7.11 1615.09 10.68
3/27/2021 7:45:00 PM 11.03 51.854 0.051 7.09 1603.83 10.58
3/27/2021 8:00:00 PM 10.96 51.728 0.051 7.12 1596.72 10.55
3/27/2021 8:15:00 PM 10.89 51.602 0.051 7.09 1589.71 10.49
3/27/2021 8:30:00 PM 10.82 51.476 0.052 7.07 1589.36 10.27
3/27/2021 8:45:00 PM 10.72 51.296 0.052 7.07 1550.02 9.88
3/27/2021 9:00:00 PM 10.62 51.116 0.052 7.08 1587.07 10.3
3/27/2021 9:15:00 PM 10.52 50.936 0.053 7.03 1477.99 9.82
3/27/2021 9:30:00 PM 10.42 50.756 0.053 7 1486.57 9.74
3/27/2021 9:45:00 PM 10.32 50.576 0.053 7.05 1512.31 10.31
3/27/2021 10:00:00 PM 10.22 50.396 0.053 7.02 1640.01 9.81
3/27/2021 10:15:00 PM 10.13 50.234 0.053 7.02 1577.76 9.95
3/27/2021 10:30:00 PM 10.03 50.054 0.052 7 749.04 10.13
3/27/2021 10:45:00 PM 9.94 49.892 0.052 7.01 1521.26 10.06
3/27/2021 11:00:00 PM 9.85 49.73 0.052 7 1619.04 10.19
3/27/2021 11:15:00 PM 9.77 49.586 0.052 7 1599.91 10.13
3/27/2021 11:30:00 PM 9.68 49.424 0.051 7 1597.02 10.16
3/27/2021 11:45:00 PM 9.59 49.262 0.051 6.99 1596.69 9.83
3/28/2021 12:00:00 AM 9.52 49.136 0.051 6.98 1598.93 9.55
3/28/2021 12:15:00 AM 9.43 48.974 0.051 6.99 1607.11 10.12
3/28/2021 12:30:00 AM 9.33 48.794 0.051 7 1629.89 10.72
3/28/2021 12:45:00 AM 9.24 48.632 0.05 7.01 1617.09 10.74
3/28/2021 1:00:00 AM 9.17 48.506 0.05 7.01 1830.79 10.67
3/28/2021 1:15:00 AM 9.1 48.38 0.051 7.01 816.93 10.49
3/28/2021 1:30:00 AM 9.02 48.236 0.051 7 1567.76 10.4
3/28/2021 1:45:00 AM 8.92 48.056 0.051 7 1570.12 10.78
3/28/2021 2:00:00 AM 8.85 47.93 0.05 7.01 1566.21 10.84
3/28/2021 2:15:00 AM 8.77 47.786 0.05 7.01 931.97 10.53
3/28/2021 2:30:00 AM 8.69 47.642 0.051 7.03 1558.85 10.84
3/28/2021 2:45:00 AM 8.61 47.498 0.051 7.01 1745.54 10.86
3/28/2021 3:00:00 AM 8.52 47.336 0.051 7.01 1698.86 10.98
3/28/2021 3:15:00 AM 8.45 47.21 0.051 6.99 1654.64 10.95
3/28/2021 3:30:00 AM 8.36 47.048 0.05 6.99 1646.05 10.95
3/28/2021 3:45:00 AM 8.28 46.904 0.05 7 1691.82 11.01
3/28/2021 4:00:00 AM 8.21 46.778 0.05 7.02 1585.32 10.99
3/28/2021 4:15:00 AM 8.14 46.652 0.05 6.99 1572.79 11.08
3/28/2021 4:30:00 AM 8.06 46.508 0.05 7 1565.93 11.09
3/28/2021 4:45:00 AM 8 46.4 0.049 7.03 1555.16 11.12
3/28/2021 5:00:00 AM 7.93 46.274 0.049 7.01 1551.68 11.14
3/28/2021 5:15:00 AM 7.87 46.166 0.049 7.03 1658.27 11.15
3/28/2021 5:30:00 AM 7.81 46.058 0.049 6.99 1557.22 11.11
3/28/2021 5:45:00 AM 7.75 45.95 0.048 7.01 1566.74 11.18
3/28/2021 6:00:00 AM 7.7 45.86 0.048 7.01 1576.54 11.18
3/28/2021 6:15:00 AM 7.67 45.806 0.048 7.02 1575.37 11.21
3/28/2021 6:30:00 AM 7.63 45.734 0.048 7 1576.2 11.17
3/28/2021 6:45:00 AM 7.6 45.68 0.048 7 1589.91 11.19
3/28/2021 7:00:00 AM 7.57 45.626 0.047 6.97 1600.73 11.18
3/28/2021 7:15:00 AM 7.54 45.572 0.047 7.01 1582.63 11.24
3/28/2021 7:30:00 AM 7.52 45.536 0.047 7.02 1535.66 11.21
3/28/2021 7:45:00 AM 7.49 45.482 0.047 7.03 1534.7 11.23
3/28/2021 8:00:00 AM 7.47 45.446 0.047 7.02 1530.12 11.24
3/28/2021 8:15:00 AM 7.46 45.428 0.047 7.03 1529.7 11.36
3/28/2021 8:30:00 AM 7.46 45.428 0.046 7.02 1523.96 11.45
3/28/2021 8:45:00 AM 7.47 45.446 0.046 7 1516.61 11.53
3/28/2021 9:00:00 AM 7.48 45.464 0.046 6.99 1552.41 11.57
3/28/2021 9:15:00 AM 7.5 45.5 0.046 7 1527.82 11.59
3/28/2021 9:30:00 AM 7.52 45.536 0.046 7.03 1545.04 11.5
3/28/2021 9:45:00 AM 7.56 45.608 0.046 7.02 1540.41 11.64
3/28/2021 10:00:00 AM 7.59 45.662 0.046 6.99 1541.97 11.67
3/28/2021 10:15:00 AM 7.63 45.734 0.045 7.01 1543.37 11.72
3/28/2021 10:30:00 AM 7.67 45.806 0.043 7.05 1546.07 11.8
3/28/2021 10:45:00 AM 7.73 45.914 0.042 7.04 1559.27 11.86
3/28/2021 11:00:00 AM 7.81 46.058 0.06 7 2480.15 11.88
3/28/2021 11:15:00 AM 7.89 46.202 0.059 7.01 2749.95 11.71
3/28/2021 11:30:00 AM 7.94 46.292 0.058 7.07 2843.48 11.78
3/28/2021 11:45:00 AM 8.01 46.418 0.058 7.08 2989.26 11.66
3/28/2021 12:00:00 PM 8.09 46.562 0.058 7.09 2994.22 11.7
3/28/2021 12:15:00 PM 8.15 46.67 0.058 7.17 2943.92 11.73
3/28/2021 12:30:00 PM 8.23 46.814 0.058 7.12 3117.11 11.59
3/28/2021 12:45:00 PM 8.31 46.958 0.057 7.13 3002.01 11.62
3/28/2021 1:00:00 PM 8.41 47.138 0.057 7.15 3068.48 11.41
3/28/2021 1:15:00 PM 8.48 47.264 0.057 7.21 3027.39 11.24
3/28/2021 1:30:00 PM 8.55 47.39 0.057 7.18 3037.19 11.35
3/28/2021 1:45:00 PM 8.61 47.498 0.056 7.17 3029.84 11.47
3/28/2021 2:00:00 PM 8.68 47.624 0.056 7.16 2983.19 11.1
3/28/2021 2:15:00 PM 8.7 47.66 0.056 7.12 2984.27 11.16
3/28/2021 2:30:00 PM 8.72 47.696 0.056 7.11 2988.29 10.93
3/28/2021 2:45:00 PM 8.72 47.696 0.056 7.12 3023.88 11.03
3/28/2021 3:00:00 PM 8.76 47.768 0.056 7.14 3026.38 11.32
3/28/2021 3:15:00 PM 8.77 47.786 0.056 7.13 3031.99 11.1
3/28/2021 3:30:00 PM 8.78 47.804 0.056 7.1 3038.3 11.03
3/28/2021 3:45:00 PM 8.8 47.84 0.056 7.12 3047.54 10.72
3/28/2021 4:00:00 PM 8.82 47.876 0.056 7.1 3054.48 10.87
3/28/2021 4:15:00 PM 8.82 47.876 0.056 7.09 3057.41 10.82
3/28/2021 4:30:00 PM 8.83 47.894 0.056 7.07 3077.95 10.75
3/28/2021 4:45:00 PM 8.87 47.966 0.056 7 3079.9 11.07
3/28/2021 5:00:00 PM 8.86 47.948 0.056 7.06 3104.63 10.25
3/28/2021 5:15:00 PM 8.84 47.912 0.056 7.11 3128.67 10.75
3/28/2021 5:30:00 PM 8.85 47.93 0.057 7 3027.03 11.31
3/28/2021 5:45:00 PM 8.85 47.93 0.057 7.01 3028.59 10.82
3/28/2021 6:00:00 PM 8.83 47.894 0.057 6.98 3023.5 11.15
3/28/2021 6:15:00 PM 8.81 47.858 0.057 6.96 3036.81 11.1
3/28/2021 6:30:00 PM 8.77 47.786 0.057 6.95 3079.61 11.01
3/28/2021 6:45:00 PM 8.74 47.732 0.057 6.94 3102.64 10.96
3/28/2021 7:00:00 PM 8.72 47.696 0.057 6.93 3162.35 11.09
3/28/2021 7:15:00 PM 8.68 47.624 0.057 6.9 3177.42 10.85
3/28/2021 7:30:00 PM 8.63 47.534 0.057 6.9 3187.73 10.97
3/28/2021 7:45:00 PM 8.59 47.462 0.058 6.91 3365.53 10.56
3/28/2021 8:00:00 PM 8.54 47.372 0.058 6.92 3471.83 10.69
3/28/2021 8:15:00 PM 8.47 47.246 0.058 6.95 3594.01 10.54
3/28/2021 8:30:00 PM 8.41 47.138 0.058 6.94 3508.01 10.49
3/28/2021 8:45:00 PM 8.36 47.048 0.058 6.93 3598.54 10.51
3/28/2021 9:00:00 PM 8.29 46.922 0.058 6.99 3608.57 10.55
3/28/2021 9:15:00 PM 8.24 46.832 0.058 7.02 3751.23 10.81
3/28/2021 9:30:00 PM 8.19 46.742 0.058 7.02 3880.76 10.66
3/28/2021 9:45:00 PM 8.14 46.652 0.058 7.01 4009.17 10.71
3/28/2021 10:00:00 PM 8.08 46.544 0.058 7.03 4190.67 10.83
3/28/2021 10:15:00 PM 8.01 46.418 0.058 7.04 4252.62 10.87
3/28/2021 10:30:00 PM 7.96 46.328 0.058 7.04 4489.95 10.86
3/28/2021 10:45:00 PM 7.88 46.184 0.058 7 4555.5 11.03
3/28/2021 11:00:00 PM 7.81 46.058 0.058 7.05 3575.16 11.1
3/28/2021 11:15:00 PM 7.74 45.932 0.058 7.06 2815.16 11.05
3/28/2021 11:30:00 PM 7.68 45.824 0.058 7.04 3596.28 11.2
3/28/2021 11:45:00 PM 7.62 45.716 0.058 7.05 3657.08 10.97
3/29/2021 12:00:00 AM 7.55 45.59 0.058 7.03 3684.88 11.06
3/29/2021 12:15:00 AM 7.48 45.464 0.058 7.03 3687.57 11.13
3/29/2021 12:30:00 AM 7.41 45.338 0.058 7.03 3772.89 11.04
3/29/2021 12:45:00 AM 7.34 45.212 0.058 7.03 3822.64 11.09
3/29/2021 1:00:00 AM 7.28 45.104 0.058 7.02 3980.84 11.17
3/29/2021 1:15:00 AM 7.21 44.978 0.058 7.03 3950.48 11.25
3/29/2021 1:30:00 AM 7.15 44.87 0.058 7.03 3942.9 11.25
3/29/2021 1:45:00 AM 7.09 44.762 0.058 7.03 3911.28 11.19
3/29/2021 2:00:00 AM 7.03 44.654 0.057 7.04 3925.81 11.22
3/29/2021 2:15:00 AM 6.96 44.528 0.057 7.03 3921.48 11.24
3/29/2021 2:30:00 AM 6.9 44.42 0.057 7.04 3946.99 11.37
3/29/2021 2:45:00 AM 6.84 44.312 0.057 7.05 3964.4 11.35
3/29/2021 3:00:00 AM 6.79 44.222 0.057 7.01 4006.36 11.23
3/29/2021 3:15:00 AM 6.71 44.078 0.057 7.04 4021.48 11.39
3/29/2021 3:30:00 AM 6.66 43.988 0.057 7.04 4039.4 11.38
3/29/2021 3:45:00 AM 6.59 43.862 0.057 7.04 4073.05 11.2
3/29/2021 4:00:00 AM 6.52 43.736 0.057 7.04 4093.48 11.52
3/29/2021 4:15:00 AM 6.47 43.646 0.057 7.04 4123.1 11.38
3/29/2021 4:30:00 AM 6.42 43.556 0.057 7.04 4143.82 11.37
3/29/2021 4:45:00 AM 6.37 43.466 0.057 7.04 4161.05 11.42
3/29/2021 5:00:00 AM 6.32 43.376 0.057 7.04 4175.5 11.39
3/29/2021 5:15:00 AM 6.27 43.286 0.057 7.03 4232.44 11.36
3/29/2021 5:30:00 AM 6.21 43.178 0.057 7.03 4248.16 11.46
3/29/2021 5:45:00 AM 6.16 43.088 0.056 7.02 4267.41 11.41
3/29/2021 6:00:00 AM 6.11 42.998 0.056 7.04 4319.49 11.59
3/29/2021 6:15:00 AM 6.06 42.908 0.057 7.04 4247.21 11.65
3/29/2021 6:30:00 AM 5.99 42.782 0.057 7.04 4250.06 11.36
3/29/2021 6:45:00 AM 5.94 42.692 0.057 7.03 4280.09 11.48
3/29/2021 7:00:00 AM 5.9 42.62 0.056 7.03 4296.31 11.42
3/29/2021 7:15:00 AM 5.85 42.53 0.056 7.03 4336.09 11.52
3/29/2021 7:30:00 AM 5.8 42.44 0.056 7.03 4335.8 11.7
3/29/2021 7:45:00 AM 5.75 42.35 0.056 7.03 4376.35 11.81
3/29/2021 8:00:00 AM 5.71 42.278 0.056 7.04 4407.25 11.9
3/29/2021 8:15:00 AM 5.68 42.224 0.056 7.04 4429.31 11.89
3/29/2021 8:30:00 AM 5.65 42.17 0.056 7.01 4438.39 12
3/29/2021 8:45:00 AM 5.63 42.134 0.056 7.05 4441.11 11.98
3/29/2021 9:00:00 AM 5.61 42.098 0.056 7.06 4452.2 12.07
3/29/2021 9:15:00 AM 5.61 42.098 0.055 7.07 4461.33 12.22
3/29/2021 9:30:00 AM 5.61 42.098 0.055 7.08 4474.85 12.31
3/29/2021 9:45:00 AM 5.61 42.098 0.055 7.09 4479.26 12.52
3/29/2021 10:00:00 AM 5.59 42.062 0.055 7.13 4557.35 12.55
3/29/2021 10:15:00 AM 5.58 42.044 0.055 7.11 4568.01 12.71
3/29/2021 10:30:00 AM 5.59 42.062 0.055 7.16 4564.83 12.84
3/29/2021 10:45:00 AM 5.61 42.098 0.055 7.16 4585.04 12.87
3/29/2021 11:00:00 AM 5.64 42.152 0.054 7.14 4583.3 12.68
3/29/2021 11:15:00 AM 5.68 42.224 0.054 7.14 4596.35 12.5
3/29/2021 11:30:00 AM 5.73 42.314 0.054 7.13 4624.65 12.54
3/29/2021 11:45:00 AM 5.75 42.35 0.054 7.12 4666.52 12.69
3/29/2021 12:00:00 PM 5.79 42.422 0.054 7.11 4685.44 12.61
3/29/2021 12:15:00 PM 5.91 42.638 0.054 7.07 4699.81 12.32
3/29/2021 12:30:00 PM 6.01 42.818 0.054 7.09 4725.82 12.48
3/29/2021 12:45:00 PM 6.13 43.034 0.054 7.1 4763.58 12.46
3/29/2021 1:00:00 PM 6.25 43.25 0.054 7.08 4771.09 12.47
3/29/2021 1:15:00 PM 6.36 43.448 0.054 7.07 4784.13 12.59
3/29/2021 1:30:00 PM 6.45 43.61 0.054 7.06 4782.11 12.23
3/29/2021 1:45:00 PM 6.51 43.718 0.054 7.08 4780.1 12.42
3/29/2021 2:00:00 PM 6.76 44.168 0.054 7.09 4816.27 12.37
3/29/2021 2:15:00 PM 7.05 44.69 0.054 7.1 4866.7 12.44
3/29/2021 2:30:00 PM 7.29 45.122 0.054 7.04 4891.88 12.25
3/29/2021 2:45:00 PM 7.48 45.464 0.054 7.1 4939.06 12.36
3/29/2021 3:00:00 PM 7.61 45.698 0.054 7.08 4991.33 12.06
3/29/2021 3:15:00 PM 7.77 45.986 0.054 7.06 4995.33 12.2
3/29/2021 3:30:00 PM 7.97 46.346 0.054 7.06 5021.13 11.94
3/29/2021 3:45:00 PM 8.15 46.67 0.054 7.08 5073.75 11.82
3/29/2021 4:00:00 PM 8.29 46.922 0.054 7.07 5108.72 12.21
3/29/2021 4:15:00 PM 8.37 47.066 0.054 7.06 5157.77 11.77
3/29/2021 4:30:00 PM 8.43 47.174 0.054 7.05 5231.86 11.82
3/29/2021 4:45:00 PM 8.48 47.264 0.054 7.04 5288.81 11.79
3/29/2021 5:00:00 PM 8.48 47.264 0.054 7.05 5148.66 11.66
3/29/2021 5:15:00 PM 8.46 47.228 0.054 7.03 5438.15 11.6
3/29/2021 5:30:00 PM 8.42 47.156 0.054 7.06 5509.6 11.54
3/29/2021 5:45:00 PM 8.38 47.084 0.054 7.04 5554.68 11.54
3/29/2021 6:00:00 PM 8.32 46.976 0.054 7.02 5606.68 11.6
3/29/2021 6:15:00 PM 8.24 46.832 0.054 7.03 5677.36 11.65
3/29/2021 6:30:00 PM 8.14 46.652 0.054 7.01 5946.28 11.53
3/29/2021 6:45:00 PM 8.02 46.436 0.054 7 6041.71 11.37
3/29/2021 7:00:00 PM 7.9 46.22 0.054 6.99 6057.08 11.57
3/29/2021 7:15:00 PM 7.78 46.004 0.054 6.96 6420.58 11.54
3/29/2021 7:30:00 PM 7.67 45.806 0.054 6.96 6597.11 11.56
3/29/2021 7:45:00 PM 7.57 45.626 0.054 6.94 6787.68 11.55
3/29/2021 8:00:00 PM 7.47 45.446 0.054 6.93 6518.5 11.49
3/29/2021 8:15:00 PM 7.35 45.23 0.054 6.93 6266.86 11.45
3/29/2021 8:30:00 PM 7.25 45.05 0.054 6.88 6331.8 11.46
3/29/2021 8:45:00 PM 7.16 44.888 0.054 6.93 6386.7 11.42
3/29/2021 9:00:00 PM 7.07 44.726 0.055 6.91 6477.39 11.42
3/29/2021 9:15:00 PM 6.99 44.582 0.054 6.88 7213.74 11.48
3/29/2021 9:30:00 PM 6.91 44.438 0.055 6.91 7357.74 11.46
3/29/2021 9:45:00 PM 6.82 44.276 0.054 6.86 7465.91 11.53
3/29/2021 10:00:00 PM 6.75 44.15 0.055 6.88 7591.89 11.37
3/29/2021 10:15:00 PM 6.67 44.006 0.055 6.86 7592.89 11.39
3/29/2021 10:30:00 PM 6.6 43.88 0.055 6.87 7784.71 11.37
3/29/2021 10:45:00 PM 6.52 43.736 0.055 6.86 7944.53 11.41
3/29/2021 11:00:00 PM 6.45 43.61 0.055 6.86 8190.6 11.4
3/29/2021 11:15:00 PM 6.41 43.538 0.06 6.86 1853.41 9.39
3/29/2021 11:30:00 PM 6.35 43.43 0.06 6.87 1145.86 10.46
3/29/2021 11:45:00 PM 6.29 43.322 0.06 6.86 1164.98 10.62
3/30/2021 12:00:00 AM 6.21 43.178 0.06 6.87 1074.16 10.88
3/30/2021 12:15:00 AM 6.14 43.052 0.06 6.88 981.56 10.79
3/30/2021 12:30:00 AM 6.07 42.926 0.06 6.89 898.16 10.77
3/30/2021 12:45:00 AM 6 42.8 0.059 6.89 829.46 10.84
3/30/2021 1:00:00 AM 5.93 42.674 0.059 6.88 793.78 11.05
3/30/2021 1:15:00 AM 5.85 42.53 0.059 6.9 771.06 11.22
3/30/2021 1:30:00 AM 5.78 42.404 0.058 6.9 749.38 11.24
3/30/2021 1:45:00 AM 5.71 42.278 0.058 6.89 730.8 11.26
3/30/2021 2:00:00 AM 5.63 42.134 0.058 6.92 707.04 11.42
3/30/2021 2:15:00 AM 5.57 42.026 0.057 6.93 683.13 11.38
3/30/2021 2:30:00 AM 5.5 41.9 0.057 6.92 653.92 11.42
3/30/2021 2:45:00 AM 5.42 41.756 0.057 6.95 642.55 11.51
3/30/2021 3:00:00 AM 5.35 41.63 0.057 6.91 630.5 11.54
3/30/2021 3:15:00 AM 5.28 41.504 0.057 6.92 618.58 11.56
3/30/2021 3:30:00 AM 5.21 41.378 0.057 6.93 622.11 11.65
3/30/2021 3:45:00 AM 5.14 41.252 0.056 6.92 614 11.71
3/30/2021 4:00:00 AM 5.06 41.108 0.055 6.91 608.16 11.75
3/30/2021 4:15:00 AM 4.99 40.982 0.055 6.92 609.07 11.81
3/30/2021 4:30:00 AM 4.93 40.874 0.054 6.9 599.73 11.83
3/30/2021 4:45:00 AM 4.86 40.748 0.054 6.9 594.1 11.81
3/30/2021 5:00:00 AM 4.8 40.64 0.054 6.92 589.82 11.77
3/30/2021 5:15:00 AM 4.74 40.532 0.054 6.92 584.79 11.81
3/30/2021 5:30:00 AM 4.68 40.424 0.054 6.91 579.18 11.78
3/30/2021 5:45:00 AM 4.62 40.316 0.053 6.92 579.17 12.01
3/30/2021 6:00:00 AM 4.56 40.208 0.053 6.91 579.16 12.03
3/30/2021 6:15:00 AM 4.51 40.118 0.052 6.92 567.14 12.07
3/30/2021 6:30:00 AM 4.45 40.01 0.052 6.86 570.09 12.09
3/30/2021 6:45:00 AM 4.4 39.92 0.052 6.93 571.98 12.11
3/30/2021 7:00:00 AM 4.34 39.812 0.052 6.92 572.29 12.17
3/30/2021 7:15:00 AM 4.29 39.722 0.051 6.93 559.43 12.1
3/30/2021 7:30:00 AM 4.24 39.632 0.051 6.92 566.69 12.12
3/30/2021 7:45:00 AM 4.2 39.56 0.05 6.93 567.64 12.16
3/30/2021 8:00:00 AM 4.15 39.47 0.05 6.93 587.7 12.05
3/30/2021 8:15:00 AM 4.11 39.398 0.049 6.93 574.6 12.2
3/30/2021 8:30:00 AM 4.08 39.344 0.049 6.93 580.86 12.41
3/30/2021 8:45:00 AM 4.07 39.326 0.049 6.89 585.1 12.37
3/30/2021 9:00:00 AM 4.08 39.344 0.048 6.91 573.41 12.53
3/30/2021 9:15:00 AM 4.09 39.362 0.048 6.92 572.94 12.61
3/30/2021 9:30:00 AM 4.11 39.398 0.048 6.92 575.03 13.1
3/30/2021 9:45:00 AM 4.15 39.47 0.047 6.91 584.64 12.93
3/30/2021 10:00:00 AM 4.19 39.542 0.047 6.93 600.71 12.94
3/30/2021 10:15:00 AM 4.27 39.686 0.046 6.93 619.81 12.93
3/30/2021 10:30:00 AM 4.37 39.866 0.046 6.93 627.19 12.93
3/30/2021 10:45:00 AM 4.51 40.118 0.045 6.89 639.08 12.91
3/30/2021 11:00:00 AM 4.69 40.442 0.045 6.94 632.02 13.01
3/30/2021 11:15:00 AM 4.88 40.784 0.044 6.94 656.74 12.93
3/30/2021 11:30:00 AM 5.08 41.144 0.043 6.96 639.88 12.87
3/30/2021 11:45:00 AM 5.29 41.522 0.041 6.95 589.63 12.76
3/30/2021 12:00:00 PM 5.5 41.9 0.055 6.84 920.48 10.68
3/30/2021 12:15:00 PM 5.75 42.35 0.052 6.87 924.15 12.31
3/30/2021 12:30:00 PM 6.01 42.818 0.052 6.88 1109.58 12.4
3/30/2021 12:45:00 PM 6.31 43.358 0.052 6.88 1170.29 12.46
3/30/2021 1:00:00 PM 6.6 43.88 0.051 6.89 1136.24 12.39
3/30/2021 1:15:00 PM 6.89 44.402 0.051 6.89 1196.9 12.3
3/30/2021 1:30:00 PM 7.19 44.942 0.051 6.91 1188.53 12.17
3/30/2021 1:45:00 PM 7.5 45.5 0.051 6.93 1207.62 12.1
3/30/2021 2:00:00 PM 7.84 46.112 0.051 6.91 1208.82 11.99
3/30/2021 2:15:00 PM 8.17 46.706 0.05 6.92 1226.64 12.03
3/30/2021 2:30:00 PM 8.5 47.3 0.05 6.92 1225.89 12.04
3/30/2021 2:45:00 PM 8.81 47.858 0.05 6.92 1166.81 11.93
3/30/2021 3:00:00 PM 9.09 48.362 0.049 6.93 1190.46 11.89
3/30/2021 3:15:00 PM 9.34 48.812 0.049 6.93 1179.4 11.65
3/30/2021 3:30:00 PM 9.57 49.226 0.049 6.94 1176.11 11.51
3/30/2021 3:45:00 PM 9.78 49.604 0.048 6.91 1145.35 11.43
3/30/2021 4:00:00 PM 9.94 49.892 0.048 6.89 1112.56 11.35
3/30/2021 4:15:00 PM 10.07 50.126 0.047 6.94 1100.19 11.33
3/30/2021 4:30:00 PM 10.18 50.324 0.047 6.94 1135.83 11.37
3/30/2021 4:45:00 PM 10.24 50.432 0.046 6.96 1132.51 11.4
3/30/2021 5:00:00 PM 10.27 50.486 0.046 6.96 1130.84 11.43
3/30/2021 5:15:00 PM 10.29 50.522 0.044 6.96 1099.95 11.38
3/30/2021 5:30:00 PM 10.26 50.468 0.043 6.96 1105.09 11.24
3/30/2021 5:45:00 PM 10.22 50.396 0.04 6.96 1139.06 11.11
3/30/2021 6:00:00 PM 10.16 50.288 0.054 6.86 1595.35 10.2
3/30/2021 6:15:00 PM 10.14 50.252 0.053 6.88 1965.89 10.44
3/30/2021 6:30:00 PM 10.09 50.162 0.053 6.88 1779.94 10.53
3/30/2021 6:45:00 PM 10.01 50.018 0.053 6.85 1638.31 10.79
3/30/2021 7:00:00 PM 9.95 49.91 0.053 6.9 1578.1 11.02
3/30/2021 7:15:00 PM 9.9 49.82 0.053 6.89 1536.53 10.95
3/30/2021 7:30:00 PM 9.83 49.694 0.052 6.84 1507.01 10.78
3/30/2021 7:45:00 PM 9.78 49.604 0.052 6.87 1525.86 10.68
3/30/2021 8:00:00 PM 9.71 49.478 0.051 6.87 1470.68 10.69
3/30/2021 8:15:00 PM 9.63 49.334 0.049 6.89 1408.48 10.65
3/30/2021 8:30:00 PM 9.55 49.19 0.047 6.84 1295.52 10.55
3/30/2021 8:45:00 PM 9.47 49.046 0.045 6.87 1195.57 10.65
3/30/2021 9:00:00 PM 9.4 48.92 0.044 6.86 1105.74 10.66
3/30/2021 9:15:00 PM 9.34 48.812 0.042 6.87 995.12 10.27
3/30/2021 9:30:00 PM 9.28 48.704 0.037 6.87 969.91 10.01
3/30/2021 9:45:00 PM 9.24 48.632 0.048 6.91 1058.85 9.37
3/30/2021 10:00:00 PM 9.19 48.542 0.046 6.96 1393.75 9.37
3/30/2021 10:15:00 PM 9.14 48.452 0.046 6.98 1807.2 9.42
3/30/2021 10:30:00 PM 9.08 48.344 0.045 7.02 2313.93 10.46
3/30/2021 10:45:00 PM 9.04 48.272 0.044 7.03 2869.92 10.62
3/30/2021 11:00:00 PM 9 48.2 0.044 7 3318.7 10.7
3/30/2021 11:15:00 PM 8.96 48.128 0.043 7.04 3389.78 10.67
3/30/2021 11:30:00 PM 8.91 48.038 0.042 7.05 3527.55 10.61
3/30/2021 11:45:00 PM 8.87 47.966 0.041 7.07 3623.84 10.51
3/31/2021 12:00:00 AM 8.82 47.876 0.044 6.98 758.52 9.38
3/31/2021 12:15:00 AM 8.78 47.804 0.042 7.19 901.11 8.44
3/31/2021 12:30:00 AM 8.73 47.714 0.041 7.18 881.33 7.92
3/31/2021 12:45:00 AM 8.68 47.624 0.041 7.18 674.4 7.33
3/31/2021 1:00:00 AM 8.63 47.534 0.04 7.17 371.55 6.97
3/31/2021 1:15:00 AM 8.59 47.462 0.04 7.16 420.2 8.23
3/31/2021 1:30:00 AM 8.55 47.39 0.04 7.16 511.76 8.78
3/31/2021 1:45:00 AM 8.5 47.3 0.04 7.15 636.83 8.58
3/31/2021 2:00:00 AM 8.46 47.228 0.04 7.15 890.03 8.75
3/31/2021 2:15:00 AM 8.42 47.156 0.04 7.13 941.24 9.03
3/31/2021 2:30:00 AM 8.37 47.066 0.039 7.15 979.88 9.18
3/31/2021 2:45:00 AM 8.32 46.976 0.039 7.15 851.95 9.04
3/31/2021 3:00:00 AM 8.28 46.904 0.039 7.14 685.45 8.83
3/31/2021 3:15:00 AM 8.23 46.814 0.039 7.14 765.04 8.86
3/31/2021 3:30:00 AM 8.18 46.724 0.039 7.15 356.68 8.97
3/31/2021 3:45:00 AM 8.13 46.634 0.039 7.15 667.25 8.82
3/31/2021 4:00:00 AM 8.07 46.526 0.039 7.16 426.97 8.63
3/31/2021 4:15:00 AM 8.02 46.436 0.039 7.15 234.76 8.82
3/31/2021 4:30:00 AM 7.98 46.364 0.039 7.15 273.65 9.21
3/31/2021 4:45:00 AM 7.93 46.274 0.039 7.15 376.29 9.29
3/31/2021 5:00:00 AM 7.89 46.202 0.039 7.12 605.68 8.81
3/31/2021 5:15:00 AM 7.86 46.148 0.039 7.11 796.17 8.81
3/31/2021 5:30:00 AM 7.82 46.076 0.039 7.03 889.25 8.75
3/31/2021 5:45:00 AM 7.79 46.022 0.039 7.07 888.52 8.21
3/31/2021 6:00:00 AM 7.76 45.968 0.039 7.1 1059.79 9.06
3/31/2021 6:15:00 AM 7.73 45.914 0.04 7.08 1784.39 9.7
3/31/2021 6:30:00 AM 7.69 45.842 0.04 7.05 2856.38 9.57
3/31/2021 6:45:00 AM 7.66 45.788 0.041 7.08 3603.42 10.31
3/31/2021 7:00:00 AM 7.64 45.752 0.042 7.07 3714.75 10.53
3/31/2021 7:15:00 AM 7.61 45.698 0.042 7.13 3726.54 10.74
3/31/2021 7:30:00 AM 7.58 45.644 0.043 7.14 4005.3 10.92
3/31/2021 7:45:00 AM 7.56 45.608 0.043 7.11 4010.51 10.87
3/31/2021 8:00:00 AM 7.54 45.572 0.043 7.07 4248.25 10.83
3/31/2021 8:15:00 AM 7.53 45.554 0.043 7.12 3140.91 10.85
3/31/2021 8:30:00 AM 7.51 45.518 0.044 7.13 2482.74 11
3/31/2021 8:45:00 AM 7.5 45.5 0.046 7.12 2457.69 11
3/31/2021 9:00:00 AM 7.49 45.482 0.048 7.13 2586.53 10.97
3/31/2021 9:15:00 AM 7.47 45.446 0.047 7.21 2890.16 10.58
3/31/2021 9:30:00 AM 7.47 45.446 0.049 7.1 3431.06 10.47
3/31/2021 9:45:00 AM 7.46 45.428 0.046 7.24 3617.05 10.75
3/31/2021 10:00:00 AM 7.46 45.428 0.046 7.26 4233.48 10.91
3/31/2021 10:15:00 AM 7.48 45.464 0.051 7.33 4899.48 10.89
3/31/2021 10:30:00 AM 7.49 45.482 0.05 7.37 5481.23 10.75
3/31/2021 10:45:00 AM 7.5 45.5 0.049 7.33 6169.81